Darstellungsparameter: Aktuell verwendete Einstellungen:
Skalierung der Graphiken ... ?
xyx+y,   Skalierungsfaktor:      Skalierung: Modus: x, Faktor: 1
Darstellungszeitraum ... ?
Vom - - bis: - -   Zeitraum: 10.09.2010 - 10.10.2010
Min/Max/Avg-Anzeige ... ?
Zeige MMA aktuell
Zeige MMA Monat
Zeige MMA alles
Zeige --A aktuell
Zeige --A Monat
Zeige --A alles
Keine MMA-Anzeige
MMA:
Average (ber die Originaldaten)
MMA-Basis: 10.09.2010 - 10.10.2010
Quicknavigation für Darstellung... ?
Tage:      1T, 2T, 3T, 5T -1T -2T -3T -5T +1T +2T +3T +5T
Wochen: 1W, 2W, 3W -1W -2W -3W +1W +2W +3W
Monate: 1M, 3M, 6M -1M -3M -6M +1M +3M +6M
Jahre:    1J, 3J, 5J, 10J -1J -3J -5J -10J +1J +3J +5J +10J
Nutze für die Darstellung ... ?
Originaldaten oder Mittelwerte auf ...
Stundenbasis Tagesbasis Wochenbasis
Monatsbasis Jahresbasis      Datenbasis: Original-Daten
Darstellen als:
Statistik (Auto) Statistik J:M      Darstellung:
Zur Graphik,    zurück zur Übersicht aller Sensoren.
 
Tabellarische Datenbersicht: ?
 
Sensor: Nr:Datum:Temp:Abs-Feuchte:Windchill:Wind:
Aussen-T/F 1 10-09-2010 00:08:03 14.9 C 9.81 g/m*3 14.9 C 0 km/h
2 10-09-2010 00:20:03 14.8 C 9.88 g/m*3 14.8 C 0 km/h
3 10-09-2010 00:32:03 14.6 C 10.01 g/m*3 14.6 C 0 km/h
4 10-09-2010 00:44:03 14.6 C 10.01 g/m*3 14.6 C 0 km/h
5 10-09-2010 00:56:03 14.4 C 9.89 g/m*3 14.4 C 0 km/h
6 10-09-2010 01:08:03 14.3 C 9.83 g/m*3 14.3 C 0 km/h
7 10-09-2010 01:20:03 14.1 C 9.71 g/m*3 14.1 C 0 km/h
8 10-09-2010 01:32:03 13.9 C 9.71 g/m*3 13.9 C 0 km/h
9 10-09-2010 01:44:03 13.8 C 9.77 g/m*3 13.8 C 0 km/h
10 10-09-2010 01:56:03 13.9 C 9.83 g/m*3 13.9 C 0 km/h
11 10-09-2010 02:08:03 13.8 C 9.89 g/m*3 13.8 C 0 km/h
12 10-09-2010 02:20:03 13.8 C 9.89 g/m*3 13.8 C 0 km/h
13 10-09-2010 02:32:03 13.9 C 10.07 g/m*3 13.9 C 0 km/h
14 10-09-2010 02:44:03 14 C 10.01 g/m*3 14 C 0 km/h
15 10-09-2010 02:56:03 14 C 9.89 g/m*3 14 C 0 km/h
16 10-09-2010 03:08:03 14 C 10.01 g/m*3 14 C 0 km/h
17 10-09-2010 03:20:03 14 C 10.01 g/m*3 14 C 0 km/h
18 10-09-2010 03:32:04 13.9 C 10.07 g/m*3 13.9 C 0 km/h
19 10-09-2010 03:44:04 13.8 C 10.13 g/m*3 13.8 C 0 km/h
20 10-09-2010 03:56:04 13.8 C 10.13 g/m*3 13.8 C 0 km/h
21 10-09-2010 04:08:04 13.9 C 10.31 g/m*3 13.9 C 0 km/h
22 10-09-2010 04:20:04 14 C 10.25 g/m*3 14 C 0 km/h
23 10-09-2010 04:32:04 13.9 C 10.31 g/m*3 13.9 C 0 km/h
24 10-09-2010 04:44:04 13.8 C 10.25 g/m*3 13.8 C 0 km/h
25 10-09-2010 04:56:04 13.6 C 10.12 g/m*3 13.6 C 0 km/h
Sensor: Nr:Datum:Temp:Abs-Feuchte:Windchill:Wind:
Aussen-T/F 26 10-09-2010 05:08:04 13.4 C 10 g/m*3 13.4 C 0 km/h
27 10-09-2010 05:20:04 13.2 C 9.99 g/m*3 13.2 C 0 km/h
28 10-09-2010 05:32:04 13.1 C 10.04 g/m*3 13.1 C 0 km/h
29 10-09-2010 05:44:04 12.8 C 9.97 g/m*3 12.8 C 0 km/h
30 10-09-2010 05:56:04 12.8 C 9.97 g/m*3 12.8 C 0 km/h
31 10-09-2010 06:08:04 13.2 C 10.33 g/m*3 13.2 C 0 km/h
32 10-09-2010 06:20:04 13 C 10.09 g/m*3 13 C 0 km/h
33 10-09-2010 06:32:04 13.1 C 10.27 g/m*3 13.1 C 0 km/h
34 10-09-2010 06:44:04 13.1 C 10.27 g/m*3 13.1 C 0 km/h
35 10-09-2010 06:56:04 13.2 C 10.22 g/m*3 13.2 C 0 km/h
36 10-09-2010 07:08:04 13.1 C 10.16 g/m*3 13.1 C 0 km/h
37 10-09-2010 07:20:04 13.2 C 9.99 g/m*3 13.2 C 0 km/h
38 10-09-2010 07:32:05 13.3 C 9.7 g/m*3 13.3 C 0 km/h
39 10-09-2010 07:44:05 13.2 C 9.64 g/m*3 13.2 C 0 km/h
40 10-09-2010 07:56:02 13.1 C 9.7 g/m*3 13.1 C 0 km/h
41 10-09-2010 08:08:02 13.1 C 9.81 g/m*3 13.1 C 0 km/h
42 10-09-2010 08:20:02 13.1 C 9.93 g/m*3 13.1 C 0 km/h
43 10-09-2010 08:32:02 13.2 C 9.99 g/m*3 13.2 C 0 km/h
44 10-09-2010 08:44:03 13.5 C 10.06 g/m*3 13.5 C 0 km/h
45 10-09-2010 08:56:02 13.7 C 9.95 g/m*3 13.7 C 0 km/h
46 10-09-2010 09:08:02 14 C 9.77 g/m*3 14 C 0 km/h
47 10-09-2010 09:20:02 14.4 C 9.64 g/m*3 14.4 C 0 km/h
48 10-09-2010 09:32:02 14.5 C 9.58 g/m*3 14.5 C 0 km/h
49 10-09-2010 09:44:02 14.9 C 9.43 g/m*3 14.9 C 0 km/h
50 10-09-2010 09:56:02 15.2 C 9.22 g/m*3 15.2 C 0 km/h
Sensor: Nr:Datum:Temp:Abs-Feuchte:Windchill:Wind:
Aussen-T/F 51 10-09-2010 10:08:02 15.5 C 9.39 g/m*3 15.5 C 0 km/h
52 10-09-2010 10:20:03 15.7 C 9.23 g/m*3 15.7 C 0 km/h
53 10-09-2010 10:32:02 16.2 C 9.38 g/m*3 16.2 C 0 km/h
54 10-09-2010 10:44:02 16.6 C 9.46 g/m*3 16.6 C 0 km/h
55 10-09-2010 10:56:02 16.8 C 9.29 g/m*3 16.8 C 0 km/h
56 10-09-2010 11:08:02 17.2 C 9.37 g/m*3 17.2 C 0 km/h
57 10-09-2010 11:20:02 17.7 C 9.51 g/m*3 17.7 C 0 km/h
58 10-09-2010 11:32:02 18.1 C 9.12 g/m*3 18.1 C 0 km/h
59 10-09-2010 11:44:02 18.1 C 8.96 g/m*3 18.1 C 0 km/h
60 10-09-2010 11:56:02 18.3 C 9.07 g/m*3 18.3 C 0 km/h
61 10-09-2010 12:08:01 18.6 C 9.07 g/m*3 18.6 C 0 km/h
62 10-09-2010 12:20:02 18.7 C 9.13 g/m*3 18.7 C 0 km/h
63 10-09-2010 12:32:02 18.4 C 9.12 g/m*3 18.4 C 0 km/h
64 10-09-2010 12:44:02 18.8 C 9.34 g/m*3 18.8 C 0 km/h
65 10-09-2010 12:56:02 19.2 C 9.23 g/m*3 19.2 C 0 km/h
66 10-09-2010 13:08:03 19.5 C 8.89 g/m*3 19.5 C 0 km/h
67 10-09-2010 13:20:02 19.4 C 8.84 g/m*3 19.4 C 0 km/h
68 10-09-2010 13:32:02 19 C 8.47 g/m*3 19 C 0 km/h
69 10-09-2010 13:44:02 19 C 8.47 g/m*3 19 C 0 km/h
70 10-09-2010 13:56:01 19 C 8.64 g/m*3 19 C 0 km/h
71 10-09-2010 14:08:02 19.3 C 8.79 g/m*3 19.3 C 0 km/h
72 10-09-2010 14:20:01 19.9 C 8.76 g/m*3 19.9 C 0 km/h
73 10-09-2010 14:32:01 20.4 C 8.67 g/m*3 20.4 C 0 km/h
74 10-09-2010 14:44:01 20.2 C 8.74 g/m*3 20.2 C 0 km/h
75 10-09-2010 14:56:01 19.9 C 8.76 g/m*3 19.9 C 0 km/h
Sensor: Nr:Datum:Temp:Abs-Feuchte:Windchill:Wind:
Aussen-T/F 76 10-09-2010 15:08:02 20 C 8.64 g/m*3 20 C 0 km/h
77 10-09-2010 15:20:02 20.6 C 8.95 g/m*3 20.6 C 0 km/h
78 10-09-2010 15:32:01 20.9 C 8.38 g/m*3 20.9 C 0 km/h
79 10-09-2010 15:44:01 21.2 C 8.34 g/m*3 21.2 C 0 km/h
80 10-09-2010 15:56:02 21.4 C 8.62 g/m*3 21.4 C 0 km/h
81 10-09-2010 16:08:01 21.2 C 8.34 g/m*3 21.2 C 0 km/h
82 10-09-2010 16:20:02 20.8 C 8.33 g/m*3 20.8 C 0 km/h
83 10-09-2010 16:32:01 21.1 C 8.48 g/m*3 21.1 C 0 km/h
84 10-09-2010 16:44:01 21.2 C 8.71 g/m*3 21.2 C 0 km/h
85 10-09-2010 16:56:02 21.2 C 8.34 g/m*3 21.2 C 0 km/h
86 10-09-2010 17:08:02 20.9 C 8.56 g/m*3 20.9 C 0 km/h
87 10-09-2010 17:20:02 20.5 C 8.9 g/m*3 20.5 C 0 km/h
88 10-09-2010 17:32:03 20.1 C 9.04 g/m*3 20.1 C 0 km/h
89 10-09-2010 17:44:03 19.8 C 9.39 g/m*3 19.8 C 0 km/h
90 10-09-2010 17:56:02 19.6 C 8.95 g/m*3 19.6 C 0 km/h
91 10-09-2010 18:08:02 19.4 C 9.18 g/m*3 19.4 C 0 km/h
92 10-09-2010 18:20:02 18.9 C 9.56 g/m*3 18.9 C 0 km/h
93 10-09-2010 18:32:02 17.8 C 10.17 g/m*3 17.8 C 0 km/h
94 10-09-2010 18:44:02 16.8 C 10.72 g/m*3 16.8 C 0 km/h
95 10-09-2010 18:56:02 16.4 C 11.03 g/m*3 16.4 C 0 km/h
96 10-09-2010 19:08:02 16.4 C 11.31 g/m*3 16.4 C 0 km/h
97 10-09-2010 19:20:02 16.8 C 11.72 g/m*3 16.8 C 0 km/h
98 10-09-2010 19:32:02 16.3 C 11.38 g/m*3 16.3 C 0 km/h
99 10-09-2010 19:44:02 16 C 11.31 g/m*3 16 C 0 km/h
100 10-09-2010 19:56:02 15.8 C 11.44 g/m*3 15.8 C 0 km/h
Sensor: Nr:Datum:Temp:Abs-Feuchte:Windchill:Wind:
Aussen-T/F 101 10-09-2010 20:08:03 15.8 C 11.58 g/m*3 15.8 C 0 km/h
102 10-09-2010 20:20:02 15.7 C 11.51 g/m*3 15.7 C 0 km/h
103 10-09-2010 20:32:03 15.6 C 11.57 g/m*3 15.6 C 0 km/h
104 10-09-2010 20:44:03 15.6 C 11.57 g/m*3 15.6 C 0 km/h
105 10-09-2010 20:56:02 15.7 C 11.64 g/m*3 15.7 C 0 km/h
106 10-09-2010 21:08:01 15.8 C 11.71 g/m*3 15.8 C 0 km/h
107 10-09-2010 21:20:02 15.8 C 11.71 g/m*3 15.8 C 0 km/h
108 10-09-2010 21:32:02 15.8 C 11.71 g/m*3 15.8 C 0 km/h
109 10-09-2010 21:44:02 15.8 C 11.71 g/m*3 15.8 C 0 km/h
110 10-09-2010 21:56:02 15.8 C 11.58 g/m*3 15.8 C 0 km/h
111 10-09-2010 22:08:01 15.8 C 11.58 g/m*3 15.8 C 0 km/h
112 10-09-2010 22:20:02 15.8 C 11.58 g/m*3 15.8 C 0 km/h
113 10-09-2010 22:32:01 15.7 C 11.51 g/m*3 15.7 C 0 km/h
114 10-09-2010 22:44:01 15.6 C 11.3 g/m*3 15.6 C 0 km/h
115 10-09-2010 22:57:03 15.5 C 11.24 g/m*3 15.5 C 0 km/h
116 10-09-2010 23:09:03 15.6 C 11.3 g/m*3 15.6 C 0 km/h
117 10-09-2010 23:21:03 15.5 C 11.24 g/m*3 15.5 C 0 km/h
118 10-09-2010 23:33:03 15.5 C 11.24 g/m*3 15.5 C 0 km/h
119 10-09-2010 23:45:03 15.4 C 11.17 g/m*3 15.4 C 0 km/h
120 10-09-2010 23:57:03 15.3 C 10.97 g/m*3 15.3 C 0 km/h
121 11-09-2010 00:09:03 15.2 C 10.9 g/m*3 15.2 C 0 km/h
122 11-09-2010 00:21:03 15.2 C 10.9 g/m*3 15.2 C 0 km/h
123 11-09-2010 00:33:03 15.1 C 10.84 g/m*3 15.1 C 0 km/h
124 11-09-2010 00:45:03 15.1 C 10.84 g/m*3 15.1 C 0 km/h
125 11-09-2010 00:57:03 15.1 C 10.84 g/m*3 15.1 C 0 km/h
Sensor: Nr:Datum:Temp:Abs-Feuchte:Windchill:Wind:
Aussen-T/F 126 11-09-2010 01:09:03 15.1 C 10.84 g/m*3 15.1 C 0 km/h
127 11-09-2010 01:21:03 15 C 10.77 g/m*3 15 C 0 km/h
128 11-09-2010 01:33:03 15 C 10.77 g/m*3 15 C 0 km/h
129 11-09-2010 01:45:04 15 C 10.77 g/m*3 15 C 0 km/h
130 11-09-2010 01:57:04 14.9 C 10.83 g/m*3 14.9 C 0 km/h
131 11-09-2010 02:09:04 14.9 C 10.83 g/m*3 14.9 C 0 km/h
132 11-09-2010 02:21:04 14.8 C 10.77 g/m*3 14.8 C 0 km/h
133 11-09-2010 02:33:04 14.7 C 10.58 g/m*3 14.7 C 0 km/h
134 11-09-2010 02:45:04 14.7 C 10.7 g/m*3 14.7 C 0 km/h
135 11-09-2010 02:57:04 14.6 C 10.76 g/m*3 14.6 C 0 km/h
136 11-09-2010 03:09:04 14.4 C 10.63 g/m*3 14.4 C 0 km/h
137 11-09-2010 03:21:04 14.3 C 10.57 g/m*3 14.3 C 0 km/h
138 11-09-2010 03:33:04 14.1 C 10.44 g/m*3 14.1 C 0 km/h
139 11-09-2010 03:45:04 14 C 10.37 g/m*3 14 C 0 km/h
140 11-09-2010 03:57:04 13.6 C 10.12 g/m*3 13.6 C 0 km/h
141 11-09-2010 04:09:04 13.5 C 10.06 g/m*3 13.5 C 0 km/h
142 11-09-2010 04:21:04 13.3 C 9.94 g/m*3 13.3 C 0 km/h
143 11-09-2010 04:33:04 13.1 C 9.81 g/m*3 13.1 C 0 km/h
144 11-09-2010 04:45:04 13 C 9.75 g/m*3 13 C 0 km/h
145 11-09-2010 04:57:04 12.8 C 9.74 g/m*3 12.8 C 0 km/h
146 11-09-2010 05:09:04 12.6 C 9.62 g/m*3 12.6 C 0 km/h
147 11-09-2010 05:21:04 12.5 C 9.68 g/m*3 12.5 C 0 km/h
148 11-09-2010 05:33:04 12.6 C 9.74 g/m*3 12.6 C 0 km/h
149 11-09-2010 05:45:05 12.7 C 9.91 g/m*3 12.7 C 0 km/h
150 11-09-2010 05:57:05 12.8 C 9.97 g/m*3 12.8 C 0 km/h
Sensor: Nr:Datum:Temp:Abs-Feuchte:Windchill:Wind:
Aussen-T/F 151 11-09-2010 06:09:05 13 C 10.09 g/m*3 13 C 0 km/h
152 11-09-2010 06:21:05 13.1 C 10.16 g/m*3 13.1 C 0 km/h
153 11-09-2010 06:33:05 12.8 C 9.97 g/m*3 12.8 C 0 km/h
154 11-09-2010 06:45:05 12.5 C 9.78 g/m*3 12.5 C 0 km/h
155 11-09-2010 06:57:05 12.3 C 9.56 g/m*3 12.3 C 0 km/h
156 11-09-2010 07:09:05 12.1 C 9.44 g/m*3 12.1 C 0 km/h
157 11-09-2010 07:21:05 12.1 C 9.44 g/m*3 12.1 C 0 km/h
158 11-09-2010 07:33:05 12.1 C 9.54 g/m*3 12.1 C 0 km/h
159 11-09-2010 07:45:05 12.1 C 9.54 g/m*3 12.1 C 0 km/h
160 11-09-2010 07:57:05 12.4 C 9.72 g/m*3 12.4 C 0 km/h
161 11-09-2010 08:09:05 12.7 C 10.02 g/m*3 12.7 C 0 km/h
162 11-09-2010 08:21:03 13 C 10.21 g/m*3 13 C 0 km/h
163 11-09-2010 08:33:02 13 C 10.21 g/m*3 13 C 0 km/h
164 11-09-2010 08:45:02 13.1 C 10.27 g/m*3 13.1 C 0 km/h
165 11-09-2010 08:57:02 13.4 C 10.46 g/m*3 13.4 C 0 km/h
166 11-09-2010 09:09:02 13.4 C 10.35 g/m*3 13.4 C 0 km/h
167 11-09-2010 09:21:02 13.5 C 10.41 g/m*3 13.5 C 0 km/h
168 11-09-2010 09:33:02 13.7 C 10.54 g/m*3 13.7 C 0 km/h
169 11-09-2010 09:45:01 13.9 C 10.67 g/m*3 13.9 C 0 km/h
170 11-09-2010 09:57:01 14.3 C 10.81 g/m*3 14.3 C 0 km/h
171 11-09-2010 10:09:02 14.7 C 11.08 g/m*3 14.7 C 0 km/h
172 11-09-2010 10:21:01 15 C 11.03 g/m*3 15 C 0 km/h
173 11-09-2010 10:33:01 15.6 C 11.3 g/m*3 15.6 C 0 km/h
174 11-09-2010 10:45:01 16.2 C 11.45 g/m*3 16.2 C 0 km/h
175 11-09-2010 10:57:01 16.8 C 11.72 g/m*3 16.8 C 0 km/h
Sensor: Nr:Datum:Temp:Abs-Feuchte:Windchill:Wind:
Aussen-T/F 176 11-09-2010 11:09:01 17.1 C 11.5 g/m*3 17.1 C 0 km/h
177 11-09-2010 11:21:02 17.5 C 11.18 g/m*3 17.5 C 0 km/h
178 11-09-2010 11:33:01 18.2 C 11.35 g/m*3 18.2 C 0 km/h
179 11-09-2010 11:45:03 19.1 C 11.31 g/m*3 19.1 C 0 km/h
180 11-09-2010 11:57:03 19.3 C 11.44 g/m*3 19.3 C 0 km/h
181 11-09-2010 12:09:02 19.2 C 9.89 g/m*3 19.2 C 0 km/h
182 11-09-2010 12:21:02 19.6 C 9.96 g/m*3 19.6 C 0 km/h
183 11-09-2010 12:33:02 19.9 C 9.45 g/m*3 19.9 C 0 km/h
184 11-09-2010 12:45:02 20.2 C 9.27 g/m*3 20.2 C 0 km/h
185 11-09-2010 12:57:02 20.6 C 9.31 g/m*3 20.6 C 0 km/h
186 11-09-2010 13:09:02 20.9 C 9.11 g/m*3 20.9 C 0 km/h
187 11-09-2010 13:21:02 21.3 C 8.76 g/m*3 21.3 C 0 km/h
188 11-09-2010 13:33:01 21.7 C 8.97 g/m*3 21.7 C 0 km/h
189 11-09-2010 13:45:02 22.2 C 8.44 g/m*3 22.2 C 0 km/h
190 11-09-2010 13:57:03 22.7 C 8.69 g/m*3 22.7 C 0 km/h
191 11-09-2010 14:09:01 23.3 C 8.15 g/m*3 23.3 C 0 km/h
192 11-09-2010 14:21:01 23.9 C 8.44 g/m*3 23.9 C 0 km/h
193 11-09-2010 14:33:02 24.3 C 8.19 g/m*3 24.3 C 0 km/h
194 11-09-2010 14:45:02 24.5 C 7.83 g/m*3 24.5 C 0 km/h
195 11-09-2010 14:57:02 25 C 8.06 g/m*3 25 C 0 km/h
196 11-09-2010 15:09:02 25.6 C 8.09 g/m*3 25.6 C 0 km/h
197 11-09-2010 15:21:02 25.7 C 7.9 g/m*3 25.7 C 0 km/h
198 11-09-2010 15:33:02 25.6 C 8.57 g/m*3 25.6 C 0 km/h
199 11-09-2010 15:45:02 26.5 C 7.51 g/m*3 26.5 C 0 km/h
200 11-09-2010 15:57:02 26.8 C 7.13 g/m*3 26.8 C 0 km/h
Sensor: Nr:Datum:Temp:Abs-Feuchte:Windchill:Wind:
Aussen-T/F 201 11-09-2010 16:09:02 25.7 C 7.66 g/m*3 25.7 C 0 km/h
202 11-09-2010 16:21:02 25.3 C 9.13 g/m*3 25.3 C 0 km/h
203 11-09-2010 16:33:02 26.5 C 8.01 g/m*3 26.5 C 0 km/h
204 11-09-2010 16:45:02 26.4 C 7.72 g/m*3 26.4 C 0 km/h
205 11-09-2010 16:57:02 27.8 C 8.34 g/m*3 27.8 C 0 km/h
206 11-09-2010 17:09:02 28 C 7.61 g/m*3 28 C 0 km/h
207 11-09-2010 17:21:02 27.3 C 7.85 g/m*3 27.3 C 0 km/h
208 11-09-2010 17:33:02 27.5 C 8.47 g/m*3 27.5 C 0 km/h
209 11-09-2010 17:45:02 27.6 C 8.78 g/m*3 27.6 C 0 km/h
210 11-09-2010 17:57:02 27.7 C 8.83 g/m*3 27.7 C 0 km/h
211 11-09-2010 18:09:02 27.5 C 9.26 g/m*3 27.5 C 0 km/h
212 11-09-2010 18:21:02 26.8 C 9.16 g/m*3 26.8 C 0 km/h
213 11-09-2010 18:33:01 26.3 C 8.91 g/m*3 26.3 C 0 km/h
214 11-09-2010 18:45:02 25.3 C 9.36 g/m*3 25.3 C 0 km/h
215 11-09-2010 18:57:02 24.4 C 9.57 g/m*3 24.4 C 0 km/h
216 11-09-2010 19:09:01 23.7 C 9.63 g/m*3 23.7 C 0 km/h
217 11-09-2010 19:21:02 22.6 C 9.64 g/m*3 22.6 C 0 km/h
218 11-09-2010 19:33:02 21.6 C 10.05 g/m*3 21.6 C 0 km/h
219 11-09-2010 19:45:02 20.7 C 9.72 g/m*3 20.7 C 0 km/h
220 11-09-2010 19:57:02 20.2 C 9.44 g/m*3 20.2 C 0 km/h
221 11-09-2010 20:09:02 20 C 9.33 g/m*3 20 C 0 km/h
222 11-09-2010 20:21:02 19.5 C 9.4 g/m*3 19.5 C 0 km/h
223 11-09-2010 20:33:02 19.3 C 9.45 g/m*3 19.3 C 0 km/h
224 11-09-2010 20:45:01 19.1 C 9.67 g/m*3 19.1 C 0 km/h
225 11-09-2010 20:57:01 18.8 C 9.66 g/m*3 18.8 C 0 km/h
Sensor: Nr:Datum:Temp:Abs-Feuchte:Windchill:Wind:
Aussen-T/F 226 11-09-2010 21:09:02 18.6 C 9.71 g/m*3 18.6 C 0 km/h
227 11-09-2010 21:21:01 18.4 C 9.91 g/m*3 18.4 C 0 km/h
228 11-09-2010 21:33:01 18.2 C 10.1 g/m*3 18.2 C 0 km/h
229 11-09-2010 21:45:01 17.7 C 10.11 g/m*3 17.7 C 0 km/h
230 11-09-2010 21:57:01 17.6 C 10.2 g/m*3 17.6 C 0 km/h
231 11-09-2010 22:09:02 17.6 C 10.2 g/m*3 17.6 C 0 km/h
232 11-09-2010 22:21:01 17.4 C 10.23 g/m*3 17.4 C 0 km/h
233 11-09-2010 22:34:03 17.2 C 10.1 g/m*3 17.2 C 0 km/h
234 11-09-2010 22:46:03 16.9 C 10.36 g/m*3 16.9 C 0 km/h
235 11-09-2010 22:58:03 16.9 C 10.5 g/m*3 16.9 C 0 km/h
236 11-09-2010 23:10:03 17 C 10.42 g/m*3 17 C 0 km/h
237 11-09-2010 23:22:03 16.6 C 10.45 g/m*3 16.6 C 0 km/h
238 11-09-2010 23:34:03 16.5 C 10.39 g/m*3 16.5 C 0 km/h
239 11-09-2010 23:46:03 16.4 C 10.33 g/m*3 16.4 C 0 km/h
240 11-09-2010 23:58:03 16.3 C 10.41 g/m*3 16.3 C 0 km/h
241 12-09-2010 00:10:03 16.2 C 10.48 g/m*3 16.2 C 0 km/h
242 12-09-2010 00:22:03 16.2 C 10.48 g/m*3 16.2 C 0 km/h
243 12-09-2010 00:34:03 16.1 C 10.42 g/m*3 16.1 C 0 km/h
244 12-09-2010 00:46:03 16 C 10.35 g/m*3 16 C 0 km/h
245 12-09-2010 00:58:03 15.8 C 10.36 g/m*3 15.8 C 0 km/h
246 12-09-2010 01:10:03 15.6 C 10.37 g/m*3 15.6 C 0 km/h
247 12-09-2010 01:22:04 15.5 C 10.31 g/m*3 15.5 C 0 km/h
248 12-09-2010 01:34:04 15.2 C 10.25 g/m*3 15.2 C 0 km/h
249 12-09-2010 01:46:04 15.2 C 10.38 g/m*3 15.2 C 0 km/h
250 12-09-2010 01:58:04 15.2 C 10.38 g/m*3 15.2 C 0 km/h
Sensor: Nr:Datum:Temp:Abs-Feuchte:Windchill:Wind:
Aussen-T/F 251 12-09-2010 02:10:04 15 C 10.26 g/m*3 15 C 0 km/h
252 12-09-2010 02:22:04 15 C 10.39 g/m*3 15 C 0 km/h
253 12-09-2010 02:34:04 14.9 C 10.45 g/m*3 14.9 C 0 km/h
254 12-09-2010 02:46:04 14.8 C 10.51 g/m*3 14.8 C 0 km/h
255 12-09-2010 02:58:04 14.7 C 10.32 g/m*3 14.7 C 0 km/h
256 12-09-2010 03:10:04 14.7 C 10.32 g/m*3 14.7 C 0 km/h
257 12-09-2010 03:22:04 14.6 C 10.26 g/m*3 14.6 C 0 km/h
258 12-09-2010 03:34:04 14.4 C 10.14 g/m*3 14.4 C 0 km/h
259 12-09-2010 03:46:04 14.3 C 10.07 g/m*3 14.3 C 0 km/h
260 12-09-2010 03:58:04 14.3 C 10.2 g/m*3 14.3 C 0 km/h
261 12-09-2010 04:10:04 14.2 C 10.14 g/m*3 14.2 C 0 km/h
262 12-09-2010 04:22:04 14.1 C 10.07 g/m*3 14.1 C 0 km/h
263 12-09-2010 04:34:05 14.1 C 10.07 g/m*3 14.1 C 0 km/h
264 12-09-2010 04:46:05 14.1 C 10.07 g/m*3 14.1 C 0 km/h
265 12-09-2010 04:58:05 14 C 10.01 g/m*3 14 C 0 km/h
266 12-09-2010 05:10:05 13.9 C 10.07 g/m*3 13.9 C 0 km/h
267 12-09-2010 05:22:05 13.7 C 9.95 g/m*3 13.7 C 0 km/h
268 12-09-2010 05:34:05 13.8 C 10.01 g/m*3 13.8 C 0 km/h
269 12-09-2010 05:46:05 13.7 C 9.95 g/m*3 13.7 C 0 km/h
270 12-09-2010 05:58:05 13.7 C 9.95 g/m*3 13.7 C 0 km/h
271 12-09-2010 06:10:05 13.7 C 9.95 g/m*3 13.7 C 0 km/h
272 12-09-2010 06:22:05 13.5 C 9.94 g/m*3 13.5 C 0 km/h
273 12-09-2010 06:34:05 13.5 C 9.94 g/m*3 13.5 C 0 km/h
274 12-09-2010 06:46:05 13.5 C 9.94 g/m*3 13.5 C 0 km/h
275 12-09-2010 06:58:05 13.4 C 9.88 g/m*3 13.4 C 0 km/h
Sensor: Nr:Datum:Temp:Abs-Feuchte:Windchill:Wind:
Aussen-T/F 276 12-09-2010 07:10:05 13.5 C 9.94 g/m*3 13.5 C 0 km/h
277 12-09-2010 07:22:05 13.5 C 10.06 g/m*3 13.5 C 0 km/h
278 12-09-2010 07:34:05 13.6 C 10.12 g/m*3 13.6 C 0 km/h
279 12-09-2010 07:46:02 13.8 C 10.25 g/m*3 13.8 C 0 km/h
280 12-09-2010 07:58:02 14.1 C 10.32 g/m*3 14.1 C 0 km/h
281 12-09-2010 08:10:02 14.1 C 10.32 g/m*3 14.1 C 0 km/h
282 12-09-2010 08:22:01 14.4 C 10.38 g/m*3 14.4 C 0 km/h
283 12-09-2010 08:34:02 14.5 C 10.32 g/m*3 14.5 C 0 km/h
284 12-09-2010 08:46:02 14 C 10.13 g/m*3 14 C 0 km/h
285 12-09-2010 08:58:02 14.3 C 10.32 g/m*3 14.3 C 0 km/h
286 12-09-2010 09:10:02 14.8 C 10.64 g/m*3 14.8 C 0 km/h
287 12-09-2010 09:22:02 14.8 C 10.39 g/m*3 14.8 C 0 km/h
288 12-09-2010 09:34:02 14.8 C 10.51 g/m*3 14.8 C 0 km/h
289 12-09-2010 09:46:02 15 C 10.51 g/m*3 15 C 0 km/h
290 12-09-2010 09:58:02 14.8 C 10.51 g/m*3 14.8 C 0 km/h
291 12-09-2010 10:10:02 15.3 C 10.84 g/m*3 15.3 C 0 km/h
292 12-09-2010 10:22:03 15.9 C 11.1 g/m*3 15.9 C 0 km/h
293 12-09-2010 10:34:02 16.8 C 11.29 g/m*3 16.8 C 0 km/h
294 12-09-2010 10:46:02 18 C 11.37 g/m*3 18 C 0 km/h
295 12-09-2010 10:58:02 18.7 C 11.05 g/m*3 18.7 C 0 km/h
296 12-09-2010 11:10:02 19.5 C 10.41 g/m*3 19.5 C 0 km/h
297 12-09-2010 11:22:02 20.2 C 10.67 g/m*3 20.2 C 0 km/h
298 12-09-2010 11:34:02 20.1 C 10.6 g/m*3 20.1 C 0 km/h
299 12-09-2010 11:46:02 20 C 10.89 g/m*3 20 C 0 km/h
300 12-09-2010 11:58:02 20.3 C 10.9 g/m*3 20.3 C 0 km/h
Sensor: Nr:Datum:Temp:Abs-Feuchte:Windchill:Wind:
Aussen-T/F 301 12-09-2010 12:10:01 20.5 C 10.85 g/m*3 20.5 C 0 km/h
302 12-09-2010 12:22:02 20.9 C 11.11 g/m*3 20.9 C 0 km/h
303 12-09-2010 12:34:01 21.4 C 11.06 g/m*3 21.4 C 0 km/h
304 12-09-2010 12:46:01 22.4 C 10.33 g/m*3 22.4 C 0 km/h
305 12-09-2010 12:58:02 22.9 C 10.22 g/m*3 22.9 C 0 km/h
306 12-09-2010 13:10:01 23.1 C 10.34 g/m*3 23.1 C 0 km/h
307 12-09-2010 13:22:01 23.7 C 10.48 g/m*3 23.7 C 0 km/h
308 12-09-2010 13:34:02 24.3 C 9.74 g/m*3 24.3 C 0 km/h
309 12-09-2010 13:46:02 25 C 8.98 g/m*3 25 C 0 km/h
310 12-09-2010 13:58:02 25.9 C 9.44 g/m*3 25.9 C 0 km/h
311 12-09-2010 14:10:02 25.7 C 9.34 g/m*3 25.7 C 0 km/h
312 12-09-2010 14:22:01 25 C 8.06 g/m*3 25 C 0 km/h
313 12-09-2010 14:34:02 24.7 C 8.15 g/m*3 24.7 C 0 km/h
314 12-09-2010 14:46:02 23.1 C 9.72 g/m*3 23.1 C 0 km/h
315 12-09-2010 14:58:02 20.8 C 10.14 g/m*3 20.8 C 0 km/h
316 12-09-2010 15:10:02 19.5 C 9.23 g/m*3 19.5 C 0 km/h
317 12-09-2010 15:22:02 19.1 C 8.69 g/m*3 19.1 C 0 km/h
318 12-09-2010 15:34:02 19.4 C 8.84 g/m*3 19.4 C 0 km/h
319 12-09-2010 15:46:02 19.4 C 8.84 g/m*3 19.4 C 0 km/h
320 12-09-2010 15:58:02 19.2 C 8.74 g/m*3 19.2 C 0 km/h
321 12-09-2010 16:10:02 17.9 C 8.86 g/m*3 17.9 C 0 km/h
322 12-09-2010 16:22:02 18.1 C 9.12 g/m*3 18.1 C 0 km/h
323 12-09-2010 16:34:02 18.1 C 9.27 g/m*3 18.1 C 0 km/h
324 12-09-2010 16:46:02 17.6 C 9.3 g/m*3 17.6 C 0 km/h
325 12-09-2010 16:58:02 17.2 C 9.37 g/m*3 17.2 C 0 km/h
Sensor: Nr:Datum:Temp:Abs-Feuchte:Windchill:Wind:
Aussen-T/F 326 12-09-2010 17:10:02 17.2 C 9.52 g/m*3 17.2 C 0 km/h
327 12-09-2010 17:22:02 16.6 C 9.04 g/m*3 16.6 C 0 km/h
328 12-09-2010 17:34:01 16.1 C 9.46 g/m*3 16.1 C 0 km/h
329 12-09-2010 17:46:02 15.6 C 9.97 g/m*3 15.6 C 0 km/h
330 12-09-2010 17:58:02 15.5 C 10.31 g/m*3 15.5 C 0 km/h
331 12-09-2010 18:10:01 15.2 C 10.25 g/m*3 15.2 C 0 km/h
332 12-09-2010 18:22:02 15.2 C 10.51 g/m*3 15.2 C 0 km/h
333 12-09-2010 18:34:02 14.9 C 10.58 g/m*3 14.9 C 0 km/h
334 12-09-2010 18:46:02 14.7 C 10.7 g/m*3 14.7 C 0 km/h
335 12-09-2010 18:58:02 14.6 C 10.89 g/m*3 14.6 C 0 km/h
336 12-09-2010 19:10:02 14.5 C 10.82 g/m*3 14.5 C 0 km/h
337 12-09-2010 19:22:02 14.3 C 10.69 g/m*3 14.3 C 0 km/h
338 12-09-2010 19:34:02 14.1 C 10.68 g/m*3 14.1 C 0 km/h
339 12-09-2010 19:46:01 14.3 C 10.93 g/m*3 14.3 C 0 km/h
340 12-09-2010 19:58:01 14.1 C 10.8 g/m*3 14.1 C 0 km/h
341 12-09-2010 20:10:02 14 C 10.74 g/m*3 14 C 0 km/h
342 12-09-2010 20:22:01 13.9 C 10.79 g/m*3 13.9 C 0 km/h
343 12-09-2010 20:34:01 13.8 C 10.84 g/m*3 13.8 C 0 km/h
344 12-09-2010 20:46:01 13.7 C 10.78 g/m*3 13.7 C 0 km/h
345 12-09-2010 20:58:01 13.7 C 10.89 g/m*3 13.7 C 0 km/h
346 12-09-2010 21:10:02 13.6 C 10.83 g/m*3 13.6 C 0 km/h
347 12-09-2010 21:22:01 13.7 C 10.89 g/m*3 13.7 C 0 km/h
348 12-09-2010 21:34:01 13.7 C 10.89 g/m*3 13.7 C 0 km/h
349 12-09-2010 21:46:01 13.9 C 11.15 g/m*3 13.9 C 0 km/h
350 12-09-2010 21:58:01 14 C 11.1 g/m*3 14 C 0 km/h
Sensor: Nr:Datum:Temp:Abs-Feuchte:Windchill:Wind:
Aussen-T/F 351 12-09-2010 22:10:02 13.9 C 11.15 g/m*3 13.9 C 0 km/h
352 12-09-2010 22:22:01 13.9 C 11.15 g/m*3 13.9 C 0 km/h
353 12-09-2010 22:34:02 13.8 C 11.08 g/m*3 13.8 C 0 km/h
354 12-09-2010 22:46:02 13.7 C 11.01 g/m*3 13.7 C 0 km/h
355 12-09-2010 22:58:02 13.6 C 10.95 g/m*3 13.6 C 0 km/h
356 12-09-2010 23:10:01 13.5 C 10.88 g/m*3 13.5 C 0 km/h
357 12-09-2010 23:22:02 13.5 C 10.88 g/m*3 13.5 C 0 km/h
358 12-09-2010 23:34:02 13.5 C 10.88 g/m*3 13.5 C 0 km/h
359 12-09-2010 23:46:02 13.7 C 11.01 g/m*3 13.7 C 0 km/h
360 12-09-2010 23:58:02 13.7 C 11.01 g/m*3 13.7 C 0 km/h
361 13-09-2010 00:10:03 13.7 C 11.01 g/m*3 13.7 C 0 km/h
362 13-09-2010 00:22:02 13.6 C 10.95 g/m*3 13.6 C 0 km/h
363 13-09-2010 00:34:02 13.7 C 11.01 g/m*3 13.7 C 0 km/h
364 13-09-2010 00:46:02 13.7 C 11.01 g/m*3 13.7 C 0 km/h
365 13-09-2010 00:58:02 13.7 C 11.01 g/m*3 13.7 C 0 km/h
366 13-09-2010 01:10:02 13.6 C 10.95 g/m*3 13.6 C 0 km/h
367 13-09-2010 01:22:03 13.7 C 11.01 g/m*3 13.7 C 0 km/h
368 13-09-2010 01:34:02 13.8 C 11.08 g/m*3 13.8 C 0 km/h
369 13-09-2010 01:46:02 13.7 C 11.01 g/m*3 13.7 C 0 km/h
370 13-09-2010 01:58:02 13.7 C 11.01 g/m*3 13.7 C 0 km/h
371 13-09-2010 02:10:02 13.7 C 11.01 g/m*3 13.7 C 0 km/h
372 13-09-2010 02:22:02 13.5 C 10.88 g/m*3 13.5 C 0 km/h
373 13-09-2010 02:34:02 13.4 C 10.81 g/m*3 13.4 C 0 km/h
374 13-09-2010 02:46:02 13.4 C 10.81 g/m*3 13.4 C 0 km/h
375 13-09-2010 02:58:02 13.6 C 10.95 g/m*3 13.6 C 0 km/h
Sensor: Nr:Datum:Temp:Abs-Feuchte:Windchill:Wind:
Aussen-T/F 376 13-09-2010 03:10:01 13.5 C 10.88 g/m*3 13.5 C 0 km/h
377 13-09-2010 03:22:01 13.3 C 10.63 g/m*3 13.3 C 0 km/h
378 13-09-2010 03:34:02 13.2 C 10.56 g/m*3 13.2 C 0 km/h
379 13-09-2010 03:46:02 13.2 C 10.45 g/m*3 13.2 C 0 km/h
380 13-09-2010 03:58:02 13.1 C 10.38 g/m*3 13.1 C 0 km/h
381 13-09-2010 04:10:01 13 C 10.21 g/m*3 13 C 0 km/h
382 13-09-2010 04:22:02 12.8 C 10.19 g/m*3 12.8 C 0 km/h
383 13-09-2010 04:34:01 12.9 C 10.26 g/m*3 12.9 C 0 km/h
384 13-09-2010 04:46:01 13.1 C 10.16 g/m*3 13.1 C 0 km/h
385 13-09-2010 04:58:02 13.2 C 10.22 g/m*3 13.2 C 0 km/h
386 13-09-2010 05:10:01 13.3 C 10.05 g/m*3 13.3 C 0 km/h
387 13-09-2010 05:22:01 13.3 C 9.82 g/m*3 13.3 C 0 km/h
388 13-09-2010 05:34:02 13.2 C 9.64 g/m*3 13.2 C 0 km/h
389 13-09-2010 05:46:01 13.2 C 9.64 g/m*3 13.2 C 0 km/h
390 13-09-2010 05:58:01 13.3 C 9.7 g/m*3 13.3 C 0 km/h
391 13-09-2010 06:10:02 13.4 C 9.76 g/m*3 13.4 C 0 km/h
392 13-09-2010 06:22:01 13.4 C 9.65 g/m*3 13.4 C 0 km/h
393 13-09-2010 06:34:01 13.3 C 9.59 g/m*3 13.3 C 0 km/h
394 13-09-2010 06:46:01 13.2 C 9.42 g/m*3 13.2 C 0 km/h
395 13-09-2010 06:58:01 13.2 C 9.42 g/m*3 13.2 C 0 km/h
396 13-09-2010 07:10:02 13 C 9.19 g/m*3 13 C 0 km/h
397 13-09-2010 07:22:01 13 C 9.3 g/m*3 13 C 0 km/h
398 13-09-2010 07:34:01 12.7 C 9.13 g/m*3 12.7 C 0 km/h
399 13-09-2010 07:46:01 12.5 C 9.13 g/m*3 12.5 C 0 km/h
400 13-09-2010 07:58:01 12.4 C 9.18 g/m*3 12.4 C 0 km/h
Sensor: Nr:Datum:Temp:Abs-Feuchte:Windchill:Wind:
Aussen-T/F 401 13-09-2010 08:10:01 12.5 C 9.35 g/m*3 12.5 C 0 km/h
402 13-09-2010 08:22:01 13 C 9.64 g/m*3 13 C 0 km/h
403 13-09-2010 08:34:01 13.1 C 9.7 g/m*3 13.1 C 0 km/h
404 13-09-2010 08:46:02 13.2 C 9.64 g/m*3 13.2 C 0 km/h
405 13-09-2010 08:58:02 13.4 C 9.76 g/m*3 13.4 C 0 km/h
406 13-09-2010 09:10:01 13.5 C 9.71 g/m*3 13.5 C 0 km/h
407 13-09-2010 09:22:02 13.7 C 9.71 g/m*3 13.7 C 0 km/h
408 13-09-2010 09:34:01 14 C 9.41 g/m*3 14 C 0 km/h
409 13-09-2010 09:46:02 14.2 C 9.28 g/m*3 14.2 C 0 km/h
410 13-09-2010 09:58:02 14.5 C 9.2 g/m*3 14.5 C 0 km/h
411 13-09-2010 10:10:01 14.8 C 9.25 g/m*3 14.8 C 0 km/h
412 13-09-2010 10:22:01 15 C 9.1 g/m*3 15 C 0 km/h
413 13-09-2010 10:34:02 15.3 C 9.14 g/m*3 15.3 C 0 km/h
414 13-09-2010 10:46:01 15.6 C 8.91 g/m*3 15.6 C 0 km/h
415 13-09-2010 10:58:01 15.9 C 8.8 g/m*3 15.9 C 0 km/h
416 13-09-2010 11:10:01 16 C 8.58 g/m*3 16 C 0 km/h
417 13-09-2010 11:22:01 16.4 C 8.65 g/m*3 16.4 C 0 km/h
418 13-09-2010 11:34:02 16.3 C 8.74 g/m*3 16.3 C 0 km/h
419 13-09-2010 11:46:01 17.1 C 8.59 g/m*3 17.1 C 0 km/h
420 13-09-2010 11:58:01 16.7 C 8.24 g/m*3 16.7 C 0 km/h
421 13-09-2010 12:10:02 16.4 C 8.23 g/m*3 16.4 C 0 km/h
422 13-09-2010 12:22:01 16.9 C 8.2 g/m*3 16.9 C 0 km/h
423 13-09-2010 12:34:01 17.6 C 7.8 g/m*3 17.6 C 0 km/h
424 13-09-2010 12:46:01 17.6 C 7.5 g/m*3 17.6 C 0 km/h
425 13-09-2010 12:58:01 17.7 C 7.85 g/m*3 17.7 C 0 km/h
Sensor: Nr:Datum:Temp:Abs-Feuchte:Windchill:Wind:
Aussen-T/F 426 13-09-2010 13:10:01 18 C 7.37 g/m*3 18 C 0 km/h
427 13-09-2010 13:22:01 18.9 C 7.78 g/m*3 18.9 C 0 km/h
428 13-09-2010 13:34:01 18.9 C 7.45 g/m*3 18.9 C 0 km/h
429 13-09-2010 13:46:01 18.7 C 7.2 g/m*3 18.7 C 0 km/h
430 13-09-2010 13:58:01 20.2 C 7.87 g/m*3 20.2 C 0 km/h
431 13-09-2010 14:10:01 19.9 C 7.22 g/m*3 19.9 C 0 km/h
432 13-09-2010 14:22:02 19.5 C 6.55 g/m*3 19.5 C 0 km/h
433 13-09-2010 14:34:01 19.6 C 6.75 g/m*3 19.6 C 0 km/h
434 13-09-2010 14:46:02 20.6 C 7.34 g/m*3 20.6 C 0 km/h
435 13-09-2010 14:58:02 21.3 C 6.9 g/m*3 21.3 C 0 km/h
436 13-09-2010 15:10:01 20.9 C 6.74 g/m*3 20.9 C 0 km/h
437 13-09-2010 15:22:01 21.3 C 6.9 g/m*3 21.3 C 0 km/h
438 13-09-2010 15:34:01 21.2 C 6.67 g/m*3 21.2 C 0 km/h
439 13-09-2010 15:46:01 20.6 C 7.16 g/m*3 20.6 C 0 km/h
440 13-09-2010 15:58:01 20 C 7.95 g/m*3 20 C 0 km/h
441 13-09-2010 16:10:01 20.8 C 7.97 g/m*3 20.8 C 0 km/h
442 13-09-2010 16:22:02 21.4 C 6.37 g/m*3 21.4 C 0 km/h
443 13-09-2010 16:34:01 21.4 C 7.5 g/m*3 21.4 C 0 km/h
444 13-09-2010 16:46:02 21.8 C 6.52 g/m*3 21.8 C 0 km/h
445 13-09-2010 16:58:02 22.4 C 6.16 g/m*3 22.4 C 0 km/h
446 13-09-2010 17:10:01 22.3 C 7.11 g/m*3 22.3 C 0 km/h
447 13-09-2010 17:22:01 20.5 C 7.65 g/m*3 20.5 C 0 km/h
448 13-09-2010 17:34:01 20.2 C 7.87 g/m*3 20.2 C 0 km/h
449 13-09-2010 17:46:01 19.8 C 8.37 g/m*3 19.8 C 0 km/h
450 13-09-2010 17:58:02 19.6 C 8.61 g/m*3 19.6 C 0 km/h
Sensor: Nr:Datum:Temp:Abs-Feuchte:Windchill:Wind:
Aussen-T/F 451 13-09-2010 18:10:02 18.9 C 8.75 g/m*3 18.9 C 0 km/h
452 13-09-2010 18:22:02 18.4 C 8.65 g/m*3 18.4 C 0 km/h
453 13-09-2010 18:34:01 18.2 C 8.55 g/m*3 18.2 C 0 km/h
454 13-09-2010 18:46:02 17.9 C 8.55 g/m*3 17.9 C 0 km/h
455 13-09-2010 18:58:02 17.7 C 8.6 g/m*3 17.7 C 0 km/h
456 13-09-2010 19:10:01 17.7 C 8.6 g/m*3 17.7 C 0 km/h
457 13-09-2010 19:22:02 17.5 C 8.5 g/m*3 17.5 C 0 km/h
458 13-09-2010 19:34:01 17 C 8.68 g/m*3 17 C 0 km/h
459 13-09-2010 19:46:02 16.4 C 8.51 g/m*3 16.4 C 0 km/h
460 13-09-2010 19:58:02 16 C 8.45 g/m*3 16 C 0 km/h
461 13-09-2010 20:10:01 15.6 C 8.64 g/m*3 15.6 C 0 km/h
462 13-09-2010 20:22:01 15.4 C 8.8 g/m*3 15.4 C 0 km/h
463 13-09-2010 20:34:01 15.2 C 8.96 g/m*3 15.2 C 0 km/h
464 13-09-2010 20:46:01 15.1 C 9.03 g/m*3 15.1 C 0 km/h
465 13-09-2010 20:58:02 14.9 C 9.05 g/m*3 14.9 C 0 km/h
466 13-09-2010 21:10:01 14.7 C 8.94 g/m*3 14.7 C 0 km/h
467 13-09-2010 21:22:01 14.6 C 9.01 g/m*3 14.6 C 0 km/h
468 13-09-2010 21:34:02 14.5 C 8.95 g/m*3 14.5 C 0 km/h
469 13-09-2010 21:46:01 14.4 C 8.9 g/m*3 14.4 C 0 km/h
470 13-09-2010 21:58:01 14.4 C 9.02 g/m*3 14.4 C 0 km/h
471 13-09-2010 22:10:01 14.1 C 8.86 g/m*3 14.1 C 0 km/h
472 13-09-2010 22:23:05 13.8 C 8.82 g/m*3 13.8 C 0 km/h
473 13-09-2010 22:35:05 13.7 C 8.88 g/m*3 13.7 C 0 km/h
474 13-09-2010 22:47:05 13.5 C 8.89 g/m*3 13.5 C 0 km/h
475 13-09-2010 22:59:05 13.4 C 8.83 g/m*3 13.4 C 0 km/h
Sensor: Nr:Datum:Temp:Abs-Feuchte:Windchill:Wind:
Aussen-T/F 476 13-09-2010 23:11:05 13.3 C 8.78 g/m*3 13.3 C 0 km/h
477 13-09-2010 23:23:05 13.3 C 9.01 g/m*3 13.3 C 0 km/h
478 13-09-2010 23:35:05 13.1 C 8.9 g/m*3 13.1 C 0 km/h
479 13-09-2010 23:47:05 13 C 8.73 g/m*3 13 C 0 km/h
480 13-09-2010 23:59:05 13 C 8.85 g/m*3 13 C 0 km/h
481 14-09-2010 00:11:05 13 C 8.96 g/m*3 13 C 0 km/h
482 14-09-2010 00:23:05 12.8 C 9.18 g/m*3 12.8 C 0 km/h
483 14-09-2010 00:35:05 12.8 C 9.3 g/m*3 12.8 C 0 km/h
484 14-09-2010 00:47:05 12.8 C 9.3 g/m*3 12.8 C 0 km/h
485 14-09-2010 00:59:05 12.7 C 9.24 g/m*3 12.7 C 0 km/h
486 14-09-2010 01:11:05 12.6 C 9.18 g/m*3 12.6 C 0 km/h
487 14-09-2010 01:23:05 12.7 C 9.24 g/m*3 12.7 C 0 km/h
488 14-09-2010 01:35:05 12.8 C 9.3 g/m*3 12.8 C 0 km/h
489 14-09-2010 01:47:05 12.9 C 9.35 g/m*3 12.9 C 0 km/h
490 14-09-2010 01:59:05 13 C 9.3 g/m*3 13 C 0 km/h
491 14-09-2010 02:11:05 13 C 9.3 g/m*3 13 C 0 km/h
492 14-09-2010 02:23:05 13 C 9.3 g/m*3 13 C 0 km/h
493 14-09-2010 02:35:06 13.1 C 9.36 g/m*3 13.1 C 0 km/h
494 14-09-2010 02:47:06 13.2 C 9.42 g/m*3 13.2 C 0 km/h
495 14-09-2010 02:59:06 13.2 C 9.3 g/m*3 13.2 C 0 km/h
496 14-09-2010 03:11:06 13.4 C 9.18 g/m*3 13.4 C 0 km/h
497 14-09-2010 03:23:06 13.4 C 9.18 g/m*3 13.4 C 0 km/h
498 14-09-2010 03:35:06 13.3 C 9.24 g/m*3 13.3 C 0 km/h
499 14-09-2010 03:47:06 13.3 C 9.24 g/m*3 13.3 C 0 km/h
500 14-09-2010 03:59:06 13.4 C 9.3 g/m*3 13.4 C 0 km/h
Sensor: Nr:Datum:Temp:Abs-Feuchte:Windchill:Wind:
Aussen-T/F 501 14-09-2010 04:11:06 13.2 C 9.19 g/m*3 13.2 C 0 km/h
502 14-09-2010 04:23:06 13 C 9.3 g/m*3 13 C 0 km/h
503 14-09-2010 04:35:06 12.8 C 9.41 g/m*3 12.8 C 0 km/h
504 14-09-2010 04:47:06 12.9 C 9.58 g/m*3 12.9 C 0 km/h
505 14-09-2010 04:59:06 12.8 C 9.63 g/m*3 12.8 C 0 km/h
506 14-09-2010 05:11:06 12.9 C 9.81 g/m*3 12.9 C 0 km/h
507 14-09-2010 05:23:06 12.9 C 9.81 g/m*3 12.9 C 0 km/h
508 14-09-2010 05:35:06 13 C 9.87 g/m*3 13 C 0 km/h
509 14-09-2010 05:47:06 13 C 9.87 g/m*3 13 C 0 km/h
510 14-09-2010 05:59:06 13 C 9.87 g/m*3 13 C 0 km/h
511 14-09-2010 06:11:06 13.3 C 10.05 g/m*3 13.3 C 0 km/h
512 14-09-2010 06:23:06 13.5 C 9.83 g/m*3 13.5 C 0 km/h
513 14-09-2010 06:35:06 13.8 C 9.06 g/m*3 13.8 C 0 km/h
514 14-09-2010 06:47:06 14.5 C 8.83 g/m*3 14.5 C 0 km/h
515 14-09-2010 06:59:07 14.4 C 8.53 g/m*3 14.4 C 0 km/h
516 14-09-2010 07:11:07 14.4 C 8.53 g/m*3 14.4 C 0 km/h
517 14-09-2010 07:23:07 14.4 C 8.65 g/m*3 14.4 C 0 km/h
518 14-09-2010 07:35:04 14.3 C 8.85 g/m*3 14.3 C 0 km/h
519 14-09-2010 07:47:02 13.6 C 9.18 g/m*3 13.6 C 0 km/h
520 14-09-2010 07:59:02 13.6 C 9.42 g/m*3 13.6 C 0 km/h
521 14-09-2010 08:11:01 13.7 C 9.47 g/m*3 13.7 C 0 km/h
522 14-09-2010 08:23:02 13.7 C 9.47 g/m*3 13.7 C 0 km/h
523 14-09-2010 08:35:02 14.1 C 9.34 g/m*3 14.1 C 0 km/h
524 14-09-2010 08:47:02 14.4 C 9.15 g/m*3 14.4 C 0 km/h
525 14-09-2010 08:59:02 14.6 C 9.13 g/m*3 14.6 C 0 km/h
Sensor: Nr:Datum:Temp:Abs-Feuchte:Windchill:Wind:
Aussen-T/F 526 14-09-2010 09:11:01 14.7 C 9.07 g/m*3 14.7 C 0 km/h
527 14-09-2010 09:23:02 14.8 C 9.12 g/m*3 14.8 C 0 km/h
528 14-09-2010 09:35:02 15.1 C 9.03 g/m*3 15.1 C 0 km/h
529 14-09-2010 09:47:01 15.6 C 9.04 g/m*3 15.6 C 0 km/h
530 14-09-2010 09:59:01 15.6 C 9.04 g/m*3 15.6 C 0 km/h
531 14-09-2010 10:11:02 15.6 C 9.04 g/m*3 15.6 C 0 km/h
532 14-09-2010 10:23:01 15.7 C 9.1 g/m*3 15.7 C 0 km/h
533 14-09-2010 10:35:01 16 C 8.99 g/m*3 16 C 0 km/h
534 14-09-2010 10:47:01 16.4 C 8.93 g/m*3 16.4 C 0 km/h
535 14-09-2010 10:59:01 16.8 C 9.29 g/m*3 16.8 C 0 km/h
536 14-09-2010 11:11:02 17 C 8.97 g/m*3 17 C 0 km/h
537 14-09-2010 11:23:01 17.1 C 9.03 g/m*3 17.1 C 0 km/h
538 14-09-2010 11:35:01 17 C 9.12 g/m*3 17 C 0 km/h
539 14-09-2010 11:47:01 16.7 C 9.24 g/m*3 16.7 C 0 km/h
540 14-09-2010 11:59:01 17.5 C 9.39 g/m*3 17.5 C 0 km/h
541 14-09-2010 12:11:02 17.8 C 9.26 g/m*3 17.8 C 0 km/h
542 14-09-2010 12:23:02 18.2 C 9.01 g/m*3 18.2 C 0 km/h
543 14-09-2010 12:35:01 18.5 C 9.18 g/m*3 18.5 C 0 km/h
544 14-09-2010 12:47:02 18.8 C 9.18 g/m*3 18.8 C 0 km/h
545 14-09-2010 12:59:02 18.9 C 9.23 g/m*3 18.9 C 0 km/h
546 14-09-2010 13:11:01 19.6 C 9.28 g/m*3 19.6 C 0 km/h
547 14-09-2010 13:23:01 19.7 C 9.34 g/m*3 19.7 C 0 km/h
548 14-09-2010 13:35:01 20.2 C 9.44 g/m*3 20.2 C 0 km/h
549 14-09-2010 13:47:02 20.4 C 9.02 g/m*3 20.4 C 0 km/h
550 14-09-2010 13:59:02 20 C 8.99 g/m*3 20 C 0 km/h
Sensor: Nr:Datum:Temp:Abs-Feuchte:Windchill:Wind:
Aussen-T/F 551 14-09-2010 14:11:02 19.7 C 8.83 g/m*3 19.7 C 0 km/h
552 14-09-2010 14:23:02 19.7 C 9 g/m*3 19.7 C 0 km/h
553 14-09-2010 14:35:02 19.8 C 8.71 g/m*3 19.8 C 0 km/h
554 14-09-2010 14:47:01 19.6 C 8.78 g/m*3 19.6 C 0 km/h
555 14-09-2010 14:59:01 19.5 C 8.89 g/m*3 19.5 C 0 km/h
556 14-09-2010 15:11:02 20 C 8.81 g/m*3 20 C 0 km/h
557 14-09-2010 15:23:01 20 C 8.64 g/m*3 20 C 0 km/h
558 14-09-2010 15:35:02 20.4 C 8.67 g/m*3 20.4 C 0 km/h
559 14-09-2010 15:47:01 20.7 C 8.46 g/m*3 20.7 C 0 km/h
560 14-09-2010 15:59:01 20.9 C 8.56 g/m*3 20.9 C 0 km/h
561 14-09-2010 16:11:02 20.8 C 8.15 g/m*3 20.8 C 0 km/h
562 14-09-2010 16:23:01 20.9 C 8.2 g/m*3 20.9 C 0 km/h
563 14-09-2010 16:35:02 20.6 C 7.7 g/m*3 20.6 C 0 km/h
564 14-09-2010 16:47:01 20.6 C 7.7 g/m*3 20.6 C 0 km/h
565 14-09-2010 16:59:01 20.5 C 7.65 g/m*3 20.5 C 0 km/h
566 14-09-2010 17:11:02 20.5 C 7.47 g/m*3 20.5 C 0 km/h
567 14-09-2010 17:23:01 20.4 C 7.43 g/m*3 20.4 C 0 km/h
568 14-09-2010 17:35:01 20 C 7.26 g/m*3 20 C 0 km/h
569 14-09-2010 17:47:01 20 C 7.43 g/m*3 20 C 0 km/h
570 14-09-2010 17:59:01 19.8 C 7.69 g/m*3 19.8 C 0 km/h
571 14-09-2010 18:11:01 19.6 C 7.77 g/m*3 19.6 C 0 km/h
572 14-09-2010 18:23:02 19.4 C 7.84 g/m*3 19.4 C 0 km/h
573 14-09-2010 18:35:01 19.3 C 7.8 g/m*3 19.3 C 0 km/h
574 14-09-2010 18:47:02 19.3 C 7.8 g/m*3 19.3 C 0 km/h
575 14-09-2010 18:59:02 19.1 C 7.87 g/m*3 19.1 C 0 km/h
Sensor: Nr:Datum:Temp:Abs-Feuchte:Windchill:Wind:
Aussen-T/F 576 14-09-2010 19:11:01 19 C 7.82 g/m*3 19 C 0 km/h
577 14-09-2010 19:23:01 18.9 C 7.78 g/m*3 18.9 C 0 km/h
578 14-09-2010 19:35:01 18.7 C 7.68 g/m*3 18.7 C 0 km/h
579 14-09-2010 19:47:02 18.7 C 7.68 g/m*3 18.7 C 0 km/h
580 14-09-2010 19:59:03 18.7 C 7.68 g/m*3 18.7 C 0 km/h
581 14-09-2010 20:11:01 18.7 C 7.68 g/m*3 18.7 C 0 km/h
582 14-09-2010 20:23:02 18.6 C 7.64 g/m*3 18.6 C 0 km/h
583 14-09-2010 20:35:02 18.7 C 7.68 g/m*3 18.7 C 0 km/h
584 14-09-2010 20:47:02 18.5 C 7.75 g/m*3 18.5 C 0 km/h
585 14-09-2010 20:59:02 18.5 C 7.75 g/m*3 18.5 C 0 km/h
586 14-09-2010 21:11:03 18.5 C 7.75 g/m*3 18.5 C 0 km/h
587 14-09-2010 21:23:02 18.5 C 7.75 g/m*3 18.5 C 0 km/h
588 14-09-2010 21:35:02 18.6 C 7.96 g/m*3 18.6 C 0 km/h
589 14-09-2010 21:47:01 18.5 C 7.75 g/m*3 18.5 C 0 km/h
590 14-09-2010 21:59:01 18.6 C 7.64 g/m*3 18.6 C 0 km/h
591 14-09-2010 22:12:03 18.6 C 7.8 g/m*3 18.6 C 0 km/h
592 14-09-2010 22:24:03 18.5 C 7.75 g/m*3 18.5 C 0 km/h
593 14-09-2010 22:36:03 18.4 C 7.86 g/m*3 18.4 C 0 km/h
594 14-09-2010 22:48:03 18.5 C 7.91 g/m*3 18.5 C 0 km/h
595 14-09-2010 23:00:03 18.5 C 7.91 g/m*3 18.5 C 0 km/h
596 14-09-2010 23:12:03 18.4 C 7.86 g/m*3 18.4 C 0 km/h
597 14-09-2010 23:24:03 18.2 C 7.77 g/m*3 18.2 C 0 km/h
598 14-09-2010 23:36:04 18 C 7.99 g/m*3 18 C 0 km/h
599 14-09-2010 23:48:04 18 C 7.99 g/m*3 18 C 0 km/h
600 15-09-2010 00:00:04 18 C 7.99 g/m*3 18 C 0 km/h
Sensor: Nr:Datum:Temp:Abs-Feuchte:Windchill:Wind:
Aussen-T/F 601 15-09-2010 00:12:04 18 C 7.83 g/m*3 18 C 0 km/h
602 15-09-2010 00:24:04 18 C 7.83 g/m*3 18 C 0 km/h
603 15-09-2010 00:36:04 18 C 7.83 g/m*3 18 C 0 km/h
604 15-09-2010 00:48:04 18.1 C 7.88 g/m*3 18.1 C 0 km/h
605 15-09-2010 01:00:04 18.1 C 7.73 g/m*3 18.1 C 0 km/h
606 15-09-2010 01:12:04 18.1 C 7.73 g/m*3 18.1 C 0 km/h
607 15-09-2010 01:24:04 18.2 C 7.62 g/m*3 18.2 C 0 km/h
608 15-09-2010 01:36:04 18.3 C 7.66 g/m*3 18.3 C 0 km/h
609 15-09-2010 01:48:04 18.2 C 7.62 g/m*3 18.2 C 0 km/h
610 15-09-2010 02:00:04 18.3 C 7.66 g/m*3 18.3 C 0 km/h
611 15-09-2010 02:12:04 18.4 C 7.55 g/m*3 18.4 C 0 km/h
612 15-09-2010 02:24:04 18.4 C 7.55 g/m*3 18.4 C 0 km/h
613 15-09-2010 02:36:05 18.3 C 7.66 g/m*3 18.3 C 0 km/h
614 15-09-2010 02:48:05 18.2 C 7.77 g/m*3 18.2 C 0 km/h
615 15-09-2010 03:00:05 18.2 C 7.93 g/m*3 18.2 C 0 km/h
616 15-09-2010 03:12:05 18.1 C 8.03 g/m*3 18.1 C 0 km/h
617 15-09-2010 03:24:05 18 C 8.29 g/m*3 18 C 0 km/h
618 15-09-2010 03:36:05 18 C 8.45 g/m*3 18 C 0 km/h
619 15-09-2010 03:48:05 18 C 8.45 g/m*3 18 C 0 km/h
620 15-09-2010 04:00:05 17.9 C 8.7 g/m*3 17.9 C 0 km/h
621 15-09-2010 04:12:05 17.9 C 9.01 g/m*3 17.9 C 0 km/h
622 15-09-2010 04:24:05 17.7 C 9.05 g/m*3 17.7 C 0 km/h
623 15-09-2010 04:36:05 17.6 C 9.3 g/m*3 17.6 C 0 km/h
624 15-09-2010 04:48:05 17.4 C 9.48 g/m*3 17.4 C 0 km/h
625 15-09-2010 05:00:05 17.4 C 9.48 g/m*3 17.4 C 0 km/h
Sensor: Nr:Datum:Temp:Abs-Feuchte:Windchill:Wind:
Aussen-T/F 626 15-09-2010 05:12:05 16.9 C 10.07 g/m*3 16.9 C 0 km/h
627 15-09-2010 05:24:05 14.4 C 9.27 g/m*3 14.4 C 0 km/h
628 15-09-2010 05:36:05 13.3 C 9.7 g/m*3 13.3 C 0 km/h
629 15-09-2010 05:48:05 13 C 9.87 g/m*3 13 C 0 km/h
630 15-09-2010 06:00:05 12.9 C 10.03 g/m*3 12.9 C 0 km/h
631 15-09-2010 06:12:05 12.8 C 10.08 g/m*3 12.8 C 0 km/h
632 15-09-2010 06:24:05 12.7 C 10.02 g/m*3 12.7 C 0 km/h
633 15-09-2010 06:36:05 12.7 C 10.13 g/m*3 12.7 C 0 km/h
634 15-09-2010 06:48:05 12.8 C 10.19 g/m*3 12.8 C 0 km/h
635 15-09-2010 07:00:06 12.8 C 10.3 g/m*3 12.8 C 0 km/h
636 15-09-2010 07:12:06 12.7 C 10.24 g/m*3 12.7 C 0 km/h
637 15-09-2010 07:24:06 12.7 C 10.24 g/m*3 12.7 C 0 km/h
638 15-09-2010 07:36:03 12.8 C 10.3 g/m*3 12.8 C 0 km/h
639 15-09-2010 07:48:02 12.7 C 10.35 g/m*3 12.7 C 0 km/h
640 15-09-2010 08:00:02 12.6 C 10.29 g/m*3 12.6 C 0 km/h
641 15-09-2010 08:12:02 12.7 C 10.35 g/m*3 12.7 C 0 km/h
642 15-09-2010 08:24:02 12.7 C 10.35 g/m*3 12.7 C 0 km/h
643 15-09-2010 08:36:01 12.8 C 10.42 g/m*3 12.8 C 0 km/h
644 15-09-2010 08:48:02 12.7 C 10.35 g/m*3 12.7 C 0 km/h
645 15-09-2010 09:00:02 12.5 C 10.22 g/m*3 12.5 C 0 km/h
646 15-09-2010 09:12:01 12.7 C 10.35 g/m*3 12.7 C 0 km/h
647 15-09-2010 09:24:01 12.7 C 10.24 g/m*3 12.7 C 0 km/h
648 15-09-2010 09:36:02 13.1 C 10.38 g/m*3 13.1 C 0 km/h
649 15-09-2010 09:48:02 13.6 C 10.59 g/m*3 13.6 C 0 km/h
650 15-09-2010 10:00:02 14 C 10.49 g/m*3 14 C 0 km/h
Sensor: Nr:Datum:Temp:Abs-Feuchte:Windchill:Wind:
Aussen-T/F 651 15-09-2010 10:12:02 14 C 10.01 g/m*3 14 C 0 km/h
652 15-09-2010 10:24:02 14.1 C 9.95 g/m*3 14.1 C 0 km/h
653 15-09-2010 10:36:02 14.1 C 9.71 g/m*3 14.1 C 0 km/h
654 15-09-2010 10:48:02 14.1 C 9.59 g/m*3 14.1 C 0 km/h
655 15-09-2010 11:00:02 14.2 C 9.52 g/m*3 14.2 C 0 km/h
656 15-09-2010 11:12:02 14.6 C 9.01 g/m*3 14.6 C 0 km/h
657 15-09-2010 11:24:02 15 C 8.72 g/m*3 15 C 0 km/h
658 15-09-2010 11:36:02 15.6 C 8.51 g/m*3 15.6 C 0 km/h
659 15-09-2010 11:48:01 15.7 C 8.43 g/m*3 15.7 C 0 km/h
660 15-09-2010 12:00:01 16.2 C 7.31 g/m*3 16.2 C 0 km/h
661 15-09-2010 12:12:01 16.4 C 7.4 g/m*3 16.4 C 0 km/h
662 15-09-2010 12:24:01 17.2 C 7.18 g/m*3 17.2 C 0 km/h
663 15-09-2010 12:36:01 16.6 C 7.06 g/m*3 16.6 C 0 km/h
664 15-09-2010 12:48:02 16.1 C 6.17 g/m*3 16.1 C 0 km/h
665 15-09-2010 13:00:02 16.1 C 6.44 g/m*3 16.1 C 0 km/h
666 15-09-2010 13:12:02 16.4 C 6.7 g/m*3 16.4 C 0 km/h
667 15-09-2010 13:24:02 17.4 C 6.52 g/m*3 17.4 C 0 km/h
668 15-09-2010 13:36:02 17.9 C 5.95 g/m*3 17.9 C 0 km/h
669 15-09-2010 13:48:02 18.4 C 5.82 g/m*3 18.4 C 0 km/h
670 15-09-2010 14:00:02 18.5 C 5.7 g/m*3 18.5 C 0 km/h
671 15-09-2010 14:12:02 18.1 C 5.87 g/m*3 18.1 C 0 km/h
672 15-09-2010 14:24:02 18.5 C 5.54 g/m*3 18.5 C 0 km/h
673 15-09-2010 14:36:02 18.3 C 5.47 g/m*3 18.3 C 0 km/h
674 15-09-2010 14:48:02 18.5 C 5.7 g/m*3 18.5 C 0 km/h
675 15-09-2010 15:00:03 19.5 C 5.87 g/m*3 19.5 C 0 km/h
Sensor: Nr:Datum:Temp:Abs-Feuchte:Windchill:Wind:
Aussen-T/F 676 15-09-2010 15:12:01 19.6 C 5.4 g/m*3 19.6 C 0 km/h
677 15-09-2010 15:24:01 19.3 C 5.64 g/m*3 19.3 C 0 km/h
678 15-09-2010 15:36:02 19.2 C 5.94 g/m*3 19.2 C 0 km/h
679 15-09-2010 15:48:02 20 C 5.88 g/m*3 20 C 0 km/h
680 15-09-2010 16:00:02 19.6 C 5.91 g/m*3 19.6 C 0 km/h
681 15-09-2010 16:12:02 19.6 C 5.91 g/m*3 19.6 C 0 km/h
682 15-09-2010 16:24:02 19.3 C 5.97 g/m*3 19.3 C 0 km/h
683 15-09-2010 16:36:02 19.6 C 6.08 g/m*3 19.6 C 0 km/h
684 15-09-2010 16:48:02 19.5 C 6.04 g/m*3 19.5 C 0 km/h
685 15-09-2010 17:00:02 20.4 C 5.84 g/m*3 20.4 C 0 km/h
686 15-09-2010 17:12:02 19 C 5.7 g/m*3 19 C 0 km/h
687 15-09-2010 17:24:02 19.4 C 6.01 g/m*3 19.4 C 0 km/h
688 15-09-2010 17:36:02 19.9 C 5.84 g/m*3 19.9 C 0 km/h
689 15-09-2010 17:48:02 19.7 C 5.6 g/m*3 19.7 C 0 km/h
690 15-09-2010 18:00:02 18.7 C 5.44 g/m*3 18.7 C 0 km/h
691 15-09-2010 18:12:02 18.2 C 5.28 g/m*3 18.2 C 0 km/h
692 15-09-2010 18:24:03 17.5 C 5.22 g/m*3 17.5 C 0 km/h
693 15-09-2010 18:36:02 17.7 C 5.28 g/m*3 17.7 C 0 km/h
694 15-09-2010 18:48:02 17.1 C 5.39 g/m*3 17.1 C 0 km/h
695 15-09-2010 19:00:02 16.9 C 5.61 g/m*3 16.9 C 0 km/h
696 15-09-2010 19:12:02 16.7 C 5.4 g/m*3 16.7 C 0 km/h
697 15-09-2010 19:24:02 16.6 C 5.65 g/m*3 16.6 C 0 km/h
698 15-09-2010 19:36:02 16.4 C 5.72 g/m*3 16.4 C 0 km/h
699 15-09-2010 19:48:02 16.4 C 5.86 g/m*3 16.4 C 0 km/h
700 15-09-2010 20:00:02 16.2 C 6.07 g/m*3 16.2 C 0 km/h
Sensor: Nr:Datum:Temp:Abs-Feuchte:Windchill:Wind:
Aussen-T/F 701 15-09-2010 20:12:02 16 C 6.27 g/m*3 16 C 0 km/h
702 15-09-2010 20:24:02 15.8 C 6.46 g/m*3 15.8 C 0 km/h
703 15-09-2010 20:36:01 15.7 C 6.15 g/m*3 15.7 C 0 km/h
704 15-09-2010 20:48:02 15.5 C 6.34 g/m*3 15.5 C 0 km/h
705 15-09-2010 21:00:03 15.4 C 6.31 g/m*3 15.4 C 0 km/h
706 15-09-2010 21:12:01 15.2 C 6.49 g/m*3 15.2 C 0 km/h
707 15-09-2010 21:24:01 15 C 6.41 g/m*3 15 C 0 km/h
708 15-09-2010 21:37:02 15.1 C 6.32 g/m*3 15.1 C 0 km/h
709 15-09-2010 21:49:02 15.2 C 6.36 g/m*3 15.2 C 0 km/h
710 15-09-2010 22:01:02 15.1 C 6.32 g/m*3 15.1 C 0 km/h
711 15-09-2010 22:13:02 15.1 C 6.06 g/m*3 15.1 C 0 km/h
712 15-09-2010 22:25:02 14.9 C 5.86 g/m*3 14.9 C 0 km/h
713 15-09-2010 22:37:02 14.8 C 5.83 g/m*3 14.8 C 0 km/h
714 15-09-2010 22:49:02 14.9 C 5.74 g/m*3 14.9 C 0 km/h
715 15-09-2010 23:01:02 15 C 5.51 g/m*3 15 C 0 km/h
716 15-09-2010 23:13:02 15 C 5.51 g/m*3 15 C 0 km/h
717 15-09-2010 23:25:02 14.9 C 5.74 g/m*3 14.9 C 0 km/h
718 15-09-2010 23:37:02 14.8 C 5.7 g/m*3 14.8 C 0 km/h
719 15-09-2010 23:49:02 14.6 C 5.76 g/m*3 14.6 C 0 km/h
720 16-09-2010 00:01:02 14.5 C 5.97 g/m*3 14.5 C 0 km/h
721 16-09-2010 00:13:02 14.4 C 5.93 g/m*3 14.4 C 0 km/h
722 16-09-2010 00:25:02 14.2 C 5.86 g/m*3 14.2 C 0 km/h
723 16-09-2010 00:37:02 13.8 C 5.96 g/m*3 13.8 C 0 km/h
724 16-09-2010 00:49:02 14 C 5.79 g/m*3 14 C 0 km/h
725 16-09-2010 01:01:02 14.1 C 5.58 g/m*3 14.1 C 0 km/h
Sensor: Nr:Datum:Temp:Abs-Feuchte:Windchill:Wind:
Aussen-T/F 726 16-09-2010 01:13:03 14.2 C 5.49 g/m*3 14.2 C 0 km/h
727 16-09-2010 01:25:03 14.1 C 5.34 g/m*3 14.1 C 0 km/h
728 16-09-2010 01:37:03 14.1 C 5.34 g/m*3 14.1 C 0 km/h
729 16-09-2010 01:49:03 14 C 5.31 g/m*3 14 C 0 km/h
730 16-09-2010 02:01:03 13.9 C 5.51 g/m*3 13.9 C 0 km/h
731 16-09-2010 02:13:03 14.1 C 5.58 g/m*3 14.1 C 0 km/h
732 16-09-2010 02:25:03 14 C 5.79 g/m*3 14 C 0 km/h
733 16-09-2010 02:37:03 13.7 C 5.92 g/m*3 13.7 C 0 km/h
734 16-09-2010 02:49:03 14 C 6.15 g/m*3 14 C 0 km/h
735 16-09-2010 03:01:03 13.9 C 6.35 g/m*3 13.9 C 0 km/h
736 16-09-2010 03:13:03 13.9 C 6.59 g/m*3 13.9 C 0 km/h
737 16-09-2010 03:25:03 13.9 C 6.71 g/m*3 13.9 C 0 km/h
738 16-09-2010 03:37:03 13.8 C 6.79 g/m*3 13.8 C 0 km/h
739 16-09-2010 03:49:03 13.7 C 7.1 g/m*3 13.7 C 0 km/h
740 16-09-2010 04:01:03 13.2 C 7.12 g/m*3 13.2 C 0 km/h
741 16-09-2010 04:13:03 13.6 C 6.94 g/m*3 13.6 C 0 km/h
742 16-09-2010 04:25:03 13.7 C 6.87 g/m*3 13.7 C 0 km/h
743 16-09-2010 04:37:03 13.7 C 6.99 g/m*3 13.7 C 0 km/h
744 16-09-2010 04:49:03 13.7 C 6.99 g/m*3 13.7 C 0 km/h
745 16-09-2010 05:01:03 13.7 C 6.99 g/m*3 13.7 C 0 km/h
746 16-09-2010 05:13:03 13.6 C 7.06 g/m*3 13.6 C 0 km/h
747 16-09-2010 05:25:04 13.2 C 7.35 g/m*3 13.2 C 0 km/h
748 16-09-2010 05:37:04 13.1 C 7.42 g/m*3 13.1 C 0 km/h
749 16-09-2010 05:49:04 13.2 C 7.46 g/m*3 13.2 C 0 km/h
750 16-09-2010 06:01:04 13.1 C 7.65 g/m*3 13.1 C 0 km/h
Sensor: Nr:Datum:Temp:Abs-Feuchte:Windchill:Wind:
Aussen-T/F 751 16-09-2010 06:13:04 12.6 C 7.97 g/m*3 12.6 C 0 km/h
752 16-09-2010 06:25:04 12.5 C 8.03 g/m*3 12.5 C 0 km/h
753 16-09-2010 06:37:04 12.1 C 8.26 g/m*3 12.1 C 0 km/h
754 16-09-2010 06:49:04 11.9 C 8.47 g/m*3 11.9 C 0 km/h
755 16-09-2010 07:01:04 11.9 C 8.47 g/m*3 11.9 C 0 km/h
756 16-09-2010 07:13:04 11.9 C 8.58 g/m*3 11.9 C 0 km/h
757 16-09-2010 07:25:04 11.9 C 8.79 g/m*3 11.9 C 0 km/h
758 16-09-2010 07:37:04 11.6 C 8.73 g/m*3 11.6 C 0 km/h
759 16-09-2010 07:49:04 11.6 C 8.83 g/m*3 11.6 C 0 km/h
760 16-09-2010 08:01:02 11.6 C 8.83 g/m*3 11.6 C 0 km/h
761 16-09-2010 08:13:02 11.7 C 8.79 g/m*3 11.7 C 0 km/h
762 16-09-2010 08:25:02 12 C 8.85 g/m*3 12 C 0 km/h
763 16-09-2010 08:37:02 12 C 8.85 g/m*3 12 C 0 km/h
764 16-09-2010 08:49:02 12 C 8.85 g/m*3 12 C 0 km/h
765 16-09-2010 09:01:02 12 C 8.95 g/m*3 12 C 0 km/h
766 16-09-2010 09:13:02 12.1 C 9.01 g/m*3 12.1 C 0 km/h
767 16-09-2010 09:25:01 12.6 C 9.29 g/m*3 12.6 C 0 km/h
768 16-09-2010 09:37:02 13 C 9.41 g/m*3 13 C 0 km/h
769 16-09-2010 09:49:02 13.5 C 9.59 g/m*3 13.5 C 0 km/h
770 16-09-2010 10:01:02 13.7 C 9.12 g/m*3 13.7 C 0 km/h
771 16-09-2010 10:13:02 14 C 8.68 g/m*3 14 C 0 km/h
772 16-09-2010 10:25:02 14 C 8.56 g/m*3 14 C 0 km/h
773 16-09-2010 10:37:02 14.3 C 8.35 g/m*3 14.3 C 0 km/h
774 16-09-2010 10:49:02 14.6 C 8.51 g/m*3 14.6 C 0 km/h
775 16-09-2010 11:01:02 15.2 C 8.18 g/m*3 15.2 C 0 km/h
Sensor: Nr:Datum:Temp:Abs-Feuchte:Windchill:Wind:
Aussen-T/F 776 16-09-2010 11:13:02 15 C 8.08 g/m*3 15 C 0 km/h
777 16-09-2010 11:25:02 15.2 C 8.44 g/m*3 15.2 C 0 km/h
778 16-09-2010 11:37:02 15.1 C 8.26 g/m*3 15.1 C 0 km/h
779 16-09-2010 11:49:01 15.8 C 8.21 g/m*3 15.8 C 0 km/h
780 16-09-2010 12:01:02 16.4 C 7.82 g/m*3 16.4 C 0 km/h
781 16-09-2010 12:13:02 16.7 C 7.82 g/m*3 16.7 C 0 km/h
782 16-09-2010 12:25:02 17.2 C 7.61 g/m*3 17.2 C 0 km/h
783 16-09-2010 12:37:02 17.1 C 7.42 g/m*3 17.1 C 0 km/h
784 16-09-2010 12:49:02 17.7 C 7.69 g/m*3 17.7 C 0 km/h
785 16-09-2010 13:01:01 17.7 C 7.09 g/m*3 17.7 C 0 km/h
786 16-09-2010 13:13:01 17.9 C 7.02 g/m*3 17.9 C 0 km/h
787 16-09-2010 13:25:02 17.4 C 6.97 g/m*3 17.4 C 0 km/h
788 16-09-2010 13:37:01 16.9 C 7.34 g/m*3 16.9 C 0 km/h
789 16-09-2010 13:49:01 16.7 C 7.39 g/m*3 16.7 C 0 km/h
790 16-09-2010 14:01:01 17 C 7.23 g/m*3 17 C 0 km/h
791 16-09-2010 14:13:01 16 C 7.36 g/m*3 16 C 0 km/h
792 16-09-2010 14:25:01 14 C 8.81 g/m*3 14 C 0 km/h
793 16-09-2010 14:37:02 14.2 C 9.52 g/m*3 14.2 C 0 km/h
794 16-09-2010 14:49:02 15.2 C 10.25 g/m*3 15.2 C 0 km/h
795 16-09-2010 15:01:02 15.9 C 10.29 g/m*3 15.9 C 0 km/h
796 16-09-2010 15:13:02 16.8 C 9.44 g/m*3 16.8 C 0 km/h
797 16-09-2010 15:25:01 17 C 8.97 g/m*3 17 C 0 km/h
798 16-09-2010 15:37:02 18.5 C 9.02 g/m*3 18.5 C 0 km/h
799 16-09-2010 15:49:02 17.9 C 7.79 g/m*3 17.9 C 0 km/h
800 16-09-2010 16:01:02 18.3 C 7.82 g/m*3 18.3 C 0 km/h
Sensor: Nr:Datum:Temp:Abs-Feuchte:Windchill:Wind:
Aussen-T/F 801 16-09-2010 16:13:03 17.4 C 7.56 g/m*3 17.4 C 0 km/h
802 16-09-2010 16:25:01 16.6 C 8.05 g/m*3 16.6 C 0 km/h
803 16-09-2010 16:37:02 15 C 8.85 g/m*3 15 C 0 km/h
804 16-09-2010 16:49:02 14.5 C 9.7 g/m*3 14.5 C 0 km/h
805 16-09-2010 17:01:02 14.5 C 9.83 g/m*3 14.5 C 0 km/h
806 16-09-2010 17:13:02 15.1 C 10.06 g/m*3 15.1 C 0 km/h
807 16-09-2010 17:25:02 15.5 C 9.65 g/m*3 15.5 C 0 km/h
808 16-09-2010 17:37:02 15.2 C 9.22 g/m*3 15.2 C 0 km/h
809 16-09-2010 17:49:02 16.2 C 8.69 g/m*3 16.2 C 0 km/h
810 16-09-2010 18:01:02 15.3 C 8.88 g/m*3 15.3 C 0 km/h
811 16-09-2010 18:13:02 15 C 8.72 g/m*3 15 C 0 km/h
812 16-09-2010 18:25:02 15 C 8.85 g/m*3 15 C 0 km/h
813 16-09-2010 18:37:01 14.8 C 8.99 g/m*3 14.8 C 0 km/h
814 16-09-2010 18:49:02 14.4 C 9.27 g/m*3 14.4 C 0 km/h
815 16-09-2010 19:01:01 13.8 C 9.41 g/m*3 13.8 C 0 km/h
816 16-09-2010 19:13:01 13.5 C 9.59 g/m*3 13.5 C 0 km/h
817 16-09-2010 19:25:02 13.4 C 9.76 g/m*3 13.4 C 0 km/h
818 16-09-2010 19:37:02 13.3 C 9.82 g/m*3 13.3 C 0 km/h
819 16-09-2010 19:49:02 13.1 C 9.81 g/m*3 13.1 C 0 km/h
820 16-09-2010 20:01:02 13 C 9.87 g/m*3 13 C 0 km/h
821 16-09-2010 20:13:02 13 C 9.98 g/m*3 13 C 0 km/h
822 16-09-2010 20:25:02 12.8 C 10.08 g/m*3 12.8 C 0 km/h
823 16-09-2010 20:37:02 12.7 C 10.02 g/m*3 12.7 C 0 km/h
824 16-09-2010 20:49:02 12.7 C 10.13 g/m*3 12.7 C 0 km/h
825 16-09-2010 21:01:02 12.6 C 10.07 g/m*3 12.6 C 0 km/h
Sensor: Nr:Datum:Temp:Abs-Feuchte:Windchill:Wind:
Aussen-T/F 826 16-09-2010 21:13:02 12.7 C 10.13 g/m*3 12.7 C 0 km/h
827 16-09-2010 21:25:01 12.7 C 10.13 g/m*3 12.7 C 0 km/h
828 16-09-2010 21:37:02 12.6 C 10.07 g/m*3 12.6 C 0 km/h
829 16-09-2010 21:49:02 12.5 C 10 g/m*3 12.5 C 0 km/h
830 16-09-2010 22:01:02 12.2 C 9.71 g/m*3 12.2 C 0 km/h
831 16-09-2010 22:13:02 12.2 C 9.6 g/m*3 12.2 C 0 km/h
832 16-09-2010 22:25:02 12.2 C 9.6 g/m*3 12.2 C 0 km/h
833 16-09-2010 22:38:02 12.2 C 9.5 g/m*3 12.2 C 0 km/h
834 16-09-2010 22:50:02 12.2 C 9.5 g/m*3 12.2 C 0 km/h
835 16-09-2010 23:02:02 12.2 C 9.5 g/m*3 12.2 C 0 km/h
836 16-09-2010 23:14:02 12.1 C 9.33 g/m*3 12.1 C 0 km/h
837 16-09-2010 23:26:02 12.1 C 9.22 g/m*3 12.1 C 0 km/h
838 16-09-2010 23:38:02 12.1 C 9.22 g/m*3 12.1 C 0 km/h
839 16-09-2010 23:50:02 12 C 9.17 g/m*3 12 C 0 km/h
840 17-09-2010 00:02:02 12.1 C 9.12 g/m*3 12.1 C 0 km/h
841 17-09-2010 00:14:02 12.1 C 9.22 g/m*3 12.1 C 0 km/h
842 17-09-2010 00:26:02 12.2 C 9.28 g/m*3 12.2 C 0 km/h
843 17-09-2010 00:38:02 12.2 C 9.28 g/m*3 12.2 C 0 km/h
844 17-09-2010 00:50:02 12.2 C 9.28 g/m*3 12.2 C 0 km/h
845 17-09-2010 01:02:02 12.1 C 9.22 g/m*3 12.1 C 0 km/h
846 17-09-2010 01:14:03 12.1 C 9.22 g/m*3 12.1 C 0 km/h
847 17-09-2010 01:26:03 12.1 C 9.33 g/m*3 12.1 C 0 km/h
848 17-09-2010 01:38:03 12 C 9.27 g/m*3 12 C 0 km/h
849 17-09-2010 01:50:03 12 C 9.27 g/m*3 12 C 0 km/h
850 17-09-2010 02:02:03 11.9 C 9.32 g/m*3 11.9 C 0 km/h
Sensor: Nr:Datum:Temp:Abs-Feuchte:Windchill:Wind:
Aussen-T/F 851 17-09-2010 02:14:03 11.9 C 9.32 g/m*3 11.9 C 0 km/h
852 17-09-2010 02:26:03 12 C 9.38 g/m*3 12 C 0 km/h
853 17-09-2010 02:38:03 12 C 9.27 g/m*3 12 C 0 km/h
854 17-09-2010 02:50:03 12 C 9.17 g/m*3 12 C 0 km/h
855 17-09-2010 03:02:03 12.1 C 9.01 g/m*3 12.1 C 0 km/h
856 17-09-2010 03:14:03 12.1 C 8.9 g/m*3 12.1 C 0 km/h
857 17-09-2010 03:26:03 12.1 C 8.9 g/m*3 12.1 C 0 km/h
858 17-09-2010 03:38:03 12 C 8.95 g/m*3 12 C 0 km/h
859 17-09-2010 03:50:03 12 C 8.95 g/m*3 12 C 0 km/h
860 17-09-2010 04:02:03 12 C 9.06 g/m*3 12 C 0 km/h
861 17-09-2010 04:14:03 11.9 C 8.9 g/m*3 11.9 C 0 km/h
862 17-09-2010 04:26:03 12 C 8.85 g/m*3 12 C 0 km/h
863 17-09-2010 04:38:03 11.8 C 8.63 g/m*3 11.8 C 0 km/h
864 17-09-2010 04:50:03 12 C 8.21 g/m*3 12 C 0 km/h
865 17-09-2010 05:02:03 11.9 C 8.15 g/m*3 11.9 C 0 km/h
866 17-09-2010 05:14:03 11.5 C 8.16 g/m*3 11.5 C 0 km/h
867 17-09-2010 05:26:04 11.1 C 8.16 g/m*3 11.1 C 0 km/h
868 17-09-2010 05:38:04 10.8 C 8.3 g/m*3 10.8 C 0 km/h
869 17-09-2010 05:50:04 10.7 C 8.35 g/m*3 10.7 C 0 km/h
870 17-09-2010 06:02:04 10.5 C 8.34 g/m*3 10.5 C 0 km/h
871 17-09-2010 06:14:04 10.5 C 8.44 g/m*3 10.5 C 0 km/h
872 17-09-2010 06:26:04 10.7 C 8.74 g/m*3 10.7 C 0 km/h
873 17-09-2010 06:38:04 10.8 C 8.8 g/m*3 10.8 C 0 km/h
874 17-09-2010 06:50:04 10.5 C 8.63 g/m*3 10.5 C 0 km/h
875 17-09-2010 07:02:02 10.2 C 8.37 g/m*3 10.2 C 0 km/h
Sensor: Nr:Datum:Temp:Abs-Feuchte:Windchill:Wind:
Aussen-T/F 876 17-09-2010 07:14:02 10 C 8.27 g/m*3 10 C 0 km/h
877 17-09-2010 07:26:02 9.9 C 8.31 g/m*3 9.9 C 0 km/h
878 17-09-2010 07:38:01 10 C 7.99 g/m*3 10 C 0 km/h
879 17-09-2010 07:50:02 10 C 7.8 g/m*3 10 C 0 km/h
880 17-09-2010 08:02:01 9.9 C 7.84 g/m*3 9.9 C 0 km/h
881 17-09-2010 08:14:01 10 C 7.8 g/m*3 10 C 0 km/h
882 17-09-2010 08:26:01 10.1 C 7.66 g/m*3 10.1 C 0 km/h
883 17-09-2010 08:38:01 10.3 C 7.57 g/m*3 10.3 C 0 km/h
884 17-09-2010 08:50:01 10.8 C 7.41 g/m*3 10.8 C 0 km/h
885 17-09-2010 09:02:01 10.8 C 7.31 g/m*3 10.8 C 0 km/h
886 17-09-2010 09:14:01 10.7 C 7.27 g/m*3 10.7 C 0 km/h
887 17-09-2010 09:26:02 10.8 C 7.31 g/m*3 10.8 C 0 km/h
888 17-09-2010 09:38:01 10.9 C 7.26 g/m*3 10.9 C 0 km/h
889 17-09-2010 09:50:02 11.1 C 7.25 g/m*3 11.1 C 0 km/h
890 17-09-2010 10:02:02 11.4 C 7.39 g/m*3 11.4 C 0 km/h
891 17-09-2010 10:14:02 11.7 C 7.53 g/m*3 11.7 C 0 km/h
892 17-09-2010 10:26:02 12.1 C 7.61 g/m*3 12.1 C 0 km/h
893 17-09-2010 10:38:01 12.4 C 7.54 g/m*3 12.4 C 0 km/h
894 17-09-2010 10:50:02 12.7 C 7.68 g/m*3 12.7 C 0 km/h
895 17-09-2010 11:02:01 13.1 C 7.65 g/m*3 13.1 C 0 km/h
896 17-09-2010 11:14:01 13.3 C 7.63 g/m*3 13.3 C 0 km/h
897 17-09-2010 11:26:01 13.8 C 7.74 g/m*3 13.8 C 0 km/h
898 17-09-2010 11:38:02 14.1 C 7.4 g/m*3 14.1 C 0 km/h
899 17-09-2010 11:50:02 14.3 C 7.37 g/m*3 14.3 C 0 km/h
900 17-09-2010 12:02:02 15.2 C 7.01 g/m*3 15.2 C 0 km/h
Sensor: Nr:Datum:Temp:Abs-Feuchte:Windchill:Wind:
Aussen-T/F 901 17-09-2010 12:14:02 15.2 C 6.62 g/m*3 15.2 C 0 km/h
902 17-09-2010 12:26:02 15.7 C 6.42 g/m*3 15.7 C 0 km/h
903 17-09-2010 12:38:02 16.2 C 6.62 g/m*3 16.2 C 0 km/h
904 17-09-2010 12:50:02 16.2 C 6.21 g/m*3 16.2 C 0 km/h
905 17-09-2010 13:02:02 15.9 C 6.23 g/m*3 15.9 C 0 km/h
906 17-09-2010 13:14:02 16.2 C 5.93 g/m*3 16.2 C 0 km/h
907 17-09-2010 13:26:02 16.3 C 5.83 g/m*3 16.3 C 0 km/h
908 17-09-2010 13:38:02 17 C 5.79 g/m*3 17 C 0 km/h
909 17-09-2010 13:50:02 17.9 C 5.65 g/m*3 17.9 C 0 km/h
910 17-09-2010 14:02:02 18.5 C 5.54 g/m*3 18.5 C 0 km/h
911 17-09-2010 14:14:02 17.1 C 5.24 g/m*3 17.1 C 0 km/h
912 17-09-2010 14:26:02 16.8 C 5.29 g/m*3 16.8 C 0 km/h
913 17-09-2010 14:38:02 17.4 C 5.34 g/m*3 17.4 C 0 km/h
914 17-09-2010 14:50:02 18.3 C 5 g/m*3 18.3 C 0 km/h
915 17-09-2010 15:02:02 18.6 C 4.93 g/m*3 18.6 C 0 km/h
916 17-09-2010 15:14:02 18.2 C 4.97 g/m*3 18.2 C 0 km/h
917 17-09-2010 15:26:02 17.2 C 5.13 g/m*3 17.2 C 0 km/h
918 17-09-2010 15:38:02 16.6 C 5.09 g/m*3 16.6 C 0 km/h
919 17-09-2010 15:50:02 16.8 C 5.15 g/m*3 16.8 C 0 km/h
920 17-09-2010 16:02:02 18.4 C 5.19 g/m*3 18.4 C 0 km/h
921 17-09-2010 16:14:02 18.9 C 5.02 g/m*3 18.9 C 0 km/h
922 17-09-2010 16:26:02 19.3 C 4.81 g/m*3 19.3 C 0 km/h
923 17-09-2010 16:38:01 18.9 C 4.86 g/m*3 18.9 C 0 km/h
924 17-09-2010 16:50:02 19.8 C 4.78 g/m*3 19.8 C 0 km/h
925 17-09-2010 17:02:01 20.1 C 4.69 g/m*3 20.1 C 0 km/h
Sensor: Nr:Datum:Temp:Abs-Feuchte:Windchill:Wind:
Aussen-T/F 926 17-09-2010 17:14:01 19.7 C 4.25 g/m*3 19.7 C 0 km/h
927 17-09-2010 17:26:01 18.8 C 4.35 g/m*3 18.8 C 0 km/h
928 17-09-2010 17:38:02 19.3 C 4.31 g/m*3 19.3 C 0 km/h
929 17-09-2010 17:50:02 19.4 C 4.67 g/m*3 19.4 C 0 km/h
930 17-09-2010 18:02:02 17.5 C 5.22 g/m*3 17.5 C 0 km/h
931 17-09-2010 18:14:02 16 C 5.99 g/m*3 16 C 0 km/h
932 17-09-2010 18:26:02 17.2 C 6.3 g/m*3 17.2 C 0 km/h
933 17-09-2010 18:38:02 16.3 C 6.24 g/m*3 16.3 C 0 km/h
934 17-09-2010 18:50:01 16.3 C 6.66 g/m*3 16.3 C 0 km/h
935 17-09-2010 19:02:01 16.3 C 6.66 g/m*3 16.3 C 0 km/h
936 17-09-2010 19:14:02 15.7 C 6.56 g/m*3 15.7 C 0 km/h
937 17-09-2010 19:26:01 15 C 6.54 g/m*3 15 C 0 km/h
938 17-09-2010 19:38:01 14.7 C 6.8 g/m*3 14.7 C 0 km/h
939 17-09-2010 19:50:02 14.5 C 6.84 g/m*3 14.5 C 0 km/h
940 17-09-2010 20:02:02 14.5 C 6.96 g/m*3 14.5 C 0 km/h
941 17-09-2010 20:14:02 14.5 C 6.96 g/m*3 14.5 C 0 km/h
942 17-09-2010 20:26:02 14.5 C 7.09 g/m*3 14.5 C 0 km/h
943 17-09-2010 20:38:02 14.1 C 7.28 g/m*3 14.1 C 0 km/h
944 17-09-2010 20:50:01 13.7 C 6.99 g/m*3 13.7 C 0 km/h
945 17-09-2010 21:02:02 13.7 C 7.22 g/m*3 13.7 C 0 km/h
946 17-09-2010 21:14:02 13.5 C 7.13 g/m*3 13.5 C 0 km/h
947 17-09-2010 21:26:01 13.4 C 7.09 g/m*3 13.4 C 0 km/h
948 17-09-2010 21:38:01 13.4 C 7.09 g/m*3 13.4 C 0 km/h
949 17-09-2010 21:50:01 13.4 C 7.21 g/m*3 13.4 C 0 km/h
950 17-09-2010 22:02:01 13.6 C 6.94 g/m*3 13.6 C 0 km/h
Sensor: Nr:Datum:Temp:Abs-Feuchte:Windchill:Wind:
Aussen-T/F 951 17-09-2010 22:14:01 13.6 C 6.71 g/m*3 13.6 C 0 km/h
952 17-09-2010 22:26:02 13.4 C 6.63 g/m*3 13.4 C 0 km/h
953 17-09-2010 22:39:36 13.1 C 6.62 g/m*3 13.1 C 0 km/h
954 17-09-2010 22:51:37 13 C 6.69 g/m*3 13 C 0 km/h
955 17-09-2010 23:03:37 12.8 C 6.72 g/m*3 12.8 C 0 km/h
956 17-09-2010 23:15:37 12.6 C 6.75 g/m*3 12.6 C 0 km/h
957 17-09-2010 23:27:37 12.6 C 6.86 g/m*3 12.6 C 0 km/h
958 17-09-2010 23:39:37 12.5 C 6.82 g/m*3 12.5 C 0 km/h
959 17-09-2010 23:51:37 12.4 C 6.88 g/m*3 12.4 C 0 km/h
960 18-09-2010 00:03:37 12.2 C 6.8 g/m*3 12.2 C 0 km/h
961 18-09-2010 00:15:37 12.3 C 6.95 g/m*3 12.3 C 0 km/h
962 18-09-2010 00:27:37 12 C 6.82 g/m*3 12 C 0 km/h
963 18-09-2010 00:39:37 12 C 7.03 g/m*3 12 C 0 km/h
964 18-09-2010 00:51:37 12.1 C 7.08 g/m*3 12.1 C 0 km/h
965 18-09-2010 01:03:37 11.9 C 7.2 g/m*3 11.9 C 0 km/h
966 18-09-2010 01:15:37 11.2 C 6.99 g/m*3 11.2 C 0 km/h
967 18-09-2010 01:27:37 10.8 C 7.02 g/m*3 10.8 C 0 km/h
968 18-09-2010 01:39:37 10.4 C 6.94 g/m*3 10.4 C 0 km/h
969 18-09-2010 01:51:37 10.2 C 6.85 g/m*3 10.2 C 0 km/h
970 18-09-2010 02:03:37 10.2 C 6.95 g/m*3 10.2 C 0 km/h
971 18-09-2010 02:15:37 10 C 7.05 g/m*3 10 C 0 km/h
972 18-09-2010 02:27:37 10 C 7.24 g/m*3 10 C 0 km/h
973 18-09-2010 02:39:37 9.8 C 7.33 g/m*3 9.8 C 0 km/h
974 18-09-2010 02:51:37 10 C 7.42 g/m*3 10 C 0 km/h
975 18-09-2010 03:03:38 9.9 C 7.47 g/m*3 9.9 C 0 km/h
Sensor: Nr:Datum:Temp:Abs-Feuchte:Windchill:Wind:
Aussen-T/F 976 18-09-2010 03:15:38 9.5 C 7.28 g/m*3 9.5 C 0 km/h
977 18-09-2010 03:27:38 9.4 C 7.33 g/m*3 9.4 C 0 km/h
978 18-09-2010 03:39:38 9.1 C 7.19 g/m*3 9.1 C 0 km/h
979 18-09-2010 03:51:38 9 C 7.23 g/m*3 9 C 0 km/h
980 18-09-2010 04:03:38 8.9 C 7.36 g/m*3 8.9 C 0 km/h
981 18-09-2010 04:15:38 8.7 C 7.26 g/m*3 8.7 C 0 km/h
982 18-09-2010 04:27:38 8.5 C 7.17 g/m*3 8.5 C 0 km/h
983 18-09-2010 04:39:38 8.4 C 7.13 g/m*3 8.4 C 0 km/h
984 18-09-2010 04:51:38 8.2 C 7.03 g/m*3 8.2 C 0 km/h
985 18-09-2010 05:03:38 8.2 C 7.12 g/m*3 8.2 C 0 km/h
986 18-09-2010 05:15:38 8.1 C 7.16 g/m*3 8.1 C 0 km/h
987 18-09-2010 05:27:38 7.9 C 7.23 g/m*3 7.9 C 0 km/h
988 18-09-2010 05:39:38 7.7 C 7.14 g/m*3 7.7 C 0 km/h
989 18-09-2010 05:51:38 7.8 C 7.26 g/m*3 7.8 C 0 km/h
990 18-09-2010 06:03:38 7.8 C 7.35 g/m*3 7.8 C 0 km/h
991 18-09-2010 06:15:38 7.5 C 7.28 g/m*3 7.5 C 0 km/h
992 18-09-2010 06:27:38 7.5 C 7.28 g/m*3 7.5 C 0 km/h
993 18-09-2010 06:39:38 7.6 C 7.41 g/m*3 7.6 C 0 km/h
994 18-09-2010 06:51:38 7.7 C 7.46 g/m*3 7.7 C 0 km/h
995 18-09-2010 07:03:39 7.7 C 7.46 g/m*3 7.7 C 0 km/h
996 18-09-2010 07:15:39 7.6 C 7.33 g/m*3 7.6 C 0 km/h
997 18-09-2010 07:27:39 7.5 C 7.28 g/m*3 7.5 C 0 km/h
998 18-09-2010 07:39:39 7.3 C 7.19 g/m*3 7.3 C 0 km/h
999 18-09-2010 07:51:39 7.4 C 7.24 g/m*3 7.4 C 0 km/h
1000 18-09-2010 08:03:02 7.3 C 7.11 g/m*3 7.3 C 0 km/h
Sensor: Nr:Datum:Temp:Abs-Feuchte:Windchill:Wind:
Aussen-T/F 1001 18-09-2010 08:15:03 7.4 C 7.16 g/m*3 7.4 C 0 km/h
1002 18-09-2010 08:27:03 7.5 C 7.28 g/m*3 7.5 C 0 km/h
1003 18-09-2010 08:39:02 7.5 C 7.28 g/m*3 7.5 C 0 km/h
1004 18-09-2010 08:51:02 7.6 C 7.33 g/m*3 7.6 C 0 km/h
1005 18-09-2010 09:03:02 7.7 C 7.38 g/m*3 7.7 C 0 km/h
1006 18-09-2010 09:15:02 7.8 C 7.43 g/m*3 7.8 C 0 km/h
1007 18-09-2010 09:27:02 8 C 7.44 g/m*3 8 C 0 km/h
1008 18-09-2010 09:39:02 8.2 C 7.54 g/m*3 8.2 C 0 km/h
1009 18-09-2010 09:51:02 8.9 C 7.97 g/m*3 8.9 C 0 km/h
1010 18-09-2010 10:03:02 9.3 C 8.09 g/m*3 9.3 C 0 km/h
1011 18-09-2010 10:15:02 9.5 C 8.1 g/m*3 9.5 C 0 km/h
1012 18-09-2010 10:27:03 9.8 C 8.07 g/m*3 9.8 C 0 km/h
1013 18-09-2010 10:39:01 10.7 C 8.25 g/m*3 10.7 C 0 km/h
1014 18-09-2010 10:51:02 11.7 C 8.37 g/m*3 11.7 C 0 km/h
1015 18-09-2010 11:03:02 12.2 C 6.91 g/m*3 12.2 C 0 km/h
1016 18-09-2010 11:15:02 13 C 6.8 g/m*3 13 C 0 km/h
1017 18-09-2010 11:27:02 13.6 C 6.59 g/m*3 13.6 C 0 km/h
1018 18-09-2010 11:39:02 14 C 6.39 g/m*3 14 C 0 km/h
1019 18-09-2010 11:51:01 14.5 C 6.47 g/m*3 14.5 C 0 km/h
1020 18-09-2010 12:03:02 14.6 C 6.13 g/m*3 14.6 C 0 km/h
1021 18-09-2010 12:15:01 15.7 C 6.15 g/m*3 15.7 C 0 km/h
1022 18-09-2010 12:27:01 15.1 C 5.42 g/m*3 15.1 C 0 km/h
1023 18-09-2010 12:39:01 15.4 C 6.04 g/m*3 15.4 C 0 km/h
1024 18-09-2010 12:51:01 14.9 C 5.86 g/m*3 14.9 C 0 km/h
1025 18-09-2010 13:03:02 14.9 C 5.86 g/m*3 14.9 C 0 km/h
Sensor: Nr:Datum:Temp:Abs-Feuchte:Windchill:Wind:
Aussen-T/F 1026 18-09-2010 13:15:01 15.3 C 5.48 g/m*3 15.3 C 0 km/h
1027 18-09-2010 13:27:01 15.6 C 5.32 g/m*3 15.6 C 0 km/h
1028 18-09-2010 13:39:01 15.8 C 5.25 g/m*3 15.8 C 0 km/h
1029 18-09-2010 13:51:01 16.4 C 5.16 g/m*3 16.4 C 0 km/h
1030 18-09-2010 14:03:01 16.2 C 4.96 g/m*3 16.2 C 0 km/h
1031 18-09-2010 14:15:02 15.4 C 4.73 g/m*3 15.4 C 0 km/h
1032 18-09-2010 14:27:02 14.7 C 4.66 g/m*3 14.7 C 0 km/h
1033 18-09-2010 14:39:01 14.9 C 4.72 g/m*3 14.9 C 0 km/h
1034 18-09-2010 14:51:02 15.1 C 4.77 g/m*3 15.1 C 0 km/h
1035 18-09-2010 15:03:02 15.4 C 4.6 g/m*3 15.4 C 0 km/h
1036 18-09-2010 15:15:02 16.1 C 4.52 g/m*3 16.1 C 0 km/h
1037 18-09-2010 15:27:02 15.9 C 4.74 g/m*3 15.9 C 0 km/h
1038 18-09-2010 15:39:02 17.3 C 4.57 g/m*3 17.3 C 0 km/h
1039 18-09-2010 15:51:02 16.8 C 4.43 g/m*3 16.8 C 0 km/h
1040 18-09-2010 16:03:01 16.4 C 4.75 g/m*3 16.4 C 0 km/h
1041 18-09-2010 16:15:02 16.2 C 4.55 g/m*3 16.2 C 0 km/h
1042 18-09-2010 16:27:03 16.1 C 4.66 g/m*3 16.1 C 0 km/h
1043 18-09-2010 16:39:01 16.1 C 4.8 g/m*3 16.1 C 0 km/h
1044 18-09-2010 16:51:02 16.3 C 5.55 g/m*3 16.3 C 0 km/h
1045 18-09-2010 17:03:02 16.3 C 4.99 g/m*3 16.3 C 0 km/h
1046 18-09-2010 17:15:02 16.4 C 6.14 g/m*3 16.4 C 0 km/h
1047 18-09-2010 17:27:02 16.3 C 5.41 g/m*3 16.3 C 0 km/h
1048 18-09-2010 17:39:02 15.6 C 6.12 g/m*3 15.6 C 0 km/h
1049 18-09-2010 17:51:01 14.7 C 5.92 g/m*3 14.7 C 0 km/h
1050 18-09-2010 18:03:02 14.5 C 6.09 g/m*3 14.5 C 0 km/h
Sensor: Nr:Datum:Temp:Abs-Feuchte:Windchill:Wind:
Aussen-T/F 1051 18-09-2010 18:15:01 15.6 C 5.98 g/m*3 15.6 C 0 km/h
1052 18-09-2010 18:27:01 16.2 C 5.93 g/m*3 16.2 C 0 km/h
1053 18-09-2010 18:39:01 16.2 C 6.07 g/m*3 16.2 C 0 km/h
1054 18-09-2010 18:51:01 15.8 C 6.19 g/m*3 15.8 C 0 km/h
1055 18-09-2010 19:03:02 15.2 C 6.1 g/m*3 15.2 C 0 km/h
1056 18-09-2010 19:15:01 14 C 5.91 g/m*3 14 C 0 km/h
1057 18-09-2010 19:27:01 13 C 6.12 g/m*3 13 C 0 km/h
1058 18-09-2010 19:39:01 12.2 C 6.04 g/m*3 12.2 C 0 km/h
1059 18-09-2010 19:51:01 11.9 C 6.14 g/m*3 11.9 C 0 km/h
1060 18-09-2010 20:03:02 11.4 C 6.36 g/m*3 11.4 C 0 km/h
1061 18-09-2010 20:15:02 11.2 C 6.39 g/m*3 11.2 C 0 km/h
1062 18-09-2010 20:27:02 11.1 C 6.75 g/m*3 11.1 C 0 km/h
1063 18-09-2010 20:39:01 10.9 C 6.76 g/m*3 10.9 C 0 km/h
1064 18-09-2010 20:51:01 10.8 C 6.72 g/m*3 10.8 C 0 km/h
1065 18-09-2010 21:03:01 10.6 C 6.73 g/m*3 10.6 C 0 km/h
1066 18-09-2010 21:15:02 10.2 C 6.66 g/m*3 10.2 C 0 km/h
1067 18-09-2010 21:27:02 10 C 6.48 g/m*3 10 C 0 km/h
1068 18-09-2010 21:39:01 9.7 C 6.64 g/m*3 9.7 C 0 km/h
1069 18-09-2010 21:51:02 9.6 C 6.6 g/m*3 9.6 C 0 km/h
1070 18-09-2010 22:03:02 9.3 C 6.56 g/m*3 9.3 C 0 km/h
1071 18-09-2010 22:15:02 9.2 C 6.61 g/m*3 9.2 C 0 km/h
1072 18-09-2010 22:27:02 9 C 6.7 g/m*3 9 C 0 km/h
1073 18-09-2010 22:40:03 8.8 C 6.79 g/m*3 8.8 C 0 km/h
1074 18-09-2010 22:52:03 8.6 C 6.79 g/m*3 8.6 C 0 km/h
1075 18-09-2010 23:04:03 8.5 C 6.74 g/m*3 8.5 C 0 km/h
Sensor: Nr:Datum:Temp:Abs-Feuchte:Windchill:Wind:
Aussen-T/F 1076 18-09-2010 23:16:03 8.4 C 6.87 g/m*3 8.4 C 0 km/h
1077 18-09-2010 23:28:03 8.2 C 6.78 g/m*3 8.2 C 0 km/h
1078 18-09-2010 23:40:03 8 C 6.7 g/m*3 8 C 0 km/h
1079 18-09-2010 23:52:03 7.9 C 6.74 g/m*3 7.9 C 0 km/h
1080 19-09-2010 00:04:03 7.8 C 6.77 g/m*3 7.8 C 0 km/h
1081 19-09-2010 00:16:03 7.7 C 6.73 g/m*3 7.7 C 0 km/h
1082 19-09-2010 00:28:03 7.6 C 6.77 g/m*3 7.6 C 0 km/h
1083 19-09-2010 00:40:03 7.4 C 6.68 g/m*3 7.4 C 0 km/h
1084 19-09-2010 00:52:03 7.3 C 6.64 g/m*3 7.3 C 0 km/h
1085 19-09-2010 01:04:04 7.1 C 6.47 g/m*3 7.1 C 0 km/h
1086 19-09-2010 01:16:04 7.1 C 6.55 g/m*3 7.1 C 0 km/h
1087 19-09-2010 01:28:04 6.9 C 6.54 g/m*3 6.9 C 0 km/h
1088 19-09-2010 01:40:04 6.8 C 6.58 g/m*3 6.8 C 0 km/h
1089 19-09-2010 01:52:04 6.7 C 6.53 g/m*3 6.7 C 0 km/h
1090 19-09-2010 02:04:04 6.6 C 6.57 g/m*3 6.6 C 0 km/h
1091 19-09-2010 02:16:04 6.4 C 6.48 g/m*3 6.4 C 0 km/h
1092 19-09-2010 02:28:04 6.4 C 6.48 g/m*3 6.4 C 0 km/h
1093 19-09-2010 02:40:04 6.4 C 6.56 g/m*3 6.4 C 0 km/h
1094 19-09-2010 02:52:04 6.4 C 6.56 g/m*3 6.4 C 0 km/h
1095 19-09-2010 03:04:04 6.4 C 6.56 g/m*3 6.4 C 0 km/h
1096 19-09-2010 03:16:04 6.4 C 6.56 g/m*3 6.4 C 0 km/h
1097 19-09-2010 03:28:04 6.4 C 6.56 g/m*3 6.4 C 0 km/h
1098 19-09-2010 03:40:04 6.5 C 6.6 g/m*3 6.5 C 0 km/h
1099 19-09-2010 03:52:04 6.4 C 6.56 g/m*3 6.4 C 0 km/h
1100 19-09-2010 04:04:04 6.3 C 6.51 g/m*3 6.3 C 0 km/h
Sensor: Nr:Datum:Temp:Abs-Feuchte:Windchill:Wind:
Aussen-T/F 1101 19-09-2010 04:16:04 6.1 C 6.43 g/m*3 6.1 C 0 km/h
1102 19-09-2010 04:28:04 5.9 C 6.42 g/m*3 5.9 C 0 km/h
1103 19-09-2010 04:40:04 6.2 C 6.47 g/m*3 6.2 C 0 km/h
1104 19-09-2010 04:52:04 6.5 C 6.67 g/m*3 6.5 C 0 km/h
1105 19-09-2010 05:04:05 6.6 C 6.72 g/m*3 6.6 C 0 km/h
1106 19-09-2010 05:16:05 6.2 C 6.47 g/m*3 6.2 C 0 km/h
1107 19-09-2010 05:28:05 6 C 6.39 g/m*3 6 C 0 km/h
1108 19-09-2010 05:40:05 5.8 C 6.3 g/m*3 5.8 C 0 km/h
1109 19-09-2010 05:52:05 5.6 C 6.22 g/m*3 5.6 C 0 km/h
1110 19-09-2010 06:04:05 5.5 C 6.18 g/m*3 5.5 C 0 km/h
1111 19-09-2010 06:16:05 5.5 C 6.18 g/m*3 5.5 C 0 km/h
1112 19-09-2010 06:28:05 5.7 C 6.33 g/m*3 5.7 C 0 km/h
1113 19-09-2010 06:40:05 6 C 6.46 g/m*3 6 C 0 km/h
1114 19-09-2010 06:52:05 6.1 C 6.5 g/m*3 6.1 C 0 km/h
1115 19-09-2010 07:04:05 6.3 C 6.59 g/m*3 6.3 C 0 km/h
1116 19-09-2010 07:16:05 6.1 C 6.5 g/m*3 6.1 C 0 km/h
1117 19-09-2010 07:28:05 5.8 C 6.38 g/m*3 5.8 C 0 km/h
1118 19-09-2010 07:40:05 5.9 C 6.42 g/m*3 5.9 C 0 km/h
1119 19-09-2010 07:52:05 5.9 C 6.42 g/m*3 5.9 C 0 km/h
1120 19-09-2010 08:04:05 6.2 C 6.47 g/m*3 6.2 C 0 km/h
1121 19-09-2010 08:16:05 6.7 C 6.76 g/m*3 6.7 C 0 km/h
1122 19-09-2010 08:28:05 7.3 C 6.95 g/m*3 7.3 C 0 km/h
1123 19-09-2010 08:40:05 7.4 C 7 g/m*3 7.4 C 0 km/h
1124 19-09-2010 08:52:02 7.2 C 6.75 g/m*3 7.2 C 0 km/h
1125 19-09-2010 09:04:02 7.2 C 6.67 g/m*3 7.2 C 0 km/h
Sensor: Nr:Datum:Temp:Abs-Feuchte:Windchill:Wind:
Aussen-T/F 1126 19-09-2010 09:16:02 7.3 C 6.79 g/m*3 7.3 C 0 km/h
1127 19-09-2010 09:28:02 7.7 C 6.97 g/m*3 7.7 C 0 km/h
1128 19-09-2010 09:40:02 8.8 C 7.31 g/m*3 8.8 C 0 km/h
1129 19-09-2010 09:52:01 9.6 C 7.15 g/m*3 9.6 C 0 km/h
1130 19-09-2010 10:04:01 10.2 C 6.76 g/m*3 10.2 C 0 km/h
1131 19-09-2010 10:16:01 10.9 C 6.86 g/m*3 10.9 C 0 km/h
1132 19-09-2010 10:28:01 10.8 C 6.62 g/m*3 10.8 C 0 km/h
1133 19-09-2010 10:40:01 10.7 C 6.58 g/m*3 10.7 C 0 km/h
1134 19-09-2010 10:52:01 11 C 6.61 g/m*3 11 C 0 km/h
1135 19-09-2010 11:04:01 11.5 C 6.51 g/m*3 11.5 C 0 km/h
1136 19-09-2010 11:16:02 12.2 C 6.58 g/m*3 12.2 C 0 km/h
1137 19-09-2010 11:28:02 13.3 C 6.47 g/m*3 13.3 C 0 km/h
1138 19-09-2010 11:40:01 13.8 C 5.96 g/m*3 13.8 C 0 km/h
1139 19-09-2010 11:52:03 13.8 C 5.72 g/m*3 13.8 C 0 km/h
1140 19-09-2010 12:04:02 13.8 C 5.84 g/m*3 13.8 C 0 km/h
1141 19-09-2010 12:16:02 14.3 C 5.9 g/m*3 14.3 C 0 km/h
1142 19-09-2010 12:28:02 15.2 C 5.84 g/m*3 15.2 C 0 km/h
1143 19-09-2010 12:40:02 15.7 C 5.35 g/m*3 15.7 C 0 km/h
1144 19-09-2010 12:52:02 15.7 C 5.35 g/m*3 15.7 C 0 km/h
1145 19-09-2010 13:04:01 16.2 C 5.52 g/m*3 16.2 C 0 km/h
1146 19-09-2010 13:16:02 16.4 C 5.58 g/m*3 16.4 C 0 km/h
1147 19-09-2010 13:28:02 16.1 C 5.48 g/m*3 16.1 C 0 km/h
1148 19-09-2010 13:40:02 16 C 5.59 g/m*3 16 C 0 km/h
1149 19-09-2010 13:52:01 15.9 C 5.55 g/m*3 15.9 C 0 km/h
1150 19-09-2010 14:04:02 16.5 C 5.62 g/m*3 16.5 C 0 km/h
Sensor: Nr:Datum:Temp:Abs-Feuchte:Windchill:Wind:
Aussen-T/F 1151 19-09-2010 14:16:01 17.5 C 5.67 g/m*3 17.5 C 0 km/h
1152 19-09-2010 14:28:01 17.5 C 5.67 g/m*3 17.5 C 0 km/h
1153 19-09-2010 14:40:01 17.5 C 5.67 g/m*3 17.5 C 0 km/h
1154 19-09-2010 14:52:01 17.9 C 5.8 g/m*3 17.9 C 0 km/h
1155 19-09-2010 15:04:02 17.8 C 5.46 g/m*3 17.8 C 0 km/h
1156 19-09-2010 15:16:01 18.6 C 5.73 g/m*3 18.6 C 0 km/h
1157 19-09-2010 15:28:01 18.4 C 5.66 g/m*3 18.4 C 0 km/h
1158 19-09-2010 15:40:02 19 C 5.38 g/m*3 19 C 0 km/h
1159 19-09-2010 15:52:01 19.3 C 4.98 g/m*3 19.3 C 0 km/h
1160 19-09-2010 16:04:02 18.8 C 5.31 g/m*3 18.8 C 0 km/h
1161 19-09-2010 16:16:01 18.6 C 5.41 g/m*3 18.6 C 0 km/h
1162 19-09-2010 16:28:01 18.8 C 5.31 g/m*3 18.8 C 0 km/h
1163 19-09-2010 16:40:02 19.6 C 5.4 g/m*3 19.6 C 0 km/h
1164 19-09-2010 16:52:01 19.4 C 5.01 g/m*3 19.4 C 0 km/h
1165 19-09-2010 17:04:02 19.8 C 5.3 g/m*3 19.8 C 0 km/h
1166 19-09-2010 17:16:02 19.1 C 5.25 g/m*3 19.1 C 0 km/h
1167 19-09-2010 17:28:02 18.6 C 5.57 g/m*3 18.6 C 0 km/h
1168 19-09-2010 17:40:01 18.4 C 6.29 g/m*3 18.4 C 0 km/h
1169 19-09-2010 17:52:02 18 C 5.99 g/m*3 18 C 0 km/h
1170 19-09-2010 18:04:01 17.6 C 6 g/m*3 17.6 C 0 km/h
1171 19-09-2010 18:16:02 17.2 C 6.3 g/m*3 17.2 C 0 km/h
1172 19-09-2010 18:28:03 17.1 C 5.82 g/m*3 17.1 C 0 km/h
1173 19-09-2010 18:40:01 17 C 6.08 g/m*3 17 C 0 km/h
1174 19-09-2010 18:52:02 16.5 C 5.76 g/m*3 16.5 C 0 km/h
1175 19-09-2010 19:04:02 16.2 C 5.79 g/m*3 16.2 C 0 km/h
Sensor: Nr:Datum:Temp:Abs-Feuchte:Windchill:Wind:
Aussen-T/F 1176 19-09-2010 19:16:02 16 C 5.99 g/m*3 16 C 0 km/h
1177 19-09-2010 19:28:02 15.8 C 5.92 g/m*3 15.8 C 0 km/h
1178 19-09-2010 19:40:03 15.6 C 5.98 g/m*3 15.6 C 0 km/h
1179 19-09-2010 19:52:02 15.3 C 6.14 g/m*3 15.3 C 0 km/h
1180 19-09-2010 20:04:02 14.8 C 6.33 g/m*3 14.8 C 0 km/h
1181 19-09-2010 20:16:02 14.5 C 6.34 g/m*3 14.5 C 0 km/h
1182 19-09-2010 20:28:02 14.3 C 6.27 g/m*3 14.3 C 0 km/h
1183 19-09-2010 20:40:02 14.3 C 6.39 g/m*3 14.3 C 0 km/h
1184 19-09-2010 20:52:02 14.4 C 6.18 g/m*3 14.4 C 0 km/h
1185 19-09-2010 21:04:02 14.4 C 6.43 g/m*3 14.4 C 0 km/h
1186 19-09-2010 21:16:02 14.2 C 6.47 g/m*3 14.2 C 0 km/h
1187 19-09-2010 21:28:02 14 C 6.51 g/m*3 14 C 0 km/h
1188 19-09-2010 21:40:02 13.7 C 6.87 g/m*3 13.7 C 0 km/h
1189 19-09-2010 21:52:03 13.5 C 6.78 g/m*3 13.5 C 0 km/h
1190 19-09-2010 22:04:03 13.4 C 6.74 g/m*3 13.4 C 0 km/h
1191 19-09-2010 22:17:01 13.3 C 6.7 g/m*3 13.3 C 0 km/h
1192 19-09-2010 22:29:01 13.4 C 6.86 g/m*3 13.4 C 0 km/h
1193 19-09-2010 22:41:01 13.3 C 6.82 g/m*3 13.3 C 0 km/h
1194 19-09-2010 22:53:01 13.2 C 6.77 g/m*3 13.2 C 0 km/h
1195 19-09-2010 23:05:01 13 C 6.8 g/m*3 13 C 0 km/h
1196 19-09-2010 23:17:01 12.5 C 6.82 g/m*3 12.5 C 0 km/h
1197 19-09-2010 23:29:01 12.2 C 6.8 g/m*3 12.2 C 0 km/h
1198 19-09-2010 23:41:01 11.9 C 6.67 g/m*3 11.9 C 0 km/h
1199 19-09-2010 23:53:01 11.8 C 6.74 g/m*3 11.8 C 0 km/h
1200 20-09-2010 00:05:01 11.9 C 6.88 g/m*3 11.9 C 0 km/h
Sensor: Nr:Datum:Temp:Abs-Feuchte:Windchill:Wind:
Aussen-T/F 1201 20-09-2010 00:17:01 11.9 C 6.99 g/m*3 11.9 C 0 km/h
1202 20-09-2010 00:29:02 11.9 C 6.88 g/m*3 11.9 C 0 km/h
1203 20-09-2010 00:41:02 11.4 C 6.77 g/m*3 11.4 C 0 km/h
1204 20-09-2010 00:53:02 11.3 C 6.83 g/m*3 11.3 C 0 km/h
1205 20-09-2010 01:05:02 10.8 C 6.72 g/m*3 10.8 C 0 km/h
1206 20-09-2010 01:17:02 10.5 C 6.69 g/m*3 10.5 C 0 km/h
1207 20-09-2010 01:29:02 10.4 C 6.75 g/m*3 10.4 C 0 km/h
1208 20-09-2010 01:41:02 10.2 C 6.85 g/m*3 10.2 C 0 km/h
1209 20-09-2010 01:53:02 10.3 C 6.9 g/m*3 10.3 C 0 km/h
1210 20-09-2010 02:05:02 10.1 C 6.81 g/m*3 10.1 C 0 km/h
1211 20-09-2010 02:17:02 10 C 6.77 g/m*3 10 C 0 km/h
1212 20-09-2010 02:29:02 9.8 C 6.96 g/m*3 9.8 C 0 km/h
1213 20-09-2010 02:41:02 9.6 C 6.87 g/m*3 9.6 C 0 km/h
1214 20-09-2010 02:53:02 9.7 C 7.01 g/m*3 9.7 C 0 km/h
1215 20-09-2010 03:05:02 9.8 C 6.96 g/m*3 9.8 C 0 km/h
1216 20-09-2010 03:17:02 9.6 C 6.96 g/m*3 9.6 C 0 km/h
1217 20-09-2010 03:29:02 9.7 C 7.1 g/m*3 9.7 C 0 km/h
1218 20-09-2010 03:41:02 9.7 C 7.1 g/m*3 9.7 C 0 km/h
1219 20-09-2010 03:53:02 9.4 C 6.96 g/m*3 9.4 C 0 km/h
1220 20-09-2010 04:05:02 9.3 C 6.92 g/m*3 9.3 C 0 km/h
1221 20-09-2010 04:17:02 9.2 C 6.88 g/m*3 9.2 C 0 km/h
1222 20-09-2010 04:29:02 9 C 6.88 g/m*3 9 C 0 km/h
1223 20-09-2010 04:41:03 8.8 C 6.88 g/m*3 8.8 C 0 km/h
1224 20-09-2010 04:53:03 8.6 C 6.87 g/m*3 8.6 C 0 km/h
1225 20-09-2010 05:05:03 8.4 C 6.87 g/m*3 8.4 C 0 km/h
Sensor: Nr:Datum:Temp:Abs-Feuchte:Windchill:Wind:
Aussen-T/F 1226 20-09-2010 05:17:03 8.4 C 6.87 g/m*3 8.4 C 0 km/h
1227 20-09-2010 05:29:03 8.3 C 6.91 g/m*3 8.3 C 0 km/h
1228 20-09-2010 05:41:03 8.2 C 6.87 g/m*3 8.2 C 0 km/h
1229 20-09-2010 05:53:03 8.3 C 6.91 g/m*3 8.3 C 0 km/h
1230 20-09-2010 06:05:03 8.3 C 6.91 g/m*3 8.3 C 0 km/h
1231 20-09-2010 06:17:03 8.4 C 7.04 g/m*3 8.4 C 0 km/h
1232 20-09-2010 06:29:03 8.5 C 7 g/m*3 8.5 C 0 km/h
1233 20-09-2010 06:41:03 8.5 C 7 g/m*3 8.5 C 0 km/h
1234 20-09-2010 06:53:03 8.7 C 7.18 g/m*3 8.7 C 0 km/h
1235 20-09-2010 07:05:01 8.6 C 7.13 g/m*3 8.6 C 0 km/h
1236 20-09-2010 07:17:02 8.4 C 7.04 g/m*3 8.4 C 0 km/h
1237 20-09-2010 07:29:02 8.5 C 7.09 g/m*3 8.5 C 0 km/h
1238 20-09-2010 07:41:01 8.5 C 7.09 g/m*3 8.5 C 0 km/h
1239 20-09-2010 07:53:02 8.6 C 7.13 g/m*3 8.6 C 0 km/h
1240 20-09-2010 08:05:02 9 C 7.14 g/m*3 9 C 0 km/h
1241 20-09-2010 08:17:02 9.2 C 6.97 g/m*3 9.2 C 0 km/h
1242 20-09-2010 08:29:02 9.2 C 6.79 g/m*3 9.2 C 0 km/h
1243 20-09-2010 08:41:02 9.3 C 6.74 g/m*3 9.3 C 0 km/h
1244 20-09-2010 08:53:01 9.2 C 6.7 g/m*3 9.2 C 0 km/h
1245 20-09-2010 09:05:02 9.3 C 6.83 g/m*3 9.3 C 0 km/h
1246 20-09-2010 09:17:01 9.6 C 6.87 g/m*3 9.6 C 0 km/h
1247 20-09-2010 09:29:01 9.7 C 6.82 g/m*3 9.7 C 0 km/h
1248 20-09-2010 09:41:01 10 C 6.95 g/m*3 10 C 0 km/h
1249 20-09-2010 09:53:01 10.6 C 7.12 g/m*3 10.6 C 0 km/h
1250 20-09-2010 10:05:02 11.4 C 7.29 g/m*3 11.4 C 0 km/h
Sensor: Nr:Datum:Temp:Abs-Feuchte:Windchill:Wind:
Aussen-T/F 1251 20-09-2010 10:17:02 12.1 C 7.18 g/m*3 12.1 C 0 km/h
1252 20-09-2010 10:29:02 12.4 C 7.1 g/m*3 12.4 C 0 km/h
1253 20-09-2010 10:41:01 12.9 C 7.33 g/m*3 12.9 C 0 km/h
1254 20-09-2010 10:53:01 13.2 C 7.12 g/m*3 13.2 C 0 km/h
1255 20-09-2010 11:05:01 13.3 C 7.39 g/m*3 13.3 C 0 km/h
1256 20-09-2010 11:17:02 13.8 C 7.15 g/m*3 13.8 C 0 km/h
1257 20-09-2010 11:29:02 14.8 C 6.84 g/m*3 14.8 C 0 km/h
1258 20-09-2010 11:41:01 15.3 C 6.66 g/m*3 15.3 C 0 km/h
1259 20-09-2010 11:53:02 15.9 C 6.77 g/m*3 15.9 C 0 km/h
1260 20-09-2010 12:05:02 16.1 C 6.31 g/m*3 16.1 C 0 km/h
1261 20-09-2010 12:17:02 15.9 C 6.5 g/m*3 15.9 C 0 km/h
1262 20-09-2010 12:29:03 16.1 C 6.31 g/m*3 16.1 C 0 km/h
1263 20-09-2010 12:41:02 16.4 C 6.42 g/m*3 16.4 C 0 km/h
1264 20-09-2010 12:53:02 16.8 C 6.15 g/m*3 16.8 C 0 km/h
1265 20-09-2010 13:05:01 17.1 C 6.11 g/m*3 17.1 C 0 km/h
1266 20-09-2010 13:17:02 17.5 C 6.26 g/m*3 17.5 C 0 km/h
1267 20-09-2010 13:29:02 18.1 C 6.33 g/m*3 18.1 C 0 km/h
1268 20-09-2010 13:41:02 18.5 C 6.01 g/m*3 18.5 C 0 km/h
1269 20-09-2010 13:53:02 18.9 C 5.83 g/m*3 18.9 C 0 km/h
1270 20-09-2010 14:05:03 19.5 C 6.04 g/m*3 19.5 C 0 km/h
1271 20-09-2010 14:17:02 19.7 C 5.94 g/m*3 19.7 C 0 km/h
1272 20-09-2010 14:29:02 20.1 C 5.91 g/m*3 20.1 C 0 km/h
1273 20-09-2010 14:41:02 20.5 C 5.69 g/m*3 20.5 C 0 km/h
1274 20-09-2010 14:53:01 20.3 C 5.45 g/m*3 20.3 C 0 km/h
1275 20-09-2010 15:05:02 20.8 C 5.79 g/m*3 20.8 C 0 km/h
Sensor: Nr:Datum:Temp:Abs-Feuchte:Windchill:Wind:
Aussen-T/F 1276 20-09-2010 15:17:01 21.4 C 5.81 g/m*3 21.4 C 0 km/h
1277 20-09-2010 15:29:01 21.5 C 5.85 g/m*3 21.5 C 0 km/h
1278 20-09-2010 15:41:01 21.6 C 5.88 g/m*3 21.6 C 0 km/h
1279 20-09-2010 15:53:01 21.8 C 5.95 g/m*3 21.8 C 0 km/h
1280 20-09-2010 16:05:01 22.2 C 6.48 g/m*3 22.2 C 0 km/h
1281 20-09-2010 16:17:02 22.6 C 6.23 g/m*3 22.6 C 0 km/h
1282 20-09-2010 16:29:02 22.8 C 6.1 g/m*3 22.8 C 0 km/h
1283 20-09-2010 16:41:01 22.6 C 6.23 g/m*3 22.6 C 0 km/h
1284 20-09-2010 16:53:01 22.1 C 6.05 g/m*3 22.1 C 0 km/h
1285 20-09-2010 17:05:01 22.2 C 6.28 g/m*3 22.2 C 0 km/h
1286 20-09-2010 17:17:02 22.1 C 5.86 g/m*3 22.1 C 0 km/h
1287 20-09-2010 17:29:02 22.3 C 6.32 g/m*3 22.3 C 0 km/h
1288 20-09-2010 17:41:01 22.1 C 5.86 g/m*3 22.1 C 0 km/h
1289 20-09-2010 17:53:02 22.7 C 6.26 g/m*3 22.7 C 0 km/h
1290 20-09-2010 18:05:02 22.7 C 6.47 g/m*3 22.7 C 0 km/h
1291 20-09-2010 18:17:02 22.2 C 6.28 g/m*3 22.2 C 0 km/h
1292 20-09-2010 18:29:02 21.6 C 6.64 g/m*3 21.6 C 0 km/h
1293 20-09-2010 18:41:02 20.6 C 6.8 g/m*3 20.6 C 0 km/h
1294 20-09-2010 18:53:02 19.4 C 7.01 g/m*3 19.4 C 0 km/h
1295 20-09-2010 19:05:01 18.9 C 6.97 g/m*3 18.9 C 0 km/h
1296 20-09-2010 19:17:01 18.1 C 7.11 g/m*3 18.1 C 0 km/h
1297 20-09-2010 19:29:01 17.5 C 7.31 g/m*3 17.5 C 0 km/h
1298 20-09-2010 19:41:02 16.8 C 7.29 g/m*3 16.8 C 0 km/h
1299 20-09-2010 19:53:02 16.2 C 7.17 g/m*3 16.2 C 0 km/h
1300 20-09-2010 20:05:02 15.9 C 7.31 g/m*3 15.9 C 0 km/h
Sensor: Nr:Datum:Temp:Abs-Feuchte:Windchill:Wind:
Aussen-T/F 1301 20-09-2010 20:17:02 15.6 C 7.45 g/m*3 15.6 C 0 km/h
1302 20-09-2010 20:29:02 15.3 C 7.57 g/m*3 15.3 C 0 km/h
1303 20-09-2010 20:41:02 15.1 C 7.74 g/m*3 15.1 C 0 km/h
1304 20-09-2010 20:53:02 14.8 C 7.6 g/m*3 14.8 C 0 km/h
1305 20-09-2010 21:05:02 14.7 C 7.68 g/m*3 14.7 C 0 km/h
1306 20-09-2010 21:17:02 14.4 C 7.66 g/m*3 14.4 C 0 km/h
1307 20-09-2010 21:29:02 14.2 C 7.69 g/m*3 14.2 C 0 km/h
1308 20-09-2010 21:41:02 14 C 7.72 g/m*3 14 C 0 km/h
1309 20-09-2010 21:53:02 13.7 C 7.82 g/m*3 13.7 C 0 km/h
1310 20-09-2010 22:06:02 13.6 C 8 g/m*3 13.6 C 0 km/h
1311 20-09-2010 22:18:02 13.5 C 7.95 g/m*3 13.5 C 0 km/h
1312 20-09-2010 22:30:02 13.5 C 8.07 g/m*3 13.5 C 0 km/h
1313 20-09-2010 22:42:02 12.9 C 8.11 g/m*3 12.9 C 0 km/h
1314 20-09-2010 22:54:02 12.6 C 8.19 g/m*3 12.6 C 0 km/h
1315 20-09-2010 23:06:02 12.6 C 8.19 g/m*3 12.6 C 0 km/h
1316 20-09-2010 23:18:02 12.5 C 8.14 g/m*3 12.5 C 0 km/h
1317 20-09-2010 23:30:02 12.3 C 8.04 g/m*3 12.3 C 0 km/h
1318 20-09-2010 23:42:02 12.1 C 7.94 g/m*3 12.1 C 0 km/h
1319 20-09-2010 23:54:02 11.9 C 7.94 g/m*3 11.9 C 0 km/h
1320 21-09-2010 00:06:03 11.8 C 7.89 g/m*3 11.8 C 0 km/h
1321 21-09-2010 00:18:03 11.6 C 7.9 g/m*3 11.6 C 0 km/h
1322 21-09-2010 00:30:03 11.5 C 7.85 g/m*3 11.5 C 0 km/h
1323 21-09-2010 00:42:03 11.4 C 7.9 g/m*3 11.4 C 0 km/h
1324 21-09-2010 00:54:03 11.3 C 7.85 g/m*3 11.3 C 0 km/h
1325 21-09-2010 01:06:03 11.2 C 7.8 g/m*3 11.2 C 0 km/h
Sensor: Nr:Datum:Temp:Abs-Feuchte:Windchill:Wind:
Aussen-T/F 1326 21-09-2010 01:18:03 11.1 C 7.86 g/m*3 11.1 C 0 km/h
1327 21-09-2010 01:30:03 10.9 C 7.86 g/m*3 10.9 C 0 km/h
1328 21-09-2010 01:42:03 10.8 C 7.81 g/m*3 10.8 C 0 km/h
1329 21-09-2010 01:54:03 10.5 C 7.66 g/m*3 10.5 C 0 km/h
1330 21-09-2010 02:06:03 10.4 C 7.71 g/m*3 10.4 C 0 km/h
1331 21-09-2010 02:18:03 10.4 C 7.71 g/m*3 10.4 C 0 km/h
1332 21-09-2010 02:30:03 10.3 C 7.76 g/m*3 10.3 C 0 km/h
1333 21-09-2010 02:42:03 10.1 C 7.66 g/m*3 10.1 C 0 km/h
1334 21-09-2010 02:54:03 10 C 7.61 g/m*3 10 C 0 km/h
1335 21-09-2010 03:06:03 10 C 7.71 g/m*3 10 C 0 km/h
1336 21-09-2010 03:18:03 9.9 C 7.75 g/m*3 9.9 C 0 km/h
1337 21-09-2010 03:30:03 9.8 C 7.79 g/m*3 9.8 C 0 km/h
1338 21-09-2010 03:42:03 9.5 C 7.65 g/m*3 9.5 C 0 km/h
1339 21-09-2010 03:54:03 9.5 C 7.65 g/m*3 9.5 C 0 km/h
1340 21-09-2010 04:06:04 9.4 C 7.6 g/m*3 9.4 C 0 km/h
1341 21-09-2010 04:18:04 9.3 C 7.55 g/m*3 9.3 C 0 km/h
1342 21-09-2010 04:30:04 9.2 C 7.5 g/m*3 9.2 C 0 km/h
1343 21-09-2010 04:42:04 9.2 C 7.5 g/m*3 9.2 C 0 km/h
1344 21-09-2010 04:54:04 9 C 7.41 g/m*3 9 C 0 km/h
1345 21-09-2010 05:06:04 9 C 7.49 g/m*3 9 C 0 km/h
1346 21-09-2010 05:18:04 8.8 C 7.49 g/m*3 8.8 C 0 km/h
1347 21-09-2010 05:30:04 8.8 C 7.49 g/m*3 8.8 C 0 km/h
1348 21-09-2010 05:42:04 8.7 C 7.44 g/m*3 8.7 C 0 km/h
1349 21-09-2010 05:54:04 8.6 C 7.39 g/m*3 8.6 C 0 km/h
1350 21-09-2010 06:06:04 8.5 C 7.43 g/m*3 8.5 C 0 km/h
Sensor: Nr:Datum:Temp:Abs-Feuchte:Windchill:Wind:
Aussen-T/F 1351 21-09-2010 06:18:04 8.4 C 7.38 g/m*3 8.4 C 0 km/h
1352 21-09-2010 06:30:04 8.3 C 7.33 g/m*3 8.3 C 0 km/h
1353 21-09-2010 06:42:04 8.2 C 7.29 g/m*3 8.2 C 0 km/h
1354 21-09-2010 06:54:04 8.3 C 7.42 g/m*3 8.3 C 0 km/h
1355 21-09-2010 07:06:02 8.2 C 7.37 g/m*3 8.2 C 0 km/h
1356 21-09-2010 07:18:02 8.2 C 7.37 g/m*3 8.2 C 0 km/h
1357 21-09-2010 07:30:02 8.1 C 7.32 g/m*3 8.1 C 0 km/h
1358 21-09-2010 07:42:03 8.1 C 7.32 g/m*3 8.1 C 0 km/h
1359 21-09-2010 07:54:02 8.1 C 7.32 g/m*3 8.1 C 0 km/h
1360 21-09-2010 08:06:01 8 C 7.36 g/m*3 8 C 0 km/h
1361 21-09-2010 08:18:02 8.1 C 7.41 g/m*3 8.1 C 0 km/h
1362 21-09-2010 08:30:02 8.2 C 7.54 g/m*3 8.2 C 0 km/h
1363 21-09-2010 08:42:02 8.4 C 7.63 g/m*3 8.4 C 0 km/h
1364 21-09-2010 08:54:02 8.6 C 7.73 g/m*3 8.6 C 0 km/h
1365 21-09-2010 09:06:02 8.7 C 7.78 g/m*3 8.7 C 0 km/h
1366 21-09-2010 09:18:02 8.9 C 7.88 g/m*3 8.9 C 0 km/h
1367 21-09-2010 09:30:02 9.3 C 8 g/m*3 9.3 C 0 km/h
1368 21-09-2010 09:42:02 9.5 C 8.1 g/m*3 9.5 C 0 km/h
1369 21-09-2010 09:54:01 9.5 C 8.1 g/m*3 9.5 C 0 km/h
1370 21-09-2010 10:06:02 9.9 C 8.31 g/m*3 9.9 C 0 km/h
1371 21-09-2010 10:18:01 10.5 C 8.53 g/m*3 10.5 C 0 km/h
1372 21-09-2010 10:30:01 11.1 C 8.76 g/m*3 11.1 C 0 km/h
1373 21-09-2010 10:42:01 11.7 C 8.99 g/m*3 11.7 C 0 km/h
1374 21-09-2010 10:54:01 12.4 C 8.96 g/m*3 12.4 C 0 km/h
1375 21-09-2010 11:06:01 13 C 8.51 g/m*3 13 C 0 km/h
Sensor: Nr:Datum:Temp:Abs-Feuchte:Windchill:Wind:
Aussen-T/F 1376 21-09-2010 11:18:02 13.6 C 8.59 g/m*3 13.6 C 0 km/h
1377 21-09-2010 11:30:02 14 C 8.56 g/m*3 14 C 0 km/h
1378 21-09-2010 11:42:01 14.7 C 8.81 g/m*3 14.7 C 0 km/h
1379 21-09-2010 11:54:03 15.3 C 8.75 g/m*3 15.3 C 0 km/h
1380 21-09-2010 12:06:02 15.8 C 8.75 g/m*3 15.8 C 0 km/h
1381 21-09-2010 12:18:02 16.5 C 8.85 g/m*3 16.5 C 0 km/h
1382 21-09-2010 12:30:03 16.5 C 9.13 g/m*3 16.5 C 0 km/h
1383 21-09-2010 12:42:02 16 C 8.86 g/m*3 16 C 0 km/h
1384 21-09-2010 12:54:02 15.9 C 9.34 g/m*3 15.9 C 0 km/h
1385 21-09-2010 13:06:02 16.4 C 9.77 g/m*3 16.4 C 0 km/h
1386 21-09-2010 13:18:02 16.6 C 9.46 g/m*3 16.6 C 0 km/h
1387 21-09-2010 13:30:02 16.8 C 9.72 g/m*3 16.8 C 0 km/h
1388 21-09-2010 13:42:02 17.3 C 9.87 g/m*3 17.3 C 0 km/h
1389 21-09-2010 13:54:02 18 C 9.37 g/m*3 18 C 0 km/h
1390 21-09-2010 14:06:02 17.5 C 9.54 g/m*3 17.5 C 0 km/h
1391 21-09-2010 14:18:01 17.4 C 9.63 g/m*3 17.4 C 0 km/h
1392 21-09-2010 14:30:01 17.2 C 9.52 g/m*3 17.2 C 0 km/h
1393 21-09-2010 14:42:02 17.5 C 9.54 g/m*3 17.5 C 0 km/h
1394 21-09-2010 14:54:02 19.5 C 9.06 g/m*3 19.5 C 0 km/h
1395 21-09-2010 15:06:02 21.3 C 8.76 g/m*3 21.3 C 0 km/h
1396 21-09-2010 15:18:02 22.6 C 8.44 g/m*3 22.6 C 0 km/h
1397 21-09-2010 15:30:02 23.3 C 7.95 g/m*3 23.3 C 0 km/h
1398 21-09-2010 15:42:02 23.9 C 7.79 g/m*3 23.9 C 0 km/h
1399 21-09-2010 15:54:02 24.5 C 7.83 g/m*3 24.5 C 0 km/h
1400 21-09-2010 16:06:02 25 C 7.6 g/m*3 25 C 0 km/h
Sensor: Nr:Datum:Temp:Abs-Feuchte:Windchill:Wind:
Aussen-T/F 1401 21-09-2010 16:18:02 25.2 C 7.45 g/m*3 25.2 C 0 km/h
1402 21-09-2010 16:30:02 25.2 C 7.68 g/m*3 25.2 C 0 km/h
1403 21-09-2010 16:42:02 25.1 C 7.87 g/m*3 25.1 C 0 km/h
1404 21-09-2010 16:54:02 25.3 C 7.49 g/m*3 25.3 C 0 km/h
1405 21-09-2010 17:06:02 25.4 C 7.53 g/m*3 25.4 C 0 km/h
1406 21-09-2010 17:18:02 25.5 C 7.81 g/m*3 25.5 C 0 km/h
1407 21-09-2010 17:30:02 24.5 C 7.39 g/m*3 24.5 C 0 km/h
1408 21-09-2010 17:42:02 24.1 C 7.44 g/m*3 24.1 C 0 km/h
1409 21-09-2010 17:54:02 23.5 C 7.61 g/m*3 23.5 C 0 km/h
1410 21-09-2010 18:06:02 23.2 C 7.69 g/m*3 23.2 C 0 km/h
1411 21-09-2010 18:18:02 22.7 C 7.88 g/m*3 22.7 C 0 km/h
1412 21-09-2010 18:30:02 22.2 C 7.85 g/m*3 22.2 C 0 km/h
1413 21-09-2010 18:42:02 21.7 C 8.01 g/m*3 21.7 C 0 km/h
1414 21-09-2010 18:54:02 21.1 C 7.92 g/m*3 21.1 C 0 km/h
1415 21-09-2010 19:06:01 20.2 C 8.04 g/m*3 20.2 C 0 km/h
1416 21-09-2010 19:18:02 19.5 C 8.22 g/m*3 19.5 C 0 km/h
1417 21-09-2010 19:30:02 18.5 C 8.39 g/m*3 18.5 C 0 km/h
1418 21-09-2010 19:42:02 17.8 C 8.5 g/m*3 17.8 C 0 km/h
1419 21-09-2010 19:54:02 17.2 C 8.49 g/m*3 17.2 C 0 km/h
1420 21-09-2010 20:06:03 16.8 C 8.58 g/m*3 16.8 C 0 km/h
1421 21-09-2010 20:18:02 16.5 C 8.43 g/m*3 16.5 C 0 km/h
1422 21-09-2010 20:30:02 16.3 C 8.46 g/m*3 16.3 C 0 km/h
1423 21-09-2010 20:42:02 16.1 C 8.5 g/m*3 16.1 C 0 km/h
1424 21-09-2010 20:54:02 15.8 C 8.62 g/m*3 15.8 C 0 km/h
1425 21-09-2010 21:06:02 15.6 C 8.51 g/m*3 15.6 C 0 km/h
Sensor: Nr:Datum:Temp:Abs-Feuchte:Windchill:Wind:
Aussen-T/F 1426 21-09-2010 21:18:01 15.4 C 8.41 g/m*3 15.4 C 0 km/h
1427 21-09-2010 21:30:01 15.1 C 8.51 g/m*3 15.1 C 0 km/h
1428 21-09-2010 21:42:02 14.7 C 8.56 g/m*3 14.7 C 0 km/h
1429 21-09-2010 21:54:02 14.5 C 8.46 g/m*3 14.5 C 0 km/h
1430 21-09-2010 22:06:02 14.4 C 8.53 g/m*3 14.4 C 0 km/h
1431 21-09-2010 22:18:01 14.1 C 8.5 g/m*3 14.1 C 0 km/h
1432 21-09-2010 22:30:01 13.9 C 8.51 g/m*3 13.9 C 0 km/h
1433 21-09-2010 22:42:01 13.6 C 8.47 g/m*3 13.6 C 0 km/h
1434 21-09-2010 22:54:01 13.5 C 8.54 g/m*3 13.5 C 0 km/h
1435 21-09-2010 23:06:01 13.2 C 8.38 g/m*3 13.2 C 0 km/h
1436 21-09-2010 23:18:01 13.1 C 8.44 g/m*3 13.1 C 0 km/h
1437 21-09-2010 23:30:01 13 C 8.51 g/m*3 13 C 0 km/h
1438 21-09-2010 23:42:01 12.9 C 8.68 g/m*3 12.9 C 0 km/h
1439 21-09-2010 23:54:01 12.7 C 8.68 g/m*3 12.7 C 0 km/h
1440 22-09-2010 00:06:01 12.5 C 8.69 g/m*3 12.5 C 0 km/h
1441 22-09-2010 00:18:01 12.3 C 8.58 g/m*3 12.3 C 0 km/h
1442 22-09-2010 00:30:01 12.2 C 8.52 g/m*3 12.2 C 0 km/h
1443 22-09-2010 00:42:01 12.1 C 8.47 g/m*3 12.1 C 0 km/h
1444 22-09-2010 00:54:01 11.9 C 8.47 g/m*3 11.9 C 0 km/h
1445 22-09-2010 01:06:02 11.8 C 8.53 g/m*3 11.8 C 0 km/h
1446 22-09-2010 01:18:02 11.6 C 8.42 g/m*3 11.6 C 0 km/h
1447 22-09-2010 01:30:02 11.5 C 8.47 g/m*3 11.5 C 0 km/h
1448 22-09-2010 01:42:02 11.3 C 8.26 g/m*3 11.3 C 0 km/h
1449 22-09-2010 01:54:02 11.3 C 8.36 g/m*3 11.3 C 0 km/h
1450 22-09-2010 02:06:02 11 C 8.21 g/m*3 11 C 0 km/h
Sensor: Nr:Datum:Temp:Abs-Feuchte:Windchill:Wind:
Aussen-T/F 1451 22-09-2010 02:18:02 10.9 C 8.16 g/m*3 10.9 C 0 km/h
1452 22-09-2010 02:30:02 10.8 C 8.2 g/m*3 10.8 C 0 km/h
1453 22-09-2010 02:42:02 10.7 C 8.15 g/m*3 10.7 C 0 km/h
1454 22-09-2010 02:54:02 10.5 C 8.05 g/m*3 10.5 C 0 km/h
1455 22-09-2010 03:06:02 10.4 C 8 g/m*3 10.4 C 0 km/h
1456 22-09-2010 03:18:02 10.4 C 8 g/m*3 10.4 C 0 km/h
1457 22-09-2010 03:30:02 10.3 C 8.04 g/m*3 10.3 C 0 km/h
1458 22-09-2010 03:42:02 10.1 C 7.94 g/m*3 10.1 C 0 km/h
1459 22-09-2010 03:54:02 9.9 C 8.03 g/m*3 9.9 C 0 km/h
1460 22-09-2010 04:06:02 9.9 C 8.03 g/m*3 9.9 C 0 km/h
1461 22-09-2010 04:18:02 9.7 C 7.93 g/m*3 9.7 C 0 km/h
1462 22-09-2010 04:30:02 9.6 C 7.79 g/m*3 9.6 C 0 km/h
1463 22-09-2010 04:42:02 9.6 C 7.88 g/m*3 9.6 C 0 km/h
1464 22-09-2010 04:54:02 9.8 C 8.07 g/m*3 9.8 C 0 km/h
1465 22-09-2010 05:06:02 9.8 C 8.07 g/m*3 9.8 C 0 km/h
1466 22-09-2010 05:18:02 9.9 C 8.22 g/m*3 9.9 C 0 km/h
1467 22-09-2010 05:30:03 9.9 C 8.22 g/m*3 9.9 C 0 km/h
1468 22-09-2010 05:42:03 9.9 C 8.22 g/m*3 9.9 C 0 km/h
1469 22-09-2010 05:54:03 9.7 C 8.02 g/m*3 9.7 C 0 km/h
1470 22-09-2010 06:06:03 9.8 C 8.16 g/m*3 9.8 C 0 km/h
1471 22-09-2010 06:18:03 9.8 C 8.16 g/m*3 9.8 C 0 km/h
1472 22-09-2010 06:30:03 9.8 C 8.16 g/m*3 9.8 C 0 km/h
1473 22-09-2010 06:42:03 9.7 C 8.11 g/m*3 9.7 C 0 km/h
1474 22-09-2010 06:54:03 9.8 C 8.16 g/m*3 9.8 C 0 km/h
1475 22-09-2010 07:06:01 9.8 C 8.16 g/m*3 9.8 C 0 km/h
Sensor: Nr:Datum:Temp:Abs-Feuchte:Windchill:Wind:
Aussen-T/F 1476 22-09-2010 07:18:02 9.8 C 8.16 g/m*3 9.8 C 0 km/h
1477 22-09-2010 07:30:02 9.6 C 8.06 g/m*3 9.6 C 0 km/h
1478 22-09-2010 07:42:01 9.3 C 7.91 g/m*3 9.3 C 0 km/h
1479 22-09-2010 07:54:01 9.3 C 7.91 g/m*3 9.3 C 0 km/h
1480 22-09-2010 08:06:01 9.3 C 7.91 g/m*3 9.3 C 0 km/h
1481 22-09-2010 08:18:02 9.3 C 7.91 g/m*3 9.3 C 0 km/h
1482 22-09-2010 08:30:02 9.6 C 8.15 g/m*3 9.6 C 0 km/h
1483 22-09-2010 08:42:01 9.3 C 7.91 g/m*3 9.3 C 0 km/h
1484 22-09-2010 08:54:02 9.3 C 7.91 g/m*3 9.3 C 0 km/h
1485 22-09-2010 09:06:01 9.6 C 8.06 g/m*3 9.6 C 0 km/h
1486 22-09-2010 09:18:02 9.8 C 8.16 g/m*3 9.8 C 0 km/h
1487 22-09-2010 09:30:02 10.2 C 8.09 g/m*3 10.2 C 0 km/h
1488 22-09-2010 09:42:01 10.3 C 8.04 g/m*3 10.3 C 0 km/h
1489 22-09-2010 09:54:02 11 C 8.41 g/m*3 11 C 0 km/h
1490 22-09-2010 10:06:01 11.8 C 8.63 g/m*3 11.8 C 0 km/h
1491 22-09-2010 10:18:01 12.4 C 8.74 g/m*3 12.4 C 0 km/h
1492 22-09-2010 10:30:01 12 C 8.31 g/m*3 12 C 0 km/h
1493 22-09-2010 10:42:02 12.7 C 8.79 g/m*3 12.7 C 0 km/h
1494 22-09-2010 10:54:01 13.2 C 8.73 g/m*3 13.2 C 0 km/h
1495 22-09-2010 11:06:02 12.9 C 8.68 g/m*3 12.9 C 0 km/h
1496 22-09-2010 11:18:01 13.1 C 8.9 g/m*3 13.1 C 0 km/h
1497 22-09-2010 11:30:01 13.6 C 9.3 g/m*3 13.6 C 0 km/h
1498 22-09-2010 11:42:02 14.2 C 9.52 g/m*3 14.2 C 0 km/h
1499 22-09-2010 11:54:01 15.1 C 9.55 g/m*3 15.1 C 0 km/h
1500 22-09-2010 12:06:02 15.6 C 9.71 g/m*3 15.6 C 0 km/h
Sensor: Nr:Datum:Temp:Abs-Feuchte:Windchill:Wind:
Aussen-T/F 1501 22-09-2010 12:18:01 16 C 9.67 g/m*3 16 C 0 km/h
1502 22-09-2010 12:30:01 16.5 C 9.97 g/m*3 16.5 C 0 km/h
1503 22-09-2010 12:42:01 17.1 C 10.19 g/m*3 17.1 C 0 km/h
1504 22-09-2010 12:54:01 17.5 C 10.29 g/m*3 17.5 C 0 km/h
1505 22-09-2010 13:06:01 18.4 C 9.91 g/m*3 18.4 C 0 km/h
1506 22-09-2010 13:18:02 19.1 C 9.84 g/m*3 19.1 C 0 km/h
1507 22-09-2010 13:30:02 19.7 C 10.19 g/m*3 19.7 C 0 km/h
1508 22-09-2010 13:42:01 20.4 C 10.26 g/m*3 20.4 C 0 km/h
1509 22-09-2010 13:54:01 21.2 C 10.19 g/m*3 21.2 C 0 km/h
1510 22-09-2010 14:06:01 21.8 C 10.36 g/m*3 21.8 C 0 km/h
1511 22-09-2010 14:18:02 22.2 C 10.01 g/m*3 22.2 C 0 km/h
1512 22-09-2010 14:30:02 22.9 C 10.22 g/m*3 22.9 C 0 km/h
1513 22-09-2010 14:42:01 23.4 C 9.88 g/m*3 23.4 C 0 km/h
1514 22-09-2010 14:54:02 24 C 9.79 g/m*3 24 C 0 km/h
1515 22-09-2010 15:06:01 24.2 C 9.9 g/m*3 24.2 C 0 km/h
1516 22-09-2010 15:18:01 24.1 C 9.63 g/m*3 24.1 C 0 km/h
1517 22-09-2010 15:30:01 24.9 C 9.61 g/m*3 24.9 C 0 km/h
1518 22-09-2010 15:42:01 25.6 C 8.81 g/m*3 25.6 C 0 km/h
1519 22-09-2010 15:54:01 26.5 C 8.26 g/m*3 26.5 C 0 km/h
1520 22-09-2010 16:06:01 26.9 C 8.7 g/m*3 26.9 C 0 km/h
1521 22-09-2010 16:18:01 27.1 C 8.8 g/m*3 27.1 C 0 km/h
1522 22-09-2010 16:30:01 27.4 C 8.68 g/m*3 27.4 C 0 km/h
1523 22-09-2010 16:42:02 27.6 C 8.51 g/m*3 27.6 C 0 km/h
1524 22-09-2010 16:54:01 27.6 C 8.25 g/m*3 27.6 C 0 km/h
1525 22-09-2010 17:06:02 27.3 C 7.85 g/m*3 27.3 C 0 km/h
Sensor: Nr:Datum:Temp:Abs-Feuchte:Windchill:Wind:
Aussen-T/F 1526 22-09-2010 17:18:01 27.4 C 8.16 g/m*3 27.4 C 0 km/h
1527 22-09-2010 17:30:01 27.2 C 8.07 g/m*3 27.2 C 0 km/h
1528 22-09-2010 17:42:01 26.9 C 7.93 g/m*3 26.9 C 0 km/h
1529 22-09-2010 17:54:01 26.5 C 8.76 g/m*3 26.5 C 0 km/h
1530 22-09-2010 18:06:02 26.1 C 8.81 g/m*3 26.1 C 0 km/h
1531 22-09-2010 18:18:01 25.6 C 9.05 g/m*3 25.6 C 0 km/h
1532 22-09-2010 18:30:01 25.3 C 9.36 g/m*3 25.3 C 0 km/h
1533 22-09-2010 18:42:01 24.1 C 8.97 g/m*3 24.1 C 0 km/h
1534 22-09-2010 18:54:01 23.3 C 9.2 g/m*3 23.3 C 0 km/h
1535 22-09-2010 19:06:01 22.5 C 9.19 g/m*3 22.5 C 0 km/h
1536 22-09-2010 19:18:02 21.8 C 9.4 g/m*3 21.8 C 0 km/h
1537 22-09-2010 19:30:02 20.6 C 9.31 g/m*3 20.6 C 0 km/h
1538 22-09-2010 19:42:01 20 C 8.99 g/m*3 20 C 0 km/h
1539 22-09-2010 19:54:01 19.5 C 9.06 g/m*3 19.5 C 0 km/h
1540 22-09-2010 20:06:01 19 C 9.13 g/m*3 19 C 0 km/h
1541 22-09-2010 20:18:02 18.7 C 9.13 g/m*3 18.7 C 0 km/h
1542 22-09-2010 20:30:02 18.5 C 9.02 g/m*3 18.5 C 0 km/h
1543 22-09-2010 20:42:01 18.4 C 9.12 g/m*3 18.4 C 0 km/h
1544 22-09-2010 20:54:02 18.1 C 9.12 g/m*3 18.1 C 0 km/h
1545 22-09-2010 21:06:01 17.9 C 9.31 g/m*3 17.9 C 0 km/h
1546 22-09-2010 21:18:01 17.6 C 9.45 g/m*3 17.6 C 0 km/h
1547 22-09-2010 21:30:01 17.5 C 9.24 g/m*3 17.5 C 0 km/h
1548 22-09-2010 21:42:01 17.3 C 9.28 g/m*3 17.3 C 0 km/h
1549 22-09-2010 21:54:01 17 C 9.26 g/m*3 17 C 0 km/h
1550 22-09-2010 22:08:02 16.8 C 9.29 g/m*3 16.8 C 0 km/h
Sensor: Nr:Datum:Temp:Abs-Feuchte:Windchill:Wind:
Aussen-T/F 1551 22-09-2010 22:20:02 16.4 C 9.35 g/m*3 16.4 C 0 km/h
1552 22-09-2010 22:32:02 16.1 C 9.32 g/m*3 16.1 C 0 km/h
1553 22-09-2010 22:44:02 15.9 C 9.21 g/m*3 15.9 C 0 km/h
1554 22-09-2010 22:56:02 15.7 C 9.1 g/m*3 15.7 C 0 km/h
1555 22-09-2010 23:08:02 15.4 C 8.8 g/m*3 15.4 C 0 km/h
1556 22-09-2010 23:20:02 15.1 C 8.77 g/m*3 15.1 C 0 km/h
1557 22-09-2010 23:32:02 14.9 C 8.79 g/m*3 14.9 C 0 km/h
1558 22-09-2010 23:44:02 14.7 C 8.81 g/m*3 14.7 C 0 km/h
1559 22-09-2010 23:56:02 14.5 C 8.71 g/m*3 14.5 C 0 km/h
1560 23-09-2010 00:08:02 14.4 C 8.53 g/m*3 14.4 C 0 km/h
1561 23-09-2010 00:20:02 14.2 C 8.67 g/m*3 14.2 C 0 km/h
1562 23-09-2010 00:32:02 14 C 8.56 g/m*3 14 C 0 km/h
1563 23-09-2010 00:44:02 13.8 C 8.7 g/m*3 13.8 C 0 km/h
1564 23-09-2010 00:56:02 13.7 C 8.76 g/m*3 13.7 C 0 km/h
1565 23-09-2010 01:08:02 13.5 C 8.77 g/m*3 13.5 C 0 km/h
1566 23-09-2010 01:20:02 13.4 C 8.72 g/m*3 13.4 C 0 km/h
1567 23-09-2010 01:32:02 13.2 C 8.73 g/m*3 13.2 C 0 km/h
1568 23-09-2010 01:44:02 13.1 C 8.67 g/m*3 13.1 C 0 km/h
1569 23-09-2010 01:56:03 12.9 C 8.68 g/m*3 12.9 C 0 km/h
1570 23-09-2010 02:08:03 12.8 C 8.74 g/m*3 12.8 C 0 km/h
1571 23-09-2010 02:20:03 12.6 C 8.74 g/m*3 12.6 C 0 km/h
1572 23-09-2010 02:32:03 12.4 C 8.74 g/m*3 12.4 C 0 km/h
1573 23-09-2010 02:44:03 12.3 C 8.69 g/m*3 12.3 C 0 km/h
1574 23-09-2010 02:56:03 12.1 C 8.58 g/m*3 12.1 C 0 km/h
1575 23-09-2010 03:08:03 12 C 8.53 g/m*3 12 C 0 km/h
Sensor: Nr:Datum:Temp:Abs-Feuchte:Windchill:Wind:
Aussen-T/F 1576 23-09-2010 03:20:03 11.8 C 8.53 g/m*3 11.8 C 0 km/h
1577 23-09-2010 03:32:03 11.8 C 8.53 g/m*3 11.8 C 0 km/h
1578 23-09-2010 03:44:03 11.8 C 8.63 g/m*3 11.8 C 0 km/h
1579 23-09-2010 03:56:03 11.6 C 8.63 g/m*3 11.6 C 0 km/h
1580 23-09-2010 04:08:03 11.4 C 8.52 g/m*3 11.4 C 0 km/h
1581 23-09-2010 04:20:03 11.2 C 8.41 g/m*3 11.2 C 0 km/h
1582 23-09-2010 04:32:03 11.2 C 8.41 g/m*3 11.2 C 0 km/h
1583 23-09-2010 04:44:03 11 C 8.31 g/m*3 11 C 0 km/h
1584 23-09-2010 04:56:03 11 C 8.31 g/m*3 11 C 0 km/h
1585 23-09-2010 05:08:03 10.9 C 8.36 g/m*3 10.9 C 0 km/h
1586 23-09-2010 05:20:03 10.7 C 8.25 g/m*3 10.7 C 0 km/h
1587 23-09-2010 05:32:03 10.6 C 8.2 g/m*3 10.6 C 0 km/h
1588 23-09-2010 05:44:03 10.5 C 8.15 g/m*3 10.5 C 0 km/h
1589 23-09-2010 05:56:03 10.5 C 8.15 g/m*3 10.5 C 0 km/h
1590 23-09-2010 06:08:03 10.4 C 8.1 g/m*3 10.4 C 0 km/h
1591 23-09-2010 06:20:04 10.5 C 8.24 g/m*3 10.5 C 0 km/h
1592 23-09-2010 06:32:04 10.6 C 8.3 g/m*3 10.6 C 0 km/h
1593 23-09-2010 06:44:04 10.4 C 8.19 g/m*3 10.4 C 0 km/h
1594 23-09-2010 06:56:04 10.4 C 8.19 g/m*3 10.4 C 0 km/h
1595 23-09-2010 07:08:02 10.5 C 8.24 g/m*3 10.5 C 0 km/h
1596 23-09-2010 07:20:01 10.4 C 8.19 g/m*3 10.4 C 0 km/h
1597 23-09-2010 07:32:02 10.5 C 8.24 g/m*3 10.5 C 0 km/h
1598 23-09-2010 07:44:02 10.6 C 8.3 g/m*3 10.6 C 0 km/h
1599 23-09-2010 07:56:02 10.6 C 8.3 g/m*3 10.6 C 0 km/h
1600 23-09-2010 08:08:02 10.6 C 8.3 g/m*3 10.6 C 0 km/h
Sensor: Nr:Datum:Temp:Abs-Feuchte:Windchill:Wind:
Aussen-T/F 1601 23-09-2010 08:20:01 10.7 C 8.35 g/m*3 10.7 C 0 km/h
1602 23-09-2010 08:32:02 10.8 C 8.4 g/m*3 10.8 C 0 km/h
1603 23-09-2010 08:44:02 11 C 8.51 g/m*3 11 C 0 km/h
1604 23-09-2010 08:56:02 11.3 C 8.57 g/m*3 11.3 C 0 km/h
1605 23-09-2010 09:08:01 11.4 C 8.52 g/m*3 11.4 C 0 km/h
1606 23-09-2010 09:20:01 11.4 C 8.52 g/m*3 11.4 C 0 km/h
1607 23-09-2010 09:32:02 11.4 C 8.52 g/m*3 11.4 C 0 km/h
1608 23-09-2010 09:44:02 11.7 C 8.79 g/m*3 11.7 C 0 km/h
1609 23-09-2010 09:56:02 12.3 C 8.9 g/m*3 12.3 C 0 km/h
1610 23-09-2010 10:08:02 12.4 C 8.96 g/m*3 12.4 C 0 km/h
1611 23-09-2010 10:20:02 12.5 C 9.02 g/m*3 12.5 C 0 km/h
1612 23-09-2010 10:32:02 12.9 C 9.24 g/m*3 12.9 C 0 km/h
1613 23-09-2010 10:44:02 13.3 C 9.36 g/m*3 13.3 C 0 km/h
1614 23-09-2010 10:56:02 13.8 C 9.65 g/m*3 13.8 C 0 km/h
1615 23-09-2010 11:08:02 14.1 C 9.71 g/m*3 14.1 C 0 km/h
1616 23-09-2010 11:20:02 15 C 10 g/m*3 15 C 0 km/h
1617 23-09-2010 11:32:02 15.8 C 10.23 g/m*3 15.8 C 0 km/h
1618 23-09-2010 11:44:02 16.3 C 10.13 g/m*3 16.3 C 0 km/h
1619 23-09-2010 11:56:02 17 C 10.27 g/m*3 17 C 0 km/h
1620 23-09-2010 12:08:02 17.5 C 10.44 g/m*3 17.5 C 0 km/h
1621 23-09-2010 12:20:02 18 C 10.44 g/m*3 18 C 0 km/h
1622 23-09-2010 12:32:02 18.7 C 10.73 g/m*3 18.7 C 0 km/h
1623 23-09-2010 12:44:02 19.2 C 10.55 g/m*3 19.2 C 0 km/h
1624 23-09-2010 12:56:02 19.9 C 10.82 g/m*3 19.9 C 0 km/h
1625 23-09-2010 13:08:02 20.5 C 11.03 g/m*3 20.5 C 0 km/h
Sensor: Nr:Datum:Temp:Abs-Feuchte:Windchill:Wind:
Aussen-T/F 1626 23-09-2010 13:20:02 21.4 C 11.06 g/m*3 21.4 C 0 km/h
1627 23-09-2010 13:32:01 22.3 C 11.26 g/m*3 22.3 C 0 km/h
1628 23-09-2010 13:44:01 23.3 C 10.66 g/m*3 23.3 C 0 km/h
1629 23-09-2010 13:56:02 24 C 9.14 g/m*3 24 C 0 km/h
1630 23-09-2010 14:08:01 24.5 C 9.62 g/m*3 24.5 C 0 km/h
1631 23-09-2010 14:20:02 23.8 C 10.11 g/m*3 23.8 C 0 km/h
1632 23-09-2010 14:32:02 23.7 C 10.48 g/m*3 23.7 C 0 km/h
1633 23-09-2010 14:44:02 23.8 C 10.54 g/m*3 23.8 C 0 km/h
1634 23-09-2010 14:56:02 24.5 C 10.3 g/m*3 24.5 C 0 km/h
1635 23-09-2010 15:08:02 25.2 C 8.85 g/m*3 25.2 C 0 km/h
1636 23-09-2010 15:20:02 25.2 C 9.78 g/m*3 25.2 C 0 km/h
1637 23-09-2010 15:32:02 24.8 C 9.33 g/m*3 24.8 C 0 km/h
1638 23-09-2010 15:44:03 25.1 C 9.26 g/m*3 25.1 C 0 km/h
1639 23-09-2010 15:56:01 24.9 C 9.61 g/m*3 24.9 C 0 km/h
1640 23-09-2010 16:08:02 25.1 C 10.19 g/m*3 25.1 C 0 km/h
1641 23-09-2010 16:20:01 26 C 9.74 g/m*3 26 C 0 km/h
1642 23-09-2010 16:32:01 25.6 C 9.05 g/m*3 25.6 C 0 km/h
1643 23-09-2010 16:44:01 24.9 C 10.07 g/m*3 24.9 C 0 km/h
1644 23-09-2010 16:56:01 24.1 C 10.28 g/m*3 24.1 C 0 km/h
1645 23-09-2010 17:08:01 23.7 C 10.91 g/m*3 23.7 C 0 km/h
1646 23-09-2010 17:20:02 23.4 C 10.72 g/m*3 23.4 C 0 km/h
1647 23-09-2010 17:32:01 23.2 C 10.81 g/m*3 23.2 C 0 km/h
1648 23-09-2010 17:44:01 23.3 C 10.45 g/m*3 23.3 C 0 km/h
1649 23-09-2010 17:56:02 23.8 C 10.76 g/m*3 23.8 C 0 km/h
1650 23-09-2010 18:08:01 23.3 C 10.45 g/m*3 23.3 C 0 km/h
Sensor: Nr:Datum:Temp:Abs-Feuchte:Windchill:Wind:
Aussen-T/F 1651 23-09-2010 18:20:02 22.6 C 10.25 g/m*3 22.6 C 0 km/h
1652 23-09-2010 18:32:01 21.7 C 10.68 g/m*3 21.7 C 0 km/h
1653 23-09-2010 18:44:01 21.6 C 10.81 g/m*3 21.6 C 0 km/h
1654 23-09-2010 18:56:02 21.4 C 10.87 g/m*3 21.4 C 0 km/h
1655 23-09-2010 19:08:02 20.9 C 10.93 g/m*3 20.9 C 0 km/h
1656 23-09-2010 19:20:02 20.4 C 10.97 g/m*3 20.4 C 0 km/h
1657 23-09-2010 19:32:02 19.8 C 11.1 g/m*3 19.8 C 0 km/h
1658 23-09-2010 19:44:02 19.4 C 11.18 g/m*3 19.4 C 0 km/h
1659 23-09-2010 19:56:02 19 C 11.08 g/m*3 19 C 0 km/h
1660 23-09-2010 20:08:01 18.8 C 11.43 g/m*3 18.8 C 0 km/h
1661 23-09-2010 20:20:02 18.6 C 11.3 g/m*3 18.6 C 0 km/h
1662 23-09-2010 20:32:02 18.6 C 11.3 g/m*3 18.6 C 0 km/h
1663 23-09-2010 20:44:02 18.4 C 11.32 g/m*3 18.4 C 0 km/h
1664 23-09-2010 20:56:02 18.1 C 11.12 g/m*3 18.1 C 0 km/h
1665 23-09-2010 21:08:02 18.4 C 11.48 g/m*3 18.4 C 0 km/h
1666 23-09-2010 21:20:01 18.3 C 11.41 g/m*3 18.3 C 0 km/h
1667 23-09-2010 21:32:02 18.4 C 11.64 g/m*3 18.4 C 0 km/h
1668 23-09-2010 21:44:02 18.7 C 11.53 g/m*3 18.7 C 0 km/h
1669 23-09-2010 21:57:02 18.7 C 11.37 g/m*3 18.7 C 0 km/h
1670 23-09-2010 22:09:02 18.5 C 11.23 g/m*3 18.5 C 0 km/h
1671 23-09-2010 22:21:02 18.5 C 11.39 g/m*3 18.5 C 0 km/h
1672 23-09-2010 22:33:02 17.9 C 11.6 g/m*3 17.9 C 0 km/h
1673 23-09-2010 22:45:02 17.7 C 12.52 g/m*3 17.7 C 0 km/h
1674 23-09-2010 22:57:02 17.1 C 12.23 g/m*3 17.1 C 0 km/h
1675 23-09-2010 23:09:02 16.9 C 12.37 g/m*3 16.9 C 0 km/h
Sensor: Nr:Datum:Temp:Abs-Feuchte:Windchill:Wind:
Aussen-T/F 1676 23-09-2010 23:21:02 16.5 C 12.22 g/m*3 16.5 C 0 km/h
1677 23-09-2010 23:33:02 16.4 C 12.28 g/m*3 16.4 C 0 km/h
1678 23-09-2010 23:45:02 16.2 C 12.14 g/m*3 16.2 C 0 km/h
1679 23-09-2010 23:57:02 16.2 C 12.27 g/m*3 16.2 C 0 km/h
1680 24-09-2010 00:09:02 16 C 12.13 g/m*3 16 C 0 km/h
1681 24-09-2010 00:21:02 15.9 C 12.32 g/m*3 15.9 C 0 km/h
1682 24-09-2010 00:33:02 15.6 C 12.1 g/m*3 15.6 C 0 km/h
1683 24-09-2010 00:45:02 15.5 C 12.16 g/m*3 15.5 C 0 km/h
1684 24-09-2010 00:57:02 15.5 C 12.16 g/m*3 15.5 C 0 km/h
1685 24-09-2010 01:09:02 15.5 C 12.16 g/m*3 15.5 C 0 km/h
1686 24-09-2010 01:21:02 15.5 C 12.29 g/m*3 15.5 C 0 km/h
1687 24-09-2010 01:33:02 15.6 C 12.37 g/m*3 15.6 C 0 km/h
1688 24-09-2010 01:45:02 15.6 C 12.37 g/m*3 15.6 C 0 km/h
1689 24-09-2010 01:57:03 15.5 C 12.29 g/m*3 15.5 C 0 km/h
1690 24-09-2010 02:09:03 15.5 C 12.29 g/m*3 15.5 C 0 km/h
1691 24-09-2010 02:21:03 15.5 C 12.29 g/m*3 15.5 C 0 km/h
1692 24-09-2010 02:33:03 15.4 C 12.22 g/m*3 15.4 C 0 km/h
1693 24-09-2010 02:45:03 15.3 C 12.01 g/m*3 15.3 C 0 km/h
1694 24-09-2010 02:57:03 15.2 C 11.94 g/m*3 15.2 C 0 km/h
1695 24-09-2010 03:09:03 15.1 C 11.87 g/m*3 15.1 C 0 km/h
1696 24-09-2010 03:21:03 14.9 C 11.85 g/m*3 14.9 C 0 km/h
1697 24-09-2010 03:33:03 14.9 C 11.85 g/m*3 14.9 C 0 km/h
1698 24-09-2010 03:45:03 14.9 C 11.98 g/m*3 14.9 C 0 km/h
1699 24-09-2010 03:57:03 14.9 C 11.98 g/m*3 14.9 C 0 km/h
1700 24-09-2010 04:09:03 14.8 C 11.91 g/m*3 14.8 C 0 km/h
Sensor: Nr:Datum:Temp:Abs-Feuchte:Windchill:Wind:
Aussen-T/F 1701 24-09-2010 04:21:03 14.8 C 11.91 g/m*3 14.8 C 0 km/h
1702 24-09-2010 04:33:03 14.8 C 11.91 g/m*3 14.8 C 0 km/h
1703 24-09-2010 04:45:03 14.8 C 11.91 g/m*3 14.8 C 0 km/h
1704 24-09-2010 04:57:03 14.7 C 11.83 g/m*3 14.7 C 0 km/h
1705 24-09-2010 05:09:03 14.5 C 11.69 g/m*3 14.5 C 0 km/h
1706 24-09-2010 05:21:03 14.5 C 11.69 g/m*3 14.5 C 0 km/h
1707 24-09-2010 05:33:03 14.5 C 11.69 g/m*3 14.5 C 0 km/h
1708 24-09-2010 05:45:03 14.6 C 11.76 g/m*3 14.6 C 0 km/h
1709 24-09-2010 05:57:03 14.6 C 11.76 g/m*3 14.6 C 0 km/h
1710 24-09-2010 06:09:03 14.7 C 11.83 g/m*3 14.7 C 0 km/h
1711 24-09-2010 06:21:04 14.7 C 11.83 g/m*3 14.7 C 0 km/h
1712 24-09-2010 06:33:04 14.7 C 11.83 g/m*3 14.7 C 0 km/h
1713 24-09-2010 06:45:04 14.7 C 11.83 g/m*3 14.7 C 0 km/h
1714 24-09-2010 06:57:04 14.7 C 11.83 g/m*3 14.7 C 0 km/h
1715 24-09-2010 07:09:04 14.5 C 11.69 g/m*3 14.5 C 0 km/h
1716 24-09-2010 07:21:04 14.4 C 11.62 g/m*3 14.4 C 0 km/h
1717 24-09-2010 07:33:02 14.3 C 11.55 g/m*3 14.3 C 0 km/h
1718 24-09-2010 07:45:02 14.4 C 11.62 g/m*3 14.4 C 0 km/h
1719 24-09-2010 07:57:02 14.4 C 11.62 g/m*3 14.4 C 0 km/h
1720 24-09-2010 08:09:02 14.4 C 11.62 g/m*3 14.4 C 0 km/h
1721 24-09-2010 08:21:01 14.3 C 11.55 g/m*3 14.3 C 0 km/h
1722 24-09-2010 08:33:02 14.6 C 11.89 g/m*3 14.6 C 0 km/h
1723 24-09-2010 08:45:02 14.8 C 12.03 g/m*3 14.8 C 0 km/h
1724 24-09-2010 08:57:02 14.8 C 12.03 g/m*3 14.8 C 0 km/h
1725 24-09-2010 09:09:01 14.8 C 12.03 g/m*3 14.8 C 0 km/h
Sensor: Nr:Datum:Temp:Abs-Feuchte:Windchill:Wind:
Aussen-T/F 1726 24-09-2010 09:21:02 14.8 C 12.03 g/m*3 14.8 C 0 km/h
1727 24-09-2010 09:33:01 14.9 C 12.11 g/m*3 14.9 C 0 km/h
1728 24-09-2010 09:45:02 14.9 C 12.11 g/m*3 14.9 C 0 km/h
1729 24-09-2010 09:57:02 15 C 12.05 g/m*3 15 C 0 km/h
1730 24-09-2010 10:09:02 15 C 12.05 g/m*3 15 C 0 km/h
1731 24-09-2010 10:21:02 14.9 C 12.11 g/m*3 14.9 C 0 km/h
1732 24-09-2010 10:33:02 15 C 12.05 g/m*3 15 C 0 km/h
1733 24-09-2010 10:45:01 15 C 12.05 g/m*3 15 C 0 km/h
1734 24-09-2010 10:57:01 15 C 12.05 g/m*3 15 C 0 km/h
1735 24-09-2010 11:09:02 15.1 C 12.13 g/m*3 15.1 C 0 km/h
1736 24-09-2010 11:21:01 15.1 C 12.13 g/m*3 15.1 C 0 km/h
1737 24-09-2010 11:33:01 15.4 C 12.35 g/m*3 15.4 C 0 km/h
1738 24-09-2010 11:45:02 15.4 C 12.35 g/m*3 15.4 C 0 km/h
1739 24-09-2010 11:57:02 15.1 C 12.13 g/m*3 15.1 C 0 km/h
1740 24-09-2010 12:09:02 15.1 C 12.13 g/m*3 15.1 C 0 km/h
1741 24-09-2010 12:21:02 15.1 C 12.13 g/m*3 15.1 C 0 km/h
1742 24-09-2010 12:33:03 15.4 C 12.48 g/m*3 15.4 C 0 km/h
1743 24-09-2010 12:45:02 15.1 C 12.13 g/m*3 15.1 C 0 km/h
1744 24-09-2010 12:57:03 15 C 12.05 g/m*3 15 C 0 km/h
1745 24-09-2010 13:09:02 14.8 C 11.91 g/m*3 14.8 C 0 km/h
1746 24-09-2010 13:21:02 14.6 C 11.76 g/m*3 14.6 C 0 km/h
1747 24-09-2010 13:33:02 14.5 C 11.69 g/m*3 14.5 C 0 km/h
1748 24-09-2010 13:45:02 14.5 C 11.69 g/m*3 14.5 C 0 km/h
1749 24-09-2010 13:57:02 14.4 C 11.62 g/m*3 14.4 C 0 km/h
1750 24-09-2010 14:09:03 14.1 C 11.41 g/m*3 14.1 C 0 km/h
Sensor: Nr:Datum:Temp:Abs-Feuchte:Windchill:Wind:
Aussen-T/F 1751 24-09-2010 14:21:02 13.8 C 11.2 g/m*3 13.8 C 0 km/h
1752 24-09-2010 14:33:03 13.5 C 10.99 g/m*3 13.5 C 0 km/h
1753 24-09-2010 14:45:02 13.2 C 10.79 g/m*3 13.2 C 0 km/h
1754 24-09-2010 14:57:02 13.1 C 10.73 g/m*3 13.1 C 0 km/h
1755 24-09-2010 15:09:02 12.9 C 10.71 g/m*3 12.9 C 0 km/h
1756 24-09-2010 15:21:03 13.1 C 10.73 g/m*3 13.1 C 0 km/h
1757 24-09-2010 15:33:02 13 C 10.77 g/m*3 13 C 0 km/h
1758 24-09-2010 15:45:03 13.2 C 10.91 g/m*3 13.2 C 0 km/h
1759 24-09-2010 15:57:03 13.2 C 10.91 g/m*3 13.2 C 0 km/h
1760 24-09-2010 16:09:02 13.3 C 10.98 g/m*3 13.3 C 0 km/h
1761 24-09-2010 16:21:02 13.7 C 11.25 g/m*3 13.7 C 0 km/h
1762 24-09-2010 16:33:02 14 C 11.46 g/m*3 14 C 0 km/h
1763 24-09-2010 16:45:02 14.1 C 11.53 g/m*3 14.1 C 0 km/h
1764 24-09-2010 16:57:02 13.9 C 11.39 g/m*3 13.9 C 0 km/h
1765 24-09-2010 17:09:02 13.9 C 11.39 g/m*3 13.9 C 0 km/h
1766 24-09-2010 17:21:02 13.9 C 11.39 g/m*3 13.9 C 0 km/h
1767 24-09-2010 17:33:02 13.4 C 10.93 g/m*3 13.4 C 0 km/h
1768 24-09-2010 17:45:02 13.2 C 10.79 g/m*3 13.2 C 0 km/h
1769 24-09-2010 17:57:02 13 C 10.66 g/m*3 13 C 0 km/h
1770 24-09-2010 18:09:01 13.2 C 10.79 g/m*3 13.2 C 0 km/h
1771 24-09-2010 18:21:01 13.3 C 10.86 g/m*3 13.3 C 0 km/h
1772 24-09-2010 18:33:02 13.3 C 10.86 g/m*3 13.3 C 0 km/h
1773 24-09-2010 18:45:02 13.3 C 10.86 g/m*3 13.3 C 0 km/h
1774 24-09-2010 18:57:02 13.2 C 10.79 g/m*3 13.2 C 0 km/h
1775 24-09-2010 19:09:02 13.1 C 10.73 g/m*3 13.1 C 0 km/h
Sensor: Nr:Datum:Temp:Abs-Feuchte:Windchill:Wind:
Aussen-T/F 1776 24-09-2010 19:21:01 12.9 C 10.71 g/m*3 12.9 C 0 km/h
1777 24-09-2010 19:33:02 12.8 C 10.64 g/m*3 12.8 C 0 km/h
1778 24-09-2010 19:45:02 12.7 C 10.58 g/m*3 12.7 C 0 km/h
1779 24-09-2010 19:57:02 12.7 C 10.58 g/m*3 12.7 C 0 km/h
1780 24-09-2010 20:09:02 12.7 C 10.58 g/m*3 12.7 C 0 km/h
1781 24-09-2010 20:21:01 12.7 C 10.58 g/m*3 12.7 C 0 km/h
1782 24-09-2010 20:33:02 12.7 C 10.58 g/m*3 12.7 C 0 km/h
1783 24-09-2010 20:45:01 12.7 C 10.58 g/m*3 12.7 C 0 km/h
1784 24-09-2010 20:57:01 12.7 C 10.58 g/m*3 12.7 C 0 km/h
1785 24-09-2010 21:09:02 12.8 C 10.64 g/m*3 12.8 C 0 km/h
1786 24-09-2010 21:21:02 12.8 C 10.64 g/m*3 12.8 C 0 km/h
1787 24-09-2010 21:33:02 12.9 C 10.71 g/m*3 12.9 C 0 km/h
1788 24-09-2010 21:45:02 12.8 C 10.64 g/m*3 12.8 C 0 km/h
1789 24-09-2010 21:57:02 12.8 C 10.64 g/m*3 12.8 C 0 km/h
1790 24-09-2010 22:09:01 12.8 C 10.64 g/m*3 12.8 C 0 km/h
1791 24-09-2010 22:21:02 12.8 C 10.64 g/m*3 12.8 C 0 km/h
1792 24-09-2010 22:33:02 12.7 C 10.58 g/m*3 12.7 C 0 km/h
1793 24-09-2010 22:46:04 12.6 C 10.51 g/m*3 12.6 C 0 km/h
1794 24-09-2010 22:58:04 12.6 C 10.51 g/m*3 12.6 C 0 km/h
1795 24-09-2010 23:10:04 12.5 C 10.44 g/m*3 12.5 C 0 km/h
1796 24-09-2010 23:22:04 12.4 C 10.38 g/m*3 12.4 C 0 km/h
1797 24-09-2010 23:34:04 12.4 C 10.38 g/m*3 12.4 C 0 km/h
1798 24-09-2010 23:46:04 12.3 C 10.32 g/m*3 12.3 C 0 km/h
1799 24-09-2010 23:58:04 12.4 C 10.38 g/m*3 12.4 C 0 km/h
1800 25-09-2010 00:10:04 12.4 C 10.38 g/m*3 12.4 C 0 km/h
Sensor: Nr:Datum:Temp:Abs-Feuchte:Windchill:Wind:
Aussen-T/F 1801 25-09-2010 00:22:04 12.5 C 10.44 g/m*3 12.5 C 0 km/h
1802 25-09-2010 00:34:04 12.5 C 10.44 g/m*3 12.5 C 0 km/h
1803 25-09-2010 00:46:04 12.5 C 10.44 g/m*3 12.5 C 0 km/h
1804 25-09-2010 00:58:05 12.5 C 10.44 g/m*3 12.5 C 0 km/h
1805 25-09-2010 01:10:05 12.5 C 10.44 g/m*3 12.5 C 0 km/h
1806 25-09-2010 01:22:05 12.5 C 10.44 g/m*3 12.5 C 0 km/h
1807 25-09-2010 01:34:05 12.5 C 10.44 g/m*3 12.5 C 0 km/h
1808 25-09-2010 01:46:05 12.5 C 10.44 g/m*3 12.5 C 0 km/h
1809 25-09-2010 01:58:05 12.6 C 10.51 g/m*3 12.6 C 0 km/h
1810 25-09-2010 02:10:05 12.6 C 10.51 g/m*3 12.6 C 0 km/h
1811 25-09-2010 02:22:05 12.6 C 10.51 g/m*3 12.6 C 0 km/h
1812 25-09-2010 02:34:05 12.6 C 10.51 g/m*3 12.6 C 0 km/h
1813 25-09-2010 02:46:05 12.6 C 10.51 g/m*3 12.6 C 0 km/h
1814 25-09-2010 02:58:05 12.6 C 10.51 g/m*3 12.6 C 0 km/h
1815 25-09-2010 03:10:05 12.7 C 10.58 g/m*3 12.7 C 0 km/h
1816 25-09-2010 03:22:05 12.6 C 10.51 g/m*3 12.6 C 0 km/h
1817 25-09-2010 03:34:05 12.6 C 10.51 g/m*3 12.6 C 0 km/h
1818 25-09-2010 03:46:05 12.6 C 10.51 g/m*3 12.6 C 0 km/h
1819 25-09-2010 03:58:05 12.6 C 10.51 g/m*3 12.6 C 0 km/h
1820 25-09-2010 04:10:05 12.6 C 10.51 g/m*3 12.6 C 0 km/h
1821 25-09-2010 04:22:05 12.5 C 10.44 g/m*3 12.5 C 0 km/h
1822 25-09-2010 04:34:05 12.6 C 10.51 g/m*3 12.6 C 0 km/h
1823 25-09-2010 04:46:05 12.5 C 10.44 g/m*3 12.5 C 0 km/h
1824 25-09-2010 04:58:06 12.5 C 10.44 g/m*3 12.5 C 0 km/h
1825 25-09-2010 05:10:06 12.5 C 10.44 g/m*3 12.5 C 0 km/h
Sensor: Nr:Datum:Temp:Abs-Feuchte:Windchill:Wind:
Aussen-T/F 1826 25-09-2010 05:22:06 12.4 C 10.38 g/m*3 12.4 C 0 km/h
1827 25-09-2010 05:34:06 12.4 C 10.38 g/m*3 12.4 C 0 km/h
1828 25-09-2010 05:46:06 12.3 C 10.32 g/m*3 12.3 C 0 km/h
1829 25-09-2010 05:58:06 12.3 C 10.21 g/m*3 12.3 C 0 km/h
1830 25-09-2010 06:10:06 12.1 C 10.08 g/m*3 12.1 C 0 km/h
1831 25-09-2010 06:22:06 12.1 C 10.08 g/m*3 12.1 C 0 km/h
1832 25-09-2010 06:34:06 12.1 C 10.08 g/m*3 12.1 C 0 km/h
1833 25-09-2010 06:46:06 12 C 10.02 g/m*3 12 C 0 km/h
1834 25-09-2010 06:58:06 12 C 10.02 g/m*3 12 C 0 km/h
1835 25-09-2010 07:10:06 12 C 10.02 g/m*3 12 C 0 km/h
1836 25-09-2010 07:22:06 11.9 C 9.96 g/m*3 11.9 C 0 km/h
1837 25-09-2010 07:34:06 11.9 C 9.96 g/m*3 11.9 C 0 km/h
1838 25-09-2010 07:46:02 11.8 C 9.89 g/m*3 11.8 C 0 km/h
1839 25-09-2010 07:58:02 11.8 C 9.89 g/m*3 11.8 C 0 km/h
1840 25-09-2010 08:10:02 11.7 C 9.83 g/m*3 11.7 C 0 km/h
1841 25-09-2010 08:22:02 11.6 C 9.77 g/m*3 11.6 C 0 km/h
1842 25-09-2010 08:34:02 11.2 C 9.43 g/m*3 11.2 C 0 km/h
1843 25-09-2010 08:46:02 11 C 9.31 g/m*3 11 C 0 km/h
1844 25-09-2010 08:58:02 10.8 C 9.19 g/m*3 10.8 C 0 km/h
1845 25-09-2010 09:10:01 10.6 C 9.08 g/m*3 10.6 C 0 km/h
1846 25-09-2010 09:22:02 10.4 C 8.96 g/m*3 10.4 C 0 km/h
1847 25-09-2010 09:34:02 10.5 C 8.92 g/m*3 10.5 C 0 km/h
1848 25-09-2010 09:46:02 10.5 C 8.83 g/m*3 10.5 C 0 km/h
1849 25-09-2010 09:58:02 10.4 C 8.29 g/m*3 10.4 C 0 km/h
1850 25-09-2010 10:10:03 10.5 C 8.15 g/m*3 10.5 C 0 km/h
Sensor: Nr:Datum:Temp:Abs-Feuchte:Windchill:Wind:
Aussen-T/F 1851 25-09-2010 10:22:02 10.8 C 8.2 g/m*3 10.8 C 0 km/h
1852 25-09-2010 10:34:02 11.1 C 8.36 g/m*3 11.1 C 0 km/h
1853 25-09-2010 10:46:01 11.3 C 8.36 g/m*3 11.3 C 0 km/h
1854 25-09-2010 10:58:01 11.5 C 8.16 g/m*3 11.5 C 0 km/h
1855 25-09-2010 11:10:02 11.6 C 7.8 g/m*3 11.6 C 0 km/h
1856 25-09-2010 11:22:01 12.1 C 7.72 g/m*3 12.1 C 0 km/h
1857 25-09-2010 11:34:02 12.3 C 7.38 g/m*3 12.3 C 0 km/h
1858 25-09-2010 11:46:01 12.5 C 7.26 g/m*3 12.5 C 0 km/h
1859 25-09-2010 11:58:01 13 C 7.03 g/m*3 13 C 0 km/h
1860 25-09-2010 12:10:02 12.8 C 6.83 g/m*3 12.8 C 0 km/h
1861 25-09-2010 12:22:01 12.8 C 7.06 g/m*3 12.8 C 0 km/h
1862 25-09-2010 12:34:02 12.4 C 6.88 g/m*3 12.4 C 0 km/h
1863 25-09-2010 12:46:02 11.8 C 6.84 g/m*3 11.8 C 0 km/h
1864 25-09-2010 12:58:02 12.4 C 6.88 g/m*3 12.4 C 0 km/h
1865 25-09-2010 13:10:02 12.7 C 6.68 g/m*3 12.7 C 0 km/h
1866 25-09-2010 13:22:01 13 C 6.35 g/m*3 13 C 0 km/h
1867 25-09-2010 13:34:02 13.8 C 6.43 g/m*3 13.8 C 0 km/h
1868 25-09-2010 13:46:01 13.5 C 5.38 g/m*3 13.5 C 0 km/h
1869 25-09-2010 13:58:01 13.3 C 5.31 g/m*3 13.3 C 0 km/h
1870 25-09-2010 14:10:02 13.7 C 5.45 g/m*3 13.7 C 0 km/h
1871 25-09-2010 14:22:01 13.5 C 5.5 g/m*3 13.5 C 0 km/h
1872 25-09-2010 14:34:02 13.8 C 5.36 g/m*3 13.8 C 0 km/h
1873 25-09-2010 14:46:01 14.4 C 5.32 g/m*3 14.4 C 0 km/h
1874 25-09-2010 14:58:01 15.8 C 5.12 g/m*3 15.8 C 0 km/h
1875 25-09-2010 15:10:02 14.8 C 4.43 g/m*3 14.8 C 0 km/h
Sensor: Nr:Datum:Temp:Abs-Feuchte:Windchill:Wind:
Aussen-T/F 1876 25-09-2010 15:22:02 14.5 C 4.6 g/m*3 14.5 C 0 km/h
1877 25-09-2010 15:34:01 15.7 C 4.68 g/m*3 15.7 C 0 km/h
1878 25-09-2010 15:46:02 15.5 C 4.63 g/m*3 15.5 C 0 km/h
1879 25-09-2010 15:58:02 14.7 C 5.04 g/m*3 14.7 C 0 km/h
1880 25-09-2010 16:10:01 14.2 C 4.88 g/m*3 14.2 C 0 km/h
1881 25-09-2010 16:22:02 14.4 C 5.07 g/m*3 14.4 C 0 km/h
1882 25-09-2010 16:34:01 14.7 C 5.16 g/m*3 14.7 C 0 km/h
1883 25-09-2010 16:46:02 15.6 C 4.79 g/m*3 15.6 C 0 km/h
1884 25-09-2010 16:58:02 14.7 C 4.91 g/m*3 14.7 C 0 km/h
1885 25-09-2010 17:10:02 14.3 C 4.91 g/m*3 14.3 C 0 km/h
1886 25-09-2010 17:22:02 14.8 C 5.32 g/m*3 14.8 C 0 km/h
1887 25-09-2010 17:34:03 15.6 C 5.19 g/m*3 15.6 C 0 km/h
1888 25-09-2010 17:46:02 16.8 C 5.15 g/m*3 16.8 C 0 km/h
1889 25-09-2010 17:58:02 16.5 C 4.77 g/m*3 16.5 C 0 km/h
1890 25-09-2010 18:10:01 15.4 C 4.47 g/m*3 15.4 C 0 km/h
1891 25-09-2010 18:22:01 14.3 C 4.67 g/m*3 14.3 C 0 km/h
1892 25-09-2010 18:34:02 13.9 C 4.92 g/m*3 13.9 C 0 km/h
1893 25-09-2010 18:46:02 13.8 C 5.36 g/m*3 13.8 C 0 km/h
1894 25-09-2010 18:58:02 13.7 C 5.8 g/m*3 13.7 C 0 km/h
1895 25-09-2010 19:10:02 13.5 C 5.5 g/m*3 13.5 C 0 km/h
1896 25-09-2010 19:22:02 13.1 C 5.59 g/m*3 13.1 C 0 km/h
1897 25-09-2010 19:34:02 13 C 5.67 g/m*3 13 C 0 km/h
1898 25-09-2010 19:46:02 12.7 C 5.9 g/m*3 12.7 C 0 km/h
1899 25-09-2010 19:58:02 12.6 C 6.08 g/m*3 12.6 C 0 km/h
1900 25-09-2010 20:10:02 12.5 C 5.72 g/m*3 12.5 C 0 km/h
Sensor: Nr:Datum:Temp:Abs-Feuchte:Windchill:Wind:
Aussen-T/F 1901 25-09-2010 20:22:02 12.2 C 5.61 g/m*3 12.2 C 0 km/h
1902 25-09-2010 20:34:02 11.8 C 5.79 g/m*3 11.8 C 0 km/h
1903 25-09-2010 20:46:02 11.1 C 6.04 g/m*3 11.1 C 0 km/h
1904 25-09-2010 20:58:02 10.9 C 6.17 g/m*3 10.9 C 0 km/h
1905 25-09-2010 21:10:02 10.4 C 6.17 g/m*3 10.4 C 0 km/h
1906 25-09-2010 21:22:03 10.2 C 6.28 g/m*3 10.2 C 0 km/h
1907 25-09-2010 21:34:02 10.1 C 6.34 g/m*3 10.1 C 0 km/h
1908 25-09-2010 21:46:03 10 C 6.3 g/m*3 10 C 0 km/h
1909 25-09-2010 21:58:03 9.9 C 6.44 g/m*3 9.9 C 0 km/h
1910 25-09-2010 22:10:02 9.9 C 6.54 g/m*3 9.9 C 0 km/h
1911 25-09-2010 22:22:02 10.2 C 6.57 g/m*3 10.2 C 0 km/h
1912 25-09-2010 22:34:02 10.5 C 6.69 g/m*3 10.5 C 0 km/h
1913 25-09-2010 22:46:02 10.5 C 6.69 g/m*3 10.5 C 0 km/h
1914 25-09-2010 22:58:02 10.3 C 6.9 g/m*3 10.3 C 0 km/h
1915 25-09-2010 23:10:02 9.6 C 7.15 g/m*3 9.6 C 0 km/h
1916 25-09-2010 23:22:02 9.3 C 7.28 g/m*3 9.3 C 0 km/h
1917 25-09-2010 23:34:01 9.2 C 7.5 g/m*3 9.2 C 0 km/h
1918 25-09-2010 23:46:02 9.1 C 7.45 g/m*3 9.1 C 0 km/h
1919 25-09-2010 23:58:02 9.2 C 7.59 g/m*3 9.2 C 0 km/h
1920 26-09-2010 00:10:01 9.1 C 7.63 g/m*3 9.1 C 0 km/h
1921 26-09-2010 00:22:02 9.5 C 7.92 g/m*3 9.5 C 0 km/h
1922 26-09-2010 00:34:02 9.5 C 7.92 g/m*3 9.5 C 0 km/h
1923 26-09-2010 00:46:02 9.6 C 7.79 g/m*3 9.6 C 0 km/h
1924 26-09-2010 00:58:02 9.5 C 7.55 g/m*3 9.5 C 0 km/h
1925 26-09-2010 01:10:02 9.5 C 7.37 g/m*3 9.5 C 0 km/h
Sensor: Nr:Datum:Temp:Abs-Feuchte:Windchill:Wind:
Aussen-T/F 1926 26-09-2010 01:22:02 9.5 C 7.28 g/m*3 9.5 C 0 km/h
1927 26-09-2010 01:34:02 9.4 C 7.15 g/m*3 9.4 C 0 km/h
1928 26-09-2010 01:46:01 9.5 C 7.19 g/m*3 9.5 C 0 km/h
1929 26-09-2010 01:58:01 9.5 C 7.19 g/m*3 9.5 C 0 km/h
1930 26-09-2010 02:10:02 9.5 C 7.19 g/m*3 9.5 C 0 km/h
1931 26-09-2010 02:22:01 9.5 C 7.1 g/m*3 9.5 C 0 km/h
1932 26-09-2010 02:34:01 9.3 C 7.01 g/m*3 9.3 C 0 km/h
1933 26-09-2010 02:46:01 9.4 C 6.96 g/m*3 9.4 C 0 km/h
1934 26-09-2010 02:58:01 9.4 C 6.96 g/m*3 9.4 C 0 km/h
1935 26-09-2010 03:10:01 9.3 C 6.92 g/m*3 9.3 C 0 km/h
1936 26-09-2010 03:22:01 9.3 C 7.01 g/m*3 9.3 C 0 km/h
1937 26-09-2010 03:34:01 9.3 C 7.1 g/m*3 9.3 C 0 km/h
1938 26-09-2010 03:46:01 9.1 C 7.1 g/m*3 9.1 C 0 km/h
1939 26-09-2010 03:58:01 9 C 7.23 g/m*3 9 C 0 km/h
1940 26-09-2010 04:10:01 9 C 7.32 g/m*3 9 C 0 km/h
1941 26-09-2010 04:22:01 9 C 7.23 g/m*3 9 C 0 km/h
1942 26-09-2010 04:34:02 8.9 C 7.27 g/m*3 8.9 C 0 km/h
1943 26-09-2010 04:46:01 8.7 C 7.26 g/m*3 8.7 C 0 km/h
1944 26-09-2010 04:58:01 8.8 C 7.31 g/m*3 8.8 C 0 km/h
1945 26-09-2010 05:10:02 9 C 7.32 g/m*3 9 C 0 km/h
1946 26-09-2010 05:22:01 9.1 C 7.36 g/m*3 9.1 C 0 km/h
1947 26-09-2010 05:34:01 9 C 7.32 g/m*3 9 C 0 km/h
1948 26-09-2010 05:46:01 9 C 7.32 g/m*3 9 C 0 km/h
1949 26-09-2010 05:58:01 9 C 7.32 g/m*3 9 C 0 km/h
1950 26-09-2010 06:10:02 9 C 7.32 g/m*3 9 C 0 km/h
Sensor: Nr:Datum:Temp:Abs-Feuchte:Windchill:Wind:
Aussen-T/F 1951 26-09-2010 06:22:01 9.1 C 7.36 g/m*3 9.1 C 0 km/h
1952 26-09-2010 06:34:01 8.8 C 7.31 g/m*3 8.8 C 0 km/h
1953 26-09-2010 06:46:01 8.8 C 7.4 g/m*3 8.8 C 0 km/h
1954 26-09-2010 06:58:01 8.8 C 7.49 g/m*3 8.8 C 0 km/h
1955 26-09-2010 07:10:01 8.8 C 7.49 g/m*3 8.8 C 0 km/h
1956 26-09-2010 07:22:02 8.5 C 7.26 g/m*3 8.5 C 0 km/h
1957 26-09-2010 07:34:01 8.6 C 7.39 g/m*3 8.6 C 0 km/h
1958 26-09-2010 07:46:02 8.9 C 7.62 g/m*3 8.9 C 0 km/h
1959 26-09-2010 07:58:02 9.2 C 7.5 g/m*3 9.2 C 0 km/h
1960 26-09-2010 08:10:01 9.5 C 7.55 g/m*3 9.5 C 0 km/h
1961 26-09-2010 08:22:02 9.6 C 7.33 g/m*3 9.6 C 0 km/h
1962 26-09-2010 08:34:01 9.7 C 7.19 g/m*3 9.7 C 0 km/h
1963 26-09-2010 08:46:02 9.7 C 7.19 g/m*3 9.7 C 0 km/h
1964 26-09-2010 08:58:02 9.6 C 7.24 g/m*3 9.6 C 0 km/h
1965 26-09-2010 09:10:01 9.4 C 7.24 g/m*3 9.4 C 0 km/h
1966 26-09-2010 09:22:01 9.4 C 7.33 g/m*3 9.4 C 0 km/h
1967 26-09-2010 09:34:02 10.5 C 7.57 g/m*3 10.5 C 0 km/h
1968 26-09-2010 09:46:01 11 C 7.11 g/m*3 11 C 0 km/h
1969 26-09-2010 09:58:01 11 C 6.61 g/m*3 11 C 0 km/h
1970 26-09-2010 10:10:02 11 C 6.61 g/m*3 11 C 0 km/h
1971 26-09-2010 10:22:01 11.6 C 6.76 g/m*3 11.6 C 0 km/h
1972 26-09-2010 10:34:02 12 C 6.61 g/m*3 12 C 0 km/h
1973 26-09-2010 10:46:01 11.9 C 6.78 g/m*3 11.9 C 0 km/h
1974 26-09-2010 10:58:01 12.7 C 7.01 g/m*3 12.7 C 0 km/h
1975 26-09-2010 11:10:02 12.9 C 6.42 g/m*3 12.9 C 0 km/h
Sensor: Nr:Datum:Temp:Abs-Feuchte:Windchill:Wind:
Aussen-T/F 1976 26-09-2010 11:22:01 13.1 C 6.5 g/m*3 13.1 C 0 km/h
1977 26-09-2010 11:34:02 13.2 C 6.66 g/m*3 13.2 C 0 km/h
1978 26-09-2010 11:46:02 13.5 C 6.32 g/m*3 13.5 C 0 km/h
1979 26-09-2010 11:58:02 13.4 C 6.28 g/m*3 13.4 C 0 km/h
1980 26-09-2010 12:10:01 14 C 6.39 g/m*3 14 C 0 km/h
1981 26-09-2010 12:22:02 14.3 C 6.51 g/m*3 14.3 C 0 km/h
1982 26-09-2010 12:34:01 14.6 C 6.51 g/m*3 14.6 C 0 km/h
1983 26-09-2010 12:46:01 15 C 6.28 g/m*3 15 C 0 km/h
1984 26-09-2010 12:58:01 14.5 C 6.22 g/m*3 14.5 C 0 km/h
1985 26-09-2010 13:10:02 14.5 C 6.34 g/m*3 14.5 C 0 km/h
1986 26-09-2010 13:22:01 13.2 C 7.12 g/m*3 13.2 C 0 km/h
1987 26-09-2010 13:34:01 12.6 C 7.63 g/m*3 12.6 C 0 km/h
1988 26-09-2010 13:46:01 12.4 C 8.3 g/m*3 12.4 C 0 km/h
1989 26-09-2010 13:58:01 12.3 C 8.25 g/m*3 12.3 C 0 km/h
1990 26-09-2010 14:10:01 13.2 C 8.61 g/m*3 13.2 C 0 km/h
1991 26-09-2010 14:22:01 13.4 C 8.37 g/m*3 13.4 C 0 km/h
1992 26-09-2010 14:34:01 13.3 C 8.43 g/m*3 13.3 C 0 km/h
1993 26-09-2010 14:46:01 13.2 C 8.15 g/m*3 13.2 C 0 km/h
1994 26-09-2010 14:58:01 13.4 C 7.9 g/m*3 13.4 C 0 km/h
1995 26-09-2010 15:10:01 13.6 C 7.89 g/m*3 13.6 C 0 km/h
1996 26-09-2010 15:22:02 13.9 C 8.39 g/m*3 13.9 C 0 km/h
1997 26-09-2010 15:34:01 14.4 C 8.16 g/m*3 14.4 C 0 km/h
1998 26-09-2010 15:46:02 14.5 C 7.96 g/m*3 14.5 C 0 km/h
1999 26-09-2010 15:58:02 14.5 C 8.21 g/m*3 14.5 C 0 km/h
2000 26-09-2010 16:10:01 13.7 C 7.7 g/m*3 13.7 C 0 km/h
Sensor: Nr:Datum:Temp:Abs-Feuchte:Windchill:Wind:
Aussen-T/F 2001 26-09-2010 16:22:02 13.8 C 7.51 g/m*3 13.8 C 0 km/h
2002 26-09-2010 16:34:01 15.7 C 7.09 g/m*3 15.7 C 0 km/h
2003 26-09-2010 16:46:01 15.5 C 6.21 g/m*3 15.5 C 0 km/h
2004 26-09-2010 16:58:01 15.9 C 6.5 g/m*3 15.9 C 0 km/h
2005 26-09-2010 17:10:01 16.1 C 6.44 g/m*3 16.1 C 0 km/h
2006 26-09-2010 17:22:01 15.6 C 6.38 g/m*3 15.6 C 0 km/h
2007 26-09-2010 17:34:02 15.4 C 6.7 g/m*3 15.4 C 0 km/h
2008 26-09-2010 17:46:01 14.6 C 6.76 g/m*3 14.6 C 0 km/h
2009 26-09-2010 17:58:01 14.2 C 6.72 g/m*3 14.2 C 0 km/h
2010 26-09-2010 18:10:02 13.6 C 6.83 g/m*3 13.6 C 0 km/h
2011 26-09-2010 18:22:01 13.1 C 6.85 g/m*3 13.1 C 0 km/h
2012 26-09-2010 18:34:01 12.9 C 6.99 g/m*3 12.9 C 0 km/h
2013 26-09-2010 18:46:01 12.7 C 7.01 g/m*3 12.7 C 0 km/h
2014 26-09-2010 18:58:01 12.5 C 7.04 g/m*3 12.5 C 0 km/h
2015 26-09-2010 19:10:02 12.4 C 7.1 g/m*3 12.4 C 0 km/h
2016 26-09-2010 19:22:01 12.4 C 7.1 g/m*3 12.4 C 0 km/h
2017 26-09-2010 19:34:01 12.2 C 7.01 g/m*3 12.2 C 0 km/h
2018 26-09-2010 19:46:01 12.1 C 7.18 g/m*3 12.1 C 0 km/h
2019 26-09-2010 19:58:01 12.1 C 7.08 g/m*3 12.1 C 0 km/h
2020 26-09-2010 20:10:02 12 C 7.25 g/m*3 12 C 0 km/h
2021 26-09-2010 20:22:01 11.9 C 7.31 g/m*3 11.9 C 0 km/h
2022 26-09-2010 20:34:01 11.7 C 7.22 g/m*3 11.7 C 0 km/h
2023 26-09-2010 20:46:01 11.7 C 7.22 g/m*3 11.7 C 0 km/h
2024 26-09-2010 20:58:01 11.6 C 7.07 g/m*3 11.6 C 0 km/h
2025 26-09-2010 21:10:01 11.6 C 7.07 g/m*3 11.6 C 0 km/h
Sensor: Nr:Datum:Temp:Abs-Feuchte:Windchill:Wind:
Aussen-T/F 2026 26-09-2010 21:22:01 11.4 C 7.08 g/m*3 11.4 C 0 km/h
2027 26-09-2010 21:34:01 11.2 C 7.1 g/m*3 11.2 C 0 km/h
2028 26-09-2010 21:46:01 10.9 C 7.16 g/m*3 10.9 C 0 km/h
2029 26-09-2010 21:58:01 10.7 C 7.17 g/m*3 10.7 C 0 km/h
2030 26-09-2010 22:10:01 10.3 C 6.99 g/m*3 10.3 C 0 km/h
2031 26-09-2010 22:22:01 10 C 7.05 g/m*3 10 C 0 km/h
2032 26-09-2010 22:34:01 9.7 C 7.1 g/m*3 9.7 C 0 km/h
2033 26-09-2010 22:47:04 9.3 C 7.1 g/m*3 9.3 C 0 km/h
2034 26-09-2010 22:59:04 9.2 C 7.05 g/m*3 9.2 C 0 km/h
2035 26-09-2010 23:11:04 9 C 7.05 g/m*3 9 C 0 km/h
2036 26-09-2010 23:23:04 8.9 C 7.18 g/m*3 8.9 C 0 km/h
2037 26-09-2010 23:35:04 8.9 C 7.27 g/m*3 8.9 C 0 km/h
2038 26-09-2010 23:47:04 8.8 C 7.22 g/m*3 8.8 C 0 km/h
2039 26-09-2010 23:59:04 8.6 C 7.13 g/m*3 8.6 C 0 km/h
2040 27-09-2010 00:11:04 8.5 C 7.17 g/m*3 8.5 C 0 km/h
2041 27-09-2010 00:23:04 8.2 C 7.03 g/m*3 8.2 C 0 km/h
2042 27-09-2010 00:35:04 8.1 C 6.99 g/m*3 8.1 C 0 km/h
2043 27-09-2010 00:47:04 7.9 C 6.98 g/m*3 7.9 C 0 km/h
2044 27-09-2010 00:59:04 7.9 C 7.15 g/m*3 7.9 C 0 km/h
2045 27-09-2010 01:11:04 7.8 C 7.18 g/m*3 7.8 C 0 km/h
2046 27-09-2010 01:23:04 7.6 C 7.09 g/m*3 7.6 C 0 km/h
2047 27-09-2010 01:35:04 7.5 C 7.04 g/m*3 7.5 C 0 km/h
2048 27-09-2010 01:47:04 7.3 C 6.95 g/m*3 7.3 C 0 km/h
2049 27-09-2010 01:59:04 7.1 C 6.94 g/m*3 7.1 C 0 km/h
2050 27-09-2010 02:11:04 7 C 6.9 g/m*3 7 C 0 km/h
Sensor: Nr:Datum:Temp:Abs-Feuchte:Windchill:Wind:
Aussen-T/F 2051 27-09-2010 02:23:04 7 C 6.9 g/m*3 7 C 0 km/h
2052 27-09-2010 02:35:05 6.8 C 6.81 g/m*3 6.8 C 0 km/h
2053 27-09-2010 02:47:05 6.7 C 6.84 g/m*3 6.7 C 0 km/h
2054 27-09-2010 02:59:05 6.7 C 6.84 g/m*3 6.7 C 0 km/h
2055 27-09-2010 03:11:05 6.5 C 6.75 g/m*3 6.5 C 0 km/h
2056 27-09-2010 03:23:05 6.7 C 6.84 g/m*3 6.7 C 0 km/h
2057 27-09-2010 03:35:05 6.4 C 6.71 g/m*3 6.4 C 0 km/h
2058 27-09-2010 03:47:05 6.3 C 6.66 g/m*3 6.3 C 0 km/h
2059 27-09-2010 03:59:05 6.4 C 6.78 g/m*3 6.4 C 0 km/h
2060 27-09-2010 04:11:05 6.5 C 6.9 g/m*3 6.5 C 0 km/h
2061 27-09-2010 04:23:05 6.4 C 6.85 g/m*3 6.4 C 0 km/h
2062 27-09-2010 04:35:05 6.3 C 6.81 g/m*3 6.3 C 0 km/h
2063 27-09-2010 04:47:05 6.1 C 6.72 g/m*3 6.1 C 0 km/h
2064 27-09-2010 04:59:05 5.9 C 6.71 g/m*3 5.9 C 0 km/h
2065 27-09-2010 05:11:05 5.9 C 6.71 g/m*3 5.9 C 0 km/h
2066 27-09-2010 05:23:05 6.1 C 6.72 g/m*3 6.1 C 0 km/h
2067 27-09-2010 05:35:05 6.3 C 6.81 g/m*3 6.3 C 0 km/h
2068 27-09-2010 05:47:05 6.4 C 6.93 g/m*3 6.4 C 0 km/h
2069 27-09-2010 05:59:05 6.5 C 6.97 g/m*3 6.5 C 0 km/h
2070 27-09-2010 06:11:05 6.5 C 6.97 g/m*3 6.5 C 0 km/h
2071 27-09-2010 06:23:05 6.4 C 6.93 g/m*3 6.4 C 0 km/h
2072 27-09-2010 06:35:05 6.2 C 6.84 g/m*3 6.2 C 0 km/h
2073 27-09-2010 06:47:06 6.2 C 6.84 g/m*3 6.2 C 0 km/h
2074 27-09-2010 06:59:06 6.3 C 6.88 g/m*3 6.3 C 0 km/h
2075 27-09-2010 07:11:04 6.3 C 6.88 g/m*3 6.3 C 0 km/h
Sensor: Nr:Datum:Temp:Abs-Feuchte:Windchill:Wind:
Aussen-T/F 2076 27-09-2010 07:23:04 6.6 C 7.02 g/m*3 6.6 C 0 km/h
2077 27-09-2010 07:35:04 6.7 C 7.14 g/m*3 6.7 C 0 km/h
2078 27-09-2010 07:47:02 6.9 C 7.24 g/m*3 6.9 C 0 km/h
2079 27-09-2010 07:59:02 7.2 C 7.38 g/m*3 7.2 C 0 km/h
2080 27-09-2010 08:11:02 7.5 C 7.52 g/m*3 7.5 C 0 km/h
2081 27-09-2010 08:23:02 7.5 C 7.52 g/m*3 7.5 C 0 km/h
2082 27-09-2010 08:35:02 7.6 C 7.57 g/m*3 7.6 C 0 km/h
2083 27-09-2010 08:47:02 7.8 C 7.67 g/m*3 7.8 C 0 km/h
2084 27-09-2010 08:59:02 8.1 C 7.74 g/m*3 8.1 C 0 km/h
2085 27-09-2010 09:11:02 8.5 C 7.94 g/m*3 8.5 C 0 km/h
2086 27-09-2010 09:23:02 8.8 C 8.09 g/m*3 8.8 C 0 km/h
2087 27-09-2010 09:35:02 9.2 C 8.22 g/m*3 9.2 C 0 km/h
2088 27-09-2010 09:47:01 9.6 C 8.34 g/m*3 9.6 C 0 km/h
2089 27-09-2010 09:59:01 10.1 C 8.42 g/m*3 10.1 C 0 km/h
2090 27-09-2010 10:11:02 10.4 C 8.29 g/m*3 10.4 C 0 km/h
2091 27-09-2010 10:23:01 10.4 C 7.9 g/m*3 10.4 C 0 km/h
2092 27-09-2010 10:35:02 10.8 C 7.51 g/m*3 10.8 C 0 km/h
2093 27-09-2010 10:47:01 11 C 7.11 g/m*3 11 C 0 km/h
2094 27-09-2010 10:59:01 11.2 C 6.99 g/m*3 11.2 C 0 km/h
2095 27-09-2010 11:11:02 11.7 C 7.01 g/m*3 11.7 C 0 km/h
2096 27-09-2010 11:23:01 11.8 C 6.74 g/m*3 11.8 C 0 km/h
2097 27-09-2010 11:35:02 12.2 C 6.8 g/m*3 12.2 C 0 km/h
2098 27-09-2010 11:47:01 12 C 6.61 g/m*3 12 C 0 km/h
2099 27-09-2010 11:59:01 12.2 C 6.8 g/m*3 12.2 C 0 km/h
2100 27-09-2010 12:11:02 12.4 C 6.77 g/m*3 12.4 C 0 km/h
Sensor: Nr:Datum:Temp:Abs-Feuchte:Windchill:Wind:
Aussen-T/F 2101 27-09-2010 12:23:01 12.8 C 6.94 g/m*3 12.8 C 0 km/h
2102 27-09-2010 12:35:02 12.8 C 6.83 g/m*3 12.8 C 0 km/h
2103 27-09-2010 12:47:01 13 C 6.8 g/m*3 13 C 0 km/h
2104 27-09-2010 12:59:01 12.9 C 6.76 g/m*3 12.9 C 0 km/h
2105 27-09-2010 13:11:02 13.1 C 6.73 g/m*3 13.1 C 0 km/h
2106 27-09-2010 13:23:02 13.4 C 6.97 g/m*3 13.4 C 0 km/h
2107 27-09-2010 13:35:01 13.6 C 6.71 g/m*3 13.6 C 0 km/h
2108 27-09-2010 13:47:02 13.6 C 6.71 g/m*3 13.6 C 0 km/h
2109 27-09-2010 13:59:02 13.7 C 6.51 g/m*3 13.7 C 0 km/h
2110 27-09-2010 14:11:01 13.4 C 6.51 g/m*3 13.4 C 0 km/h
2111 27-09-2010 14:23:02 13.3 C 6.7 g/m*3 13.3 C 0 km/h
2112 27-09-2010 14:35:01 13.4 C 6.74 g/m*3 13.4 C 0 km/h
2113 27-09-2010 14:47:03 13.2 C 6.77 g/m*3 13.2 C 0 km/h
2114 27-09-2010 14:59:03 13 C 6.58 g/m*3 13 C 0 km/h
2115 27-09-2010 15:11:02 13.4 C 6.74 g/m*3 13.4 C 0 km/h
2116 27-09-2010 15:23:02 13.6 C 6.59 g/m*3 13.6 C 0 km/h
2117 27-09-2010 15:35:02 13.6 C 6.47 g/m*3 13.6 C 0 km/h
2118 27-09-2010 15:47:02 13.2 C 6.66 g/m*3 13.2 C 0 km/h
2119 27-09-2010 15:59:02 13.2 C 6.77 g/m*3 13.2 C 0 km/h
2120 27-09-2010 16:11:01 13.4 C 6.97 g/m*3 13.4 C 0 km/h
2121 27-09-2010 16:23:02 13.4 C 7.44 g/m*3 13.4 C 0 km/h
2122 27-09-2010 16:35:02 13.4 C 7.44 g/m*3 13.4 C 0 km/h
2123 27-09-2010 16:47:01 13.3 C 7.05 g/m*3 13.3 C 0 km/h
2124 27-09-2010 16:59:01 13.4 C 7.09 g/m*3 13.4 C 0 km/h
2125 27-09-2010 17:11:01 13.2 C 7.58 g/m*3 13.2 C 0 km/h
Sensor: Nr:Datum:Temp:Abs-Feuchte:Windchill:Wind:
Aussen-T/F 2126 27-09-2010 17:23:01 13 C 7.6 g/m*3 13 C 0 km/h
2127 27-09-2010 17:35:02 12.8 C 7.73 g/m*3 12.8 C 0 km/h
2128 27-09-2010 17:47:02 12.8 C 7.84 g/m*3 12.8 C 0 km/h
2129 27-09-2010 17:59:02 12.7 C 7.68 g/m*3 12.7 C 0 km/h
2130 27-09-2010 18:11:02 12.5 C 7.59 g/m*3 12.5 C 0 km/h
2131 27-09-2010 18:23:01 12.3 C 7.71 g/m*3 12.3 C 0 km/h
2132 27-09-2010 18:35:02 11.9 C 7.73 g/m*3 11.9 C 0 km/h
2133 27-09-2010 18:47:02 11.7 C 7.74 g/m*3 11.7 C 0 km/h
2134 27-09-2010 18:59:02 11.3 C 7.85 g/m*3 11.3 C 0 km/h
2135 27-09-2010 19:11:02 10.8 C 8.01 g/m*3 10.8 C 0 km/h
2136 27-09-2010 19:23:02 10.7 C 8.15 g/m*3 10.7 C 0 km/h
2137 27-09-2010 19:35:02 10.5 C 8.15 g/m*3 10.5 C 0 km/h
2138 27-09-2010 19:47:02 10.5 C 8.15 g/m*3 10.5 C 0 km/h
2139 27-09-2010 19:59:02 10.4 C 8.19 g/m*3 10.4 C 0 km/h
2140 27-09-2010 20:11:02 10.3 C 8.24 g/m*3 10.3 C 0 km/h
2141 27-09-2010 20:23:02 10.3 C 8.33 g/m*3 10.3 C 0 km/h
2142 27-09-2010 20:35:02 10.3 C 8.43 g/m*3 10.3 C 0 km/h
2143 27-09-2010 20:47:01 10.3 C 8.43 g/m*3 10.3 C 0 km/h
2144 27-09-2010 20:59:01 10.3 C 8.52 g/m*3 10.3 C 0 km/h
2145 27-09-2010 21:11:02 10.4 C 8.58 g/m*3 10.4 C 0 km/h
2146 27-09-2010 21:23:01 10.2 C 8.47 g/m*3 10.2 C 0 km/h
2147 27-09-2010 21:35:02 10.3 C 8.52 g/m*3 10.3 C 0 km/h
2148 27-09-2010 21:47:02 10.4 C 8.58 g/m*3 10.4 C 0 km/h
2149 27-09-2010 21:59:03 10.4 C 8.58 g/m*3 10.4 C 0 km/h
2150 27-09-2010 22:11:02 10.4 C 8.58 g/m*3 10.4 C 0 km/h
Sensor: Nr:Datum:Temp:Abs-Feuchte:Windchill:Wind:
Aussen-T/F 2151 27-09-2010 22:24:10 10.4 C 8.67 g/m*3 10.4 C 0 km/h
2152 27-09-2010 22:36:10 10.2 C 8.56 g/m*3 10.2 C 0 km/h
2153 27-09-2010 22:48:10 10.2 C 8.56 g/m*3 10.2 C 0 km/h
2154 27-09-2010 23:00:10 10.2 C 8.56 g/m*3 10.2 C 0 km/h
2155 27-09-2010 23:12:10 10.2 C 8.66 g/m*3 10.2 C 0 km/h
2156 27-09-2010 23:24:10 10.2 C 8.66 g/m*3 10.2 C 0 km/h
2157 27-09-2010 23:36:10 10.1 C 8.61 g/m*3 10.1 C 0 km/h
2158 27-09-2010 23:48:10 10.1 C 8.7 g/m*3 10.1 C 0 km/h
2159 28-09-2010 00:00:10 10.1 C 8.7 g/m*3 10.1 C 0 km/h
2160 28-09-2010 00:12:10 10 C 8.64 g/m*3 10 C 0 km/h
2161 28-09-2010 00:24:10 10 C 8.64 g/m*3 10 C 0 km/h
2162 28-09-2010 00:36:10 10 C 8.64 g/m*3 10 C 0 km/h
2163 28-09-2010 00:48:10 9.9 C 8.78 g/m*3 9.9 C 0 km/h
2164 28-09-2010 01:00:10 10 C 8.74 g/m*3 10 C 0 km/h
2165 28-09-2010 01:12:11 10 C 8.74 g/m*3 10 C 0 km/h
2166 28-09-2010 01:24:11 10 C 8.74 g/m*3 10 C 0 km/h
2167 28-09-2010 01:36:11 10 C 8.74 g/m*3 10 C 0 km/h
2168 28-09-2010 01:48:11 9.9 C 8.78 g/m*3 9.9 C 0 km/h
2169 28-09-2010 02:00:11 9.9 C 8.78 g/m*3 9.9 C 0 km/h
2170 28-09-2010 02:12:11 9.9 C 8.78 g/m*3 9.9 C 0 km/h
2171 28-09-2010 02:24:11 9.9 C 8.78 g/m*3 9.9 C 0 km/h
2172 28-09-2010 02:36:11 9.9 C 8.78 g/m*3 9.9 C 0 km/h
2173 28-09-2010 02:48:11 9.9 C 8.78 g/m*3 9.9 C 0 km/h
2174 28-09-2010 03:00:11 9.9 C 8.87 g/m*3 9.9 C 0 km/h
2175 28-09-2010 03:12:11 9.9 C 8.87 g/m*3 9.9 C 0 km/h
Sensor: Nr:Datum:Temp:Abs-Feuchte:Windchill:Wind:
Aussen-T/F 2176 28-09-2010 03:24:11 9.9 C 8.87 g/m*3 9.9 C 0 km/h
2177 28-09-2010 03:36:12 9.9 C 8.87 g/m*3 9.9 C 0 km/h
2178 28-09-2010 03:48:12 9.9 C 8.87 g/m*3 9.9 C 0 km/h
2179 28-09-2010 04:00:12 9.9 C 8.87 g/m*3 9.9 C 0 km/h
2180 28-09-2010 04:12:12 9.9 C 8.87 g/m*3 9.9 C 0 km/h
2181 28-09-2010 04:24:12 9.9 C 8.87 g/m*3 9.9 C 0 km/h
2182 28-09-2010 04:36:12 9.9 C 8.87 g/m*3 9.9 C 0 km/h
2183 28-09-2010 04:48:12 10 C 8.83 g/m*3 10 C 0 km/h
2184 28-09-2010 05:00:12 10 C 8.93 g/m*3 10 C 0 km/h
2185 28-09-2010 05:12:12 10 C 8.93 g/m*3 10 C 0 km/h
2186 28-09-2010 05:24:12 10 C 8.93 g/m*3 10 C 0 km/h
2187 28-09-2010 05:36:12 10 C 8.93 g/m*3 10 C 0 km/h
2188 28-09-2010 05:48:12 10 C 8.93 g/m*3 10 C 0 km/h
2189 28-09-2010 06:00:12 10.1 C 8.98 g/m*3 10.1 C 0 km/h
2190 28-09-2010 06:12:12 10.1 C 8.98 g/m*3 10.1 C 0 km/h
2191 28-09-2010 06:24:12 10.1 C 8.98 g/m*3 10.1 C 0 km/h
2192 28-09-2010 06:36:12 10.1 C 8.98 g/m*3 10.1 C 0 km/h
2193 28-09-2010 06:48:12 10 C 8.93 g/m*3 10 C 0 km/h
2194 28-09-2010 07:00:12 10 C 8.93 g/m*3 10 C 0 km/h
2195 28-09-2010 07:12:12 10 C 8.93 g/m*3 10 C 0 km/h
2196 28-09-2010 07:24:12 10 C 8.93 g/m*3 10 C 0 km/h
2197 28-09-2010 07:36:13 10 C 8.93 g/m*3 10 C 0 km/h
2198 28-09-2010 07:48:01 10 C 8.93 g/m*3 10 C 0 km/h
2199 28-09-2010 08:00:01 10 C 8.93 g/m*3 10 C 0 km/h
2200 28-09-2010 08:12:02 10 C 8.93 g/m*3 10 C 0 km/h
Sensor: Nr:Datum:Temp:Abs-Feuchte:Windchill:Wind:
Aussen-T/F 2201 28-09-2010 08:24:02 10 C 8.93 g/m*3 10 C 0 km/h
2202 28-09-2010 08:36:02 10.1 C 8.98 g/m*3 10.1 C 0 km/h
2203 28-09-2010 08:48:03 10.1 C 8.98 g/m*3 10.1 C 0 km/h
2204 28-09-2010 09:00:03 10.1 C 8.98 g/m*3 10.1 C 0 km/h
2205 28-09-2010 09:12:03 10.2 C 9.04 g/m*3 10.2 C 0 km/h
2206 28-09-2010 09:24:02 10.2 C 9.04 g/m*3 10.2 C 0 km/h
2207 28-09-2010 09:36:02 10.3 C 9.1 g/m*3 10.3 C 0 km/h
2208 28-09-2010 09:48:02 10.4 C 9.16 g/m*3 10.4 C 0 km/h
2209 28-09-2010 10:00:02 10.4 C 9.16 g/m*3 10.4 C 0 km/h
2210 28-09-2010 10:12:02 10.5 C 9.21 g/m*3 10.5 C 0 km/h
2211 28-09-2010 10:24:01 10.5 C 9.21 g/m*3 10.5 C 0 km/h
2212 28-09-2010 10:36:02 10.7 C 9.33 g/m*3 10.7 C 0 km/h
2213 28-09-2010 10:48:02 10.8 C 9.39 g/m*3 10.8 C 0 km/h
2214 28-09-2010 11:00:02 11 C 9.51 g/m*3 11 C 0 km/h
2215 28-09-2010 11:12:02 11 C 9.51 g/m*3 11 C 0 km/h
2216 28-09-2010 11:24:02 11.2 C 9.63 g/m*3 11.2 C 0 km/h
2217 28-09-2010 11:36:02 11.3 C 9.69 g/m*3 11.3 C 0 km/h
2218 28-09-2010 11:48:02 11.4 C 9.75 g/m*3 11.4 C 0 km/h
2219 28-09-2010 12:00:02 11.4 C 9.75 g/m*3 11.4 C 0 km/h
2220 28-09-2010 12:12:02 11.4 C 9.65 g/m*3 11.4 C 0 km/h
2221 28-09-2010 12:24:02 11.4 C 9.65 g/m*3 11.4 C 0 km/h
2222 28-09-2010 12:36:02 11.5 C 9.71 g/m*3 11.5 C 0 km/h
2223 28-09-2010 12:48:02 11.7 C 9.83 g/m*3 11.7 C 0 km/h
2224 28-09-2010 13:00:02 11.6 C 9.67 g/m*3 11.6 C 0 km/h
2225 28-09-2010 13:12:02 11.6 C 9.67 g/m*3 11.6 C 0 km/h
Sensor: Nr:Datum:Temp:Abs-Feuchte:Windchill:Wind:
Aussen-T/F 2226 28-09-2010 13:24:03 11.8 C 9.79 g/m*3 11.8 C 0 km/h
2227 28-09-2010 13:36:02 11.8 C 9.68 g/m*3 11.8 C 0 km/h
2228 28-09-2010 13:48:03 11.9 C 9.74 g/m*3 11.9 C 0 km/h
2229 28-09-2010 14:00:03 11.9 C 9.74 g/m*3 11.9 C 0 km/h
2230 28-09-2010 14:12:02 11.8 C 9.68 g/m*3 11.8 C 0 km/h
2231 28-09-2010 14:24:02 11.7 C 9.62 g/m*3 11.7 C 0 km/h
2232 28-09-2010 14:36:02 11.7 C 9.62 g/m*3 11.7 C 0 km/h
2233 28-09-2010 14:48:02 11.7 C 9.62 g/m*3 11.7 C 0 km/h
2234 28-09-2010 15:00:02 11.7 C 9.62 g/m*3 11.7 C 0 km/h
2235 28-09-2010 15:12:02 11.7 C 9.73 g/m*3 11.7 C 0 km/h
2236 28-09-2010 15:24:02 11.7 C 9.73 g/m*3 11.7 C 0 km/h
2237 28-09-2010 15:36:02 11.8 C 9.79 g/m*3 11.8 C 0 km/h
2238 28-09-2010 15:48:02 11.8 C 9.79 g/m*3 11.8 C 0 km/h
2239 28-09-2010 16:00:02 11.8 C 9.79 g/m*3 11.8 C 0 km/h
2240 28-09-2010 16:12:01 11.8 C 9.79 g/m*3 11.8 C 0 km/h
2241 28-09-2010 16:24:01 11.8 C 9.79 g/m*3 11.8 C 0 km/h
2242 28-09-2010 16:36:02 11.9 C 9.96 g/m*3 11.9 C 0 km/h
2243 28-09-2010 16:48:02 11.9 C 9.96 g/m*3 11.9 C 0 km/h
2244 28-09-2010 17:00:02 11.9 C 9.96 g/m*3 11.9 C 0 km/h
2245 28-09-2010 17:12:02 12 C 10.02 g/m*3 12 C 0 km/h
2246 28-09-2010 17:24:02 12 C 10.02 g/m*3 12 C 0 km/h
2247 28-09-2010 17:36:02 12 C 10.02 g/m*3 12 C 0 km/h
2248 28-09-2010 17:48:02 12 C 10.02 g/m*3 12 C 0 km/h
2249 28-09-2010 18:00:02 11.9 C 9.96 g/m*3 11.9 C 0 km/h
2250 28-09-2010 18:12:02 11.9 C 9.96 g/m*3 11.9 C 0 km/h
Sensor: Nr:Datum:Temp:Abs-Feuchte:Windchill:Wind:
Aussen-T/F 2251 28-09-2010 18:24:02 11.9 C 10.06 g/m*3 11.9 C 0 km/h
2252 28-09-2010 18:36:02 11.8 C 10 g/m*3 11.8 C 0 km/h
2253 28-09-2010 18:48:01 11.8 C 10 g/m*3 11.8 C 0 km/h
2254 28-09-2010 19:00:01 11.8 C 10 g/m*3 11.8 C 0 km/h
2255 28-09-2010 19:12:02 11.7 C 9.94 g/m*3 11.7 C 0 km/h
2256 28-09-2010 19:24:01 11.7 C 9.94 g/m*3 11.7 C 0 km/h
2257 28-09-2010 19:36:01 11.7 C 9.94 g/m*3 11.7 C 0 km/h
2258 28-09-2010 19:48:01 11.7 C 9.94 g/m*3 11.7 C 0 km/h
2259 28-09-2010 20:00:01 11.6 C 9.87 g/m*3 11.6 C 0 km/h
2260 28-09-2010 20:12:02 11.6 C 9.87 g/m*3 11.6 C 0 km/h
2261 28-09-2010 20:24:02 11.6 C 9.87 g/m*3 11.6 C 0 km/h
2262 28-09-2010 20:36:01 11.6 C 9.87 g/m*3 11.6 C 0 km/h
2263 28-09-2010 20:48:01 11.6 C 9.87 g/m*3 11.6 C 0 km/h
2264 28-09-2010 21:00:01 11.6 C 9.87 g/m*3 11.6 C 0 km/h
2265 28-09-2010 21:12:01 11.6 C 9.87 g/m*3 11.6 C 0 km/h
2266 28-09-2010 21:24:02 11.6 C 9.87 g/m*3 11.6 C 0 km/h
2267 28-09-2010 21:36:01 11.5 C 9.81 g/m*3 11.5 C 0 km/h
2268 28-09-2010 21:48:03 11.6 C 9.87 g/m*3 11.6 C 0 km/h
2269 28-09-2010 22:00:03 11.6 C 9.87 g/m*3 11.6 C 0 km/h
2270 28-09-2010 22:12:02 11.6 C 9.87 g/m*3 11.6 C 0 km/h
2271 28-09-2010 22:24:03 11.6 C 9.87 g/m*3 11.6 C 0 km/h
2272 28-09-2010 22:36:02 11.7 C 9.94 g/m*3 11.7 C 0 km/h
2273 28-09-2010 22:48:03 11.6 C 9.87 g/m*3 11.6 C 0 km/h
2274 28-09-2010 23:00:03 11.6 C 9.87 g/m*3 11.6 C 0 km/h
2275 28-09-2010 23:12:02 11.6 C 9.87 g/m*3 11.6 C 0 km/h
Sensor: Nr:Datum:Temp:Abs-Feuchte:Windchill:Wind:
Aussen-T/F 2276 28-09-2010 23:24:02 11.6 C 9.87 g/m*3 11.6 C 0 km/h
2277 28-09-2010 23:36:02 11.6 C 9.87 g/m*3 11.6 C 0 km/h
2278 28-09-2010 23:48:02 11.6 C 9.87 g/m*3 11.6 C 0 km/h
2279 29-09-2010 00:00:02 11.6 C 9.87 g/m*3 11.6 C 0 km/h
2280 29-09-2010 00:12:02 11.7 C 9.94 g/m*3 11.7 C 0 km/h
2281 29-09-2010 00:24:02 11.6 C 9.87 g/m*3 11.6 C 0 km/h
2282 29-09-2010 00:36:02 11.7 C 9.94 g/m*3 11.7 C 0 km/h
2283 29-09-2010 00:48:02 11.6 C 9.87 g/m*3 11.6 C 0 km/h
2284 29-09-2010 01:00:02 11.7 C 9.94 g/m*3 11.7 C 0 km/h
2285 29-09-2010 01:12:03 11.6 C 9.87 g/m*3 11.6 C 0 km/h
2286 29-09-2010 01:24:02 11.6 C 9.87 g/m*3 11.6 C 0 km/h
2287 29-09-2010 01:36:02 11.6 C 9.87 g/m*3 11.6 C 0 km/h
2288 29-09-2010 01:48:01 11.6 C 9.87 g/m*3 11.6 C 0 km/h
2289 29-09-2010 02:00:01 11.6 C 9.87 g/m*3 11.6 C 0 km/h
2290 29-09-2010 02:12:02 11.6 C 9.87 g/m*3 11.6 C 0 km/h
2291 29-09-2010 02:24:01 11.5 C 9.81 g/m*3 11.5 C 0 km/h
2292 29-09-2010 02:36:02 11.5 C 9.81 g/m*3 11.5 C 0 km/h
2293 29-09-2010 02:48:01 11.6 C 9.87 g/m*3 11.6 C 0 km/h
2294 29-09-2010 03:00:01 11.4 C 9.75 g/m*3 11.4 C 0 km/h
2295 29-09-2010 03:12:01 11.3 C 9.69 g/m*3 11.3 C 0 km/h
2296 29-09-2010 03:24:02 11.4 C 9.75 g/m*3 11.4 C 0 km/h
2297 29-09-2010 03:36:01 11.7 C 9.94 g/m*3 11.7 C 0 km/h
2298 29-09-2010 03:48:01 11.6 C 9.87 g/m*3 11.6 C 0 km/h
2299 29-09-2010 04:00:01 11.6 C 9.87 g/m*3 11.6 C 0 km/h
2300 29-09-2010 04:12:02 11.6 C 9.87 g/m*3 11.6 C 0 km/h
Sensor: Nr:Datum:Temp:Abs-Feuchte:Windchill:Wind:
Aussen-T/F 2301 29-09-2010 04:24:01 11.6 C 9.87 g/m*3 11.6 C 0 km/h
2302 29-09-2010 04:36:01 11.3 C 9.69 g/m*3 11.3 C 0 km/h
2303 29-09-2010 04:48:01 11.3 C 9.69 g/m*3 11.3 C 0 km/h
2304 29-09-2010 05:00:01 11.4 C 9.75 g/m*3 11.4 C 0 km/h
2305 29-09-2010 05:12:02 11.4 C 9.75 g/m*3 11.4 C 0 km/h
2306 29-09-2010 05:24:01 11.4 C 9.75 g/m*3 11.4 C 0 km/h
2307 29-09-2010 05:36:01 11.4 C 9.75 g/m*3 11.4 C 0 km/h
2308 29-09-2010 05:48:01 11.4 C 9.75 g/m*3 11.4 C 0 km/h
2309 29-09-2010 06:00:01 11.7 C 9.94 g/m*3 11.7 C 0 km/h
2310 29-09-2010 06:12:01 11.6 C 9.87 g/m*3 11.6 C 0 km/h
2311 29-09-2010 06:24:02 11.5 C 9.81 g/m*3 11.5 C 0 km/h
2312 29-09-2010 06:36:01 11.5 C 9.81 g/m*3 11.5 C 0 km/h
2313 29-09-2010 06:48:02 11.3 C 9.69 g/m*3 11.3 C 0 km/h
2314 29-09-2010 07:00:02 11.1 C 9.57 g/m*3 11.1 C 0 km/h
2315 29-09-2010 07:12:01 10.8 C 9.39 g/m*3 10.8 C 0 km/h
2316 29-09-2010 07:24:02 11 C 9.51 g/m*3 11 C 0 km/h
2317 29-09-2010 07:36:01 11.2 C 9.63 g/m*3 11.2 C 0 km/h
2318 29-09-2010 07:48:02 11.1 C 9.57 g/m*3 11.1 C 0 km/h
2319 29-09-2010 08:00:02 11 C 9.51 g/m*3 11 C 0 km/h
2320 29-09-2010 08:12:01 11.2 C 9.63 g/m*3 11.2 C 0 km/h
2321 29-09-2010 08:24:01 11.2 C 9.63 g/m*3 11.2 C 0 km/h
2322 29-09-2010 08:36:01 11.1 C 9.57 g/m*3 11.1 C 0 km/h
2323 29-09-2010 08:48:02 11.4 C 9.75 g/m*3 11.4 C 0 km/h
2324 29-09-2010 09:00:02 11.6 C 9.87 g/m*3 11.6 C 0 km/h
2325 29-09-2010 09:12:01 11.2 C 9.53 g/m*3 11.2 C 0 km/h
Sensor: Nr:Datum:Temp:Abs-Feuchte:Windchill:Wind:
Aussen-T/F 2326 29-09-2010 09:24:01 10.8 C 9.19 g/m*3 10.8 C 0 km/h
2327 29-09-2010 09:36:02 11.7 C 9.62 g/m*3 11.7 C 0 km/h
2328 29-09-2010 09:48:01 11.9 C 9.64 g/m*3 11.9 C 0 km/h
2329 29-09-2010 10:00:01 12.1 C 9.22 g/m*3 12.1 C 0 km/h
2330 29-09-2010 10:12:02 12.5 C 8.91 g/m*3 12.5 C 0 km/h
2331 29-09-2010 10:24:01 12.9 C 8.79 g/m*3 12.9 C 0 km/h
2332 29-09-2010 10:36:02 13.4 C 8.95 g/m*3 13.4 C 0 km/h
2333 29-09-2010 10:48:01 13.7 C 9 g/m*3 13.7 C 0 km/h
2334 29-09-2010 11:00:01 13.8 C 8.94 g/m*3 13.8 C 0 km/h
2335 29-09-2010 11:12:02 13.7 C 8.53 g/m*3 13.7 C 0 km/h
2336 29-09-2010 11:24:01 13.8 C 8.46 g/m*3 13.8 C 0 km/h
2337 29-09-2010 11:36:01 14.1 C 8.01 g/m*3 14.1 C 0 km/h
2338 29-09-2010 11:48:01 14.4 C 8.16 g/m*3 14.4 C 0 km/h
2339 29-09-2010 12:00:01 14.5 C 8.21 g/m*3 14.5 C 0 km/h
2340 29-09-2010 12:12:01 14.6 C 8.01 g/m*3 14.6 C 0 km/h
2341 29-09-2010 12:24:01 14.1 C 7.52 g/m*3 14.1 C 0 km/h
2342 29-09-2010 12:36:01 14 C 8.08 g/m*3 14 C 0 km/h
2343 29-09-2010 12:48:01 14.8 C 8.36 g/m*3 14.8 C 0 km/h
2344 29-09-2010 13:00:01 15.4 C 8.15 g/m*3 15.4 C 0 km/h
2345 29-09-2010 13:12:01 15.7 C 7.89 g/m*3 15.7 C 0 km/h
2346 29-09-2010 13:24:02 15.8 C 7.81 g/m*3 15.8 C 0 km/h
2347 29-09-2010 13:36:01 15.9 C 7.99 g/m*3 15.9 C 0 km/h
2348 29-09-2010 13:48:02 15.9 C 7.58 g/m*3 15.9 C 0 km/h
2349 29-09-2010 14:00:02 16.3 C 7.35 g/m*3 16.3 C 0 km/h
2350 29-09-2010 14:12:01 15.6 C 7.58 g/m*3 15.6 C 0 km/h
Sensor: Nr:Datum:Temp:Abs-Feuchte:Windchill:Wind:
Aussen-T/F 2351 29-09-2010 14:24:02 15.8 C 7.94 g/m*3 15.8 C 0 km/h
2352 29-09-2010 14:36:01 17.4 C 7.85 g/m*3 17.4 C 0 km/h
2353 29-09-2010 14:48:02 19 C 7.33 g/m*3 19 C 0 km/h
2354 29-09-2010 15:00:02 18.8 C 6.76 g/m*3 18.8 C 0 km/h
2355 29-09-2010 15:12:01 18.8 C 6.93 g/m*3 18.8 C 0 km/h
2356 29-09-2010 15:24:01 18.9 C 6.97 g/m*3 18.9 C 0 km/h
2357 29-09-2010 15:36:02 19.6 C 6.92 g/m*3 19.6 C 0 km/h
2358 29-09-2010 15:48:01 19.7 C 6.79 g/m*3 19.7 C 0 km/h
2359 29-09-2010 16:00:02 18.8 C 7.41 g/m*3 18.8 C 0 km/h
2360 29-09-2010 16:12:01 18.1 C 7.26 g/m*3 18.1 C 0 km/h
2361 29-09-2010 16:24:01 18.1 C 7.57 g/m*3 18.1 C 0 km/h
2362 29-09-2010 16:36:02 17.6 C 7.95 g/m*3 17.6 C 0 km/h
2363 29-09-2010 16:48:01 18.1 C 7.88 g/m*3 18.1 C 0 km/h
2364 29-09-2010 17:00:02 19 C 7.33 g/m*3 19 C 0 km/h
2365 29-09-2010 17:12:01 19.4 C 7.01 g/m*3 19.4 C 0 km/h
2366 29-09-2010 17:24:01 18.6 C 7.16 g/m*3 18.6 C 0 km/h
2367 29-09-2010 17:36:02 17.6 C 7.95 g/m*3 17.6 C 0 km/h
2368 29-09-2010 17:48:01 16.9 C 8.05 g/m*3 16.9 C 0 km/h
2369 29-09-2010 18:00:01 15.9 C 7.58 g/m*3 15.9 C 0 km/h
2370 29-09-2010 18:12:04 15.2 C 7.92 g/m*3 15.2 C 0 km/h
2371 29-09-2010 18:24:02 14.4 C 7.91 g/m*3 14.4 C 0 km/h
2372 29-09-2010 18:36:02 14 C 7.84 g/m*3 14 C 0 km/h
2373 29-09-2010 18:48:01 13.6 C 7.89 g/m*3 13.6 C 0 km/h
2374 29-09-2010 19:00:01 13.2 C 7.81 g/m*3 13.2 C 0 km/h
2375 29-09-2010 19:12:01 13.1 C 7.76 g/m*3 13.1 C 0 km/h
Sensor: Nr:Datum:Temp:Abs-Feuchte:Windchill:Wind:
Aussen-T/F 2376 29-09-2010 19:24:01 13 C 7.71 g/m*3 13 C 0 km/h
2377 29-09-2010 19:36:02 13 C 7.6 g/m*3 13 C 0 km/h
2378 29-09-2010 19:48:01 13.1 C 7.53 g/m*3 13.1 C 0 km/h
2379 29-09-2010 20:00:01 13.3 C 7.63 g/m*3 13.3 C 0 km/h
2380 29-09-2010 20:12:02 13.2 C 7.81 g/m*3 13.2 C 0 km/h
2381 29-09-2010 20:24:01 13.2 C 7.81 g/m*3 13.2 C 0 km/h
2382 29-09-2010 20:36:02 13 C 7.6 g/m*3 13 C 0 km/h
2383 29-09-2010 20:48:01 12.9 C 7.66 g/m*3 12.9 C 0 km/h
2384 29-09-2010 21:00:01 12.9 C 7.66 g/m*3 12.9 C 0 km/h
2385 29-09-2010 21:12:02 12.8 C 7.84 g/m*3 12.8 C 0 km/h
2386 29-09-2010 21:24:01 12.4 C 7.98 g/m*3 12.4 C 0 km/h
2387 29-09-2010 21:38:05 12.2 C 8.09 g/m*3 12.2 C 0 km/h
2388 29-09-2010 21:50:05 12.2 C 8.09 g/m*3 12.2 C 0 km/h
2389 29-09-2010 22:02:05 12.3 C 8.25 g/m*3 12.3 C 0 km/h
2390 29-09-2010 22:14:05 12.4 C 8.3 g/m*3 12.4 C 0 km/h
2391 29-09-2010 22:26:05 12.4 C 8.41 g/m*3 12.4 C 0 km/h
2392 29-09-2010 22:38:06 12.5 C 8.47 g/m*3 12.5 C 0 km/h
2393 29-09-2010 22:50:06 12.3 C 8.36 g/m*3 12.3 C 0 km/h
2394 29-09-2010 23:02:06 12 C 8.21 g/m*3 12 C 0 km/h
2395 29-09-2010 23:14:06 11.8 C 8.31 g/m*3 11.8 C 0 km/h
2396 29-09-2010 23:26:06 11.8 C 8.42 g/m*3 11.8 C 0 km/h
2397 29-09-2010 23:38:06 12 C 8.31 g/m*3 12 C 0 km/h
2398 29-09-2010 23:50:06 12.2 C 8.42 g/m*3 12.2 C 0 km/h
2399 30-09-2010 00:02:06 12.4 C 8.52 g/m*3 12.4 C 0 km/h
2400 30-09-2010 00:14:06 12.3 C 8.47 g/m*3 12.3 C 0 km/h
Sensor: Nr:Datum:Temp:Abs-Feuchte:Windchill:Wind:
Aussen-T/F 2401 30-09-2010 00:26:06 12.1 C 8.36 g/m*3 12.1 C 0 km/h
2402 30-09-2010 00:38:06 12.1 C 8.47 g/m*3 12.1 C 0 km/h
2403 30-09-2010 00:50:06 11.9 C 8.37 g/m*3 11.9 C 0 km/h
2404 30-09-2010 01:02:06 11.7 C 8.37 g/m*3 11.7 C 0 km/h
2405 30-09-2010 01:14:06 11.8 C 7.89 g/m*3 11.8 C 0 km/h
2406 30-09-2010 01:26:06 11.8 C 7.79 g/m*3 11.8 C 0 km/h
2407 30-09-2010 01:38:06 12 C 7.46 g/m*3 12 C 0 km/h
2408 30-09-2010 01:50:06 12 C 7.25 g/m*3 12 C 0 km/h
2409 30-09-2010 02:02:06 12.1 C 7.4 g/m*3 12.1 C 0 km/h
2410 30-09-2010 02:14:06 11.5 C 7.54 g/m*3 11.5 C 0 km/h
2411 30-09-2010 02:26:06 11.4 C 7.7 g/m*3 11.4 C 0 km/h
2412 30-09-2010 02:38:06 11.1 C 7.66 g/m*3 11.1 C 0 km/h
2413 30-09-2010 02:50:07 11.2 C 7.8 g/m*3 11.2 C 0 km/h
2414 30-09-2010 03:02:07 11.3 C 7.85 g/m*3 11.3 C 0 km/h
2415 30-09-2010 03:14:07 11.2 C 7.91 g/m*3 11.2 C 0 km/h
2416 30-09-2010 03:26:07 11 C 7.81 g/m*3 11 C 0 km/h
2417 30-09-2010 03:38:07 11.1 C 7.86 g/m*3 11.1 C 0 km/h
2418 30-09-2010 03:50:07 11.2 C 7.91 g/m*3 11.2 C 0 km/h
2419 30-09-2010 04:02:07 11.3 C 7.96 g/m*3 11.3 C 0 km/h
2420 30-09-2010 04:14:07 11.2 C 7.91 g/m*3 11.2 C 0 km/h
2421 30-09-2010 04:26:07 11 C 7.81 g/m*3 11 C 0 km/h
2422 30-09-2010 04:38:07 10.8 C 7.81 g/m*3 10.8 C 0 km/h
2423 30-09-2010 04:50:07 10.8 C 7.91 g/m*3 10.8 C 0 km/h
2424 30-09-2010 05:02:07 10.8 C 7.91 g/m*3 10.8 C 0 km/h
2425 30-09-2010 05:14:07 10.8 C 7.91 g/m*3 10.8 C 0 km/h
Sensor: Nr:Datum:Temp:Abs-Feuchte:Windchill:Wind:
Aussen-T/F 2426 30-09-2010 05:26:07 10.8 C 7.81 g/m*3 10.8 C 0 km/h
2427 30-09-2010 05:38:07 10.7 C 7.76 g/m*3 10.7 C 0 km/h
2428 30-09-2010 05:50:07 10.7 C 7.56 g/m*3 10.7 C 0 km/h
2429 30-09-2010 06:02:07 10.8 C 7.31 g/m*3 10.8 C 0 km/h
2430 30-09-2010 06:14:07 10.8 C 7.31 g/m*3 10.8 C 0 km/h
2431 30-09-2010 06:26:07 10.7 C 7.27 g/m*3 10.7 C 0 km/h
2432 30-09-2010 06:38:05 10.6 C 7.32 g/m*3 10.6 C 0 km/h
2433 30-09-2010 06:50:02 10.6 C 7.42 g/m*3 10.6 C 0 km/h
2434 30-09-2010 07:02:02 10.7 C 7.56 g/m*3 10.7 C 0 km/h
2435 30-09-2010 07:14:02 10.7 C 7.66 g/m*3 10.7 C 0 km/h
2436 30-09-2010 07:26:02 10.6 C 7.61 g/m*3 10.6 C 0 km/h
2437 30-09-2010 07:38:02 10.6 C 7.71 g/m*3 10.6 C 0 km/h
2438 30-09-2010 07:50:01 10.7 C 7.76 g/m*3 10.7 C 0 km/h
2439 30-09-2010 08:02:01 10.7 C 7.66 g/m*3 10.7 C 0 km/h
2440 30-09-2010 08:14:02 10.9 C 7.76 g/m*3 10.9 C 0 km/h
2441 30-09-2010 08:26:01 10.9 C 7.76 g/m*3 10.9 C 0 km/h
2442 30-09-2010 08:38:01 11 C 7.81 g/m*3 11 C 0 km/h
2443 30-09-2010 08:50:01 11 C 7.81 g/m*3 11 C 0 km/h
2444 30-09-2010 09:02:01 11.2 C 7.91 g/m*3 11.2 C 0 km/h
2445 30-09-2010 09:14:01 11.4 C 8.01 g/m*3 11.4 C 0 km/h
2446 30-09-2010 09:26:01 11.4 C 7.8 g/m*3 11.4 C 0 km/h
2447 30-09-2010 09:38:01 11.5 C 7.75 g/m*3 11.5 C 0 km/h
2448 30-09-2010 09:50:02 11.5 C 7.85 g/m*3 11.5 C 0 km/h
2449 30-09-2010 10:02:02 11.4 C 8.01 g/m*3 11.4 C 0 km/h
2450 30-09-2010 10:14:02 11.4 C 8.11 g/m*3 11.4 C 0 km/h
Sensor: Nr:Datum:Temp:Abs-Feuchte:Windchill:Wind:
Aussen-T/F 2451 30-09-2010 10:26:03 11.7 C 8.37 g/m*3 11.7 C 0 km/h
2452 30-09-2010 10:38:02 11.8 C 8.42 g/m*3 11.8 C 0 km/h
2453 30-09-2010 10:50:02 11.9 C 8.47 g/m*3 11.9 C 0 km/h
2454 30-09-2010 11:02:02 12 C 8.42 g/m*3 12 C 0 km/h
2455 30-09-2010 11:14:02 12 C 8.42 g/m*3 12 C 0 km/h
2456 30-09-2010 11:26:02 11.8 C 8.42 g/m*3 11.8 C 0 km/h
2457 30-09-2010 11:38:01 11.7 C 8.47 g/m*3 11.7 C 0 km/h
2458 30-09-2010 11:50:02 11.8 C 8.63 g/m*3 11.8 C 0 km/h
2459 30-09-2010 12:02:01 11.9 C 8.79 g/m*3 11.9 C 0 km/h
2460 30-09-2010 12:14:01 11.9 C 8.9 g/m*3 11.9 C 0 km/h
2461 30-09-2010 12:26:02 12 C 8.95 g/m*3 12 C 0 km/h
2462 30-09-2010 12:38:02 12.1 C 9.01 g/m*3 12.1 C 0 km/h
2463 30-09-2010 12:50:02 12 C 9.06 g/m*3 12 C 0 km/h
2464 30-09-2010 13:02:02 12.4 C 9.4 g/m*3 12.4 C 0 km/h
2465 30-09-2010 13:14:02 12.6 C 9.51 g/m*3 12.6 C 0 km/h
2466 30-09-2010 13:26:02 12.6 C 9.51 g/m*3 12.6 C 0 km/h
2467 30-09-2010 13:38:02 12.6 C 9.62 g/m*3 12.6 C 0 km/h
2468 30-09-2010 13:50:01 12.7 C 9.68 g/m*3 12.7 C 0 km/h
2469 30-09-2010 14:02:02 12.9 C 9.81 g/m*3 12.9 C 0 km/h
2470 30-09-2010 14:14:02 13 C 9.87 g/m*3 13 C 0 km/h
2471 30-09-2010 14:26:01 12.8 C 9.86 g/m*3 12.8 C 0 km/h
2472 30-09-2010 14:38:01 12.9 C 9.92 g/m*3 12.9 C 0 km/h
2473 30-09-2010 14:50:01 13.1 C 10.04 g/m*3 13.1 C 0 km/h
2474 30-09-2010 15:02:02 13.2 C 10.1 g/m*3 13.2 C 0 km/h
2475 30-09-2010 15:14:03 13.2 C 10.1 g/m*3 13.2 C 0 km/h
Sensor: Nr:Datum:Temp:Abs-Feuchte:Windchill:Wind:
Aussen-T/F 2476 30-09-2010 15:26:01 13.4 C 10.23 g/m*3 13.4 C 0 km/h
2477 30-09-2010 15:38:01 13.3 C 10.17 g/m*3 13.3 C 0 km/h
2478 30-09-2010 15:50:01 13.2 C 9.99 g/m*3 13.2 C 0 km/h
2479 30-09-2010 16:02:01 13.5 C 10.29 g/m*3 13.5 C 0 km/h
2480 30-09-2010 16:14:01 13.5 C 10.29 g/m*3 13.5 C 0 km/h
2481 30-09-2010 16:26:02 13.6 C 10.24 g/m*3 13.6 C 0 km/h
2482 30-09-2010 16:38:01 13.3 C 10.05 g/m*3 13.3 C 0 km/h
2483 30-09-2010 16:50:03 13.1 C 9.93 g/m*3 13.1 C 0 km/h
2484 30-09-2010 17:02:02 13.1 C 9.93 g/m*3 13.1 C 0 km/h
2485 30-09-2010 17:14:02 13 C 9.98 g/m*3 13 C 0 km/h
2486 30-09-2010 17:26:02 13 C 9.98 g/m*3 13 C 0 km/h
2487 30-09-2010 17:38:02 12.9 C 10.03 g/m*3 12.9 C 0 km/h
2488 30-09-2010 17:50:02 12.8 C 9.97 g/m*3 12.8 C 0 km/h
2489 30-09-2010 18:02:02 12.7 C 9.91 g/m*3 12.7 C 0 km/h
2490 30-09-2010 18:14:02 12.5 C 9.78 g/m*3 12.5 C 0 km/h
2491 30-09-2010 18:26:02 12.5 C 9.78 g/m*3 12.5 C 0 km/h
2492 30-09-2010 18:38:02 12.4 C 9.83 g/m*3 12.4 C 0 km/h
2493 30-09-2010 18:50:01 12.3 C 9.77 g/m*3 12.3 C 0 km/h
2494 30-09-2010 19:02:02 12.2 C 9.71 g/m*3 12.2 C 0 km/h
2495 30-09-2010 19:14:02 12.1 C 9.76 g/m*3 12.1 C 0 km/h
2496 30-09-2010 19:26:02 12.1 C 9.76 g/m*3 12.1 C 0 km/h
2497 30-09-2010 19:38:02 12.2 C 9.82 g/m*3 12.2 C 0 km/h
2498 30-09-2010 19:50:02 12.1 C 9.87 g/m*3 12.1 C 0 km/h
2499 30-09-2010 20:02:02 12.2 C 9.93 g/m*3 12.2 C 0 km/h
2500 30-09-2010 20:14:02 12.2 C 9.93 g/m*3 12.2 C 0 km/h
Sensor: Nr:Datum:Temp:Abs-Feuchte:Windchill:Wind:
Aussen-T/F 2501 30-09-2010 20:26:02 12.1 C 9.87 g/m*3 12.1 C 0 km/h
2502 30-09-2010 20:38:01 12.1 C 9.87 g/m*3 12.1 C 0 km/h
2503 30-09-2010 20:50:02 12.2 C 10.04 g/m*3 12.2 C 0 km/h
2504 30-09-2010 21:02:01 12.1 C 9.97 g/m*3 12.1 C 0 km/h
2505 30-09-2010 21:14:01 12.1 C 9.97 g/m*3 12.1 C 0 km/h
2506 30-09-2010 21:26:02 12.1 C 9.97 g/m*3 12.1 C 0 km/h
2507 30-09-2010 21:38:01 12.1 C 9.97 g/m*3 12.1 C 0 km/h
2508 30-09-2010 21:50:02 12 C 9.91 g/m*3 12 C 0 km/h
2509 30-09-2010 22:02:02 12 C 9.91 g/m*3 12 C 0 km/h
2510 30-09-2010 22:14:02 12 C 9.91 g/m*3 12 C 0 km/h
2511 30-09-2010 22:26:02 11.9 C 9.96 g/m*3 11.9 C 0 km/h
2512 30-09-2010 22:38:02 11.9 C 9.96 g/m*3 11.9 C 0 km/h
2513 30-09-2010 22:50:01 12 C 9.91 g/m*3 12 C 0 km/h
2514 30-09-2010 23:03:03 12 C 9.91 g/m*3 12 C 0 km/h
2515 30-09-2010 23:15:03 11.9 C 9.96 g/m*3 11.9 C 0 km/h
2516 30-09-2010 23:27:03 12 C 10.02 g/m*3 12 C 0 km/h
2517 30-09-2010 23:39:03 12.1 C 10.08 g/m*3 12.1 C 0 km/h
2518 30-09-2010 23:51:03 12 C 10.02 g/m*3 12 C 0 km/h
2519 01-10-2010 00:03:03 12.1 C 10.08 g/m*3 12.1 C 0 km/h
2520 01-10-2010 00:15:03 12 C 10.02 g/m*3 12 C 0 km/h
2521 01-10-2010 00:27:03 12.1 C 10.08 g/m*3 12.1 C 0 km/h
2522 01-10-2010 00:39:03 12.1 C 10.08 g/m*3 12.1 C 0 km/h
2523 01-10-2010 00:51:03 11.8 C 10 g/m*3 11.8 C 0 km/h
2524 01-10-2010 01:03:03 11.6 C 9.87 g/m*3 11.6 C 0 km/h
2525 01-10-2010 01:15:04 11.7 C 9.94 g/m*3 11.7 C 0 km/h
Sensor: Nr:Datum:Temp:Abs-Feuchte:Windchill:Wind:
Aussen-T/F 2526 01-10-2010 01:27:04 11.6 C 9.87 g/m*3 11.6 C 0 km/h
2527 01-10-2010 01:39:04 11.5 C 9.81 g/m*3 11.5 C 0 km/h
2528 01-10-2010 01:51:04 11.5 C 9.81 g/m*3 11.5 C 0 km/h
2529 01-10-2010 02:03:04 11.5 C 9.81 g/m*3 11.5 C 0 km/h
2530 01-10-2010 02:15:04 11.4 C 9.75 g/m*3 11.4 C 0 km/h
2531 01-10-2010 02:27:04 11.4 C 9.75 g/m*3 11.4 C 0 km/h
2532 01-10-2010 02:39:04 11.4 C 9.75 g/m*3 11.4 C 0 km/h
2533 01-10-2010 02:51:04 11.5 C 9.81 g/m*3 11.5 C 0 km/h
2534 01-10-2010 03:03:04 11.5 C 9.81 g/m*3 11.5 C 0 km/h
2535 01-10-2010 03:15:04 11.5 C 9.81 g/m*3 11.5 C 0 km/h
2536 01-10-2010 03:27:04 11.5 C 9.81 g/m*3 11.5 C 0 km/h
2537 01-10-2010 03:39:04 11.5 C 9.81 g/m*3 11.5 C 0 km/h
2538 01-10-2010 03:51:04 11.8 C 10 g/m*3 11.8 C 0 km/h
2539 01-10-2010 04:03:04 11.7 C 9.94 g/m*3 11.7 C 0 km/h
2540 01-10-2010 04:15:04 11.7 C 9.94 g/m*3 11.7 C 0 km/h
2541 01-10-2010 04:27:04 11.7 C 9.94 g/m*3 11.7 C 0 km/h
2542 01-10-2010 04:39:04 11.7 C 9.94 g/m*3 11.7 C 0 km/h
2543 01-10-2010 04:51:04 11.7 C 9.94 g/m*3 11.7 C 0 km/h
2544 01-10-2010 05:03:04 11.7 C 9.94 g/m*3 11.7 C 0 km/h
2545 01-10-2010 05:15:04 11.7 C 9.94 g/m*3 11.7 C 0 km/h
2546 01-10-2010 05:27:04 11.7 C 9.94 g/m*3 11.7 C 0 km/h
2547 01-10-2010 05:39:04 11.5 C 9.81 g/m*3 11.5 C 0 km/h
2548 01-10-2010 05:51:05 11.5 C 9.81 g/m*3 11.5 C 0 km/h
2549 01-10-2010 06:03:05 11.4 C 9.75 g/m*3 11.4 C 0 km/h
2550 01-10-2010 06:15:05 11.4 C 9.75 g/m*3 11.4 C 0 km/h
Sensor: Nr:Datum:Temp:Abs-Feuchte:Windchill:Wind:
Aussen-T/F 2551 01-10-2010 06:27:05 11.4 C 9.75 g/m*3 11.4 C 0 km/h
2552 01-10-2010 06:39:05 11.4 C 9.75 g/m*3 11.4 C 0 km/h
2553 01-10-2010 06:51:05 11.4 C 9.75 g/m*3 11.4 C 0 km/h
2554 01-10-2010 07:03:05 11.3 C 9.69 g/m*3 11.3 C 0 km/h
2555 01-10-2010 07:15:02 11.3 C 9.69 g/m*3 11.3 C 0 km/h
2556 01-10-2010 07:27:02 11 C 9.51 g/m*3 11 C 0 km/h
2557 01-10-2010 07:39:02 10.8 C 9.39 g/m*3 10.8 C 0 km/h
2558 01-10-2010 07:51:02 10.6 C 9.27 g/m*3 10.6 C 0 km/h
2559 01-10-2010 08:03:02 10.4 C 9.16 g/m*3 10.4 C 0 km/h
2560 01-10-2010 08:15:02 10.3 C 9.1 g/m*3 10.3 C 0 km/h
2561 01-10-2010 08:27:02 10.2 C 9.04 g/m*3 10.2 C 0 km/h
2562 01-10-2010 08:39:02 10.2 C 9.04 g/m*3 10.2 C 0 km/h
2563 01-10-2010 08:51:02 10.4 C 9.16 g/m*3 10.4 C 0 km/h
2564 01-10-2010 09:03:02 10.7 C 9.33 g/m*3 10.7 C 0 km/h
2565 01-10-2010 09:15:01 11.1 C 9.57 g/m*3 11.1 C 0 km/h
2566 01-10-2010 09:27:01 11.3 C 9.69 g/m*3 11.3 C 0 km/h
2567 01-10-2010 09:39:02 11.4 C 9.75 g/m*3 11.4 C 0 km/h
2568 01-10-2010 09:51:02 11.7 C 9.94 g/m*3 11.7 C 0 km/h
2569 01-10-2010 10:03:02 11.7 C 9.94 g/m*3 11.7 C 0 km/h
2570 01-10-2010 10:15:02 11.7 C 9.83 g/m*3 11.7 C 0 km/h
2571 01-10-2010 10:27:02 11.6 C 9.56 g/m*3 11.6 C 0 km/h
2572 01-10-2010 10:39:02 11.7 C 9.52 g/m*3 11.7 C 0 km/h
2573 01-10-2010 10:51:02 11.9 C 9.32 g/m*3 11.9 C 0 km/h
2574 01-10-2010 11:03:02 12.1 C 9.12 g/m*3 12.1 C 0 km/h
2575 01-10-2010 11:15:02 12.2 C 8.85 g/m*3 12.2 C 0 km/h
Sensor: Nr:Datum:Temp:Abs-Feuchte:Windchill:Wind:
Aussen-T/F 2576 01-10-2010 11:27:02 12.5 C 8.91 g/m*3 12.5 C 0 km/h
2577 01-10-2010 11:39:02 12.5 C 8.69 g/m*3 12.5 C 0 km/h
2578 01-10-2010 11:51:02 13 C 8.62 g/m*3 13 C 0 km/h
2579 01-10-2010 12:03:02 12.8 C 8.51 g/m*3 12.8 C 0 km/h
2580 01-10-2010 12:15:02 12.8 C 8.62 g/m*3 12.8 C 0 km/h
2581 01-10-2010 12:27:02 12.7 C 8.46 g/m*3 12.7 C 0 km/h
2582 01-10-2010 12:39:02 12.4 C 8.41 g/m*3 12.4 C 0 km/h
2583 01-10-2010 12:51:02 12.7 C 8.46 g/m*3 12.7 C 0 km/h
2584 01-10-2010 13:03:01 12.8 C 8.4 g/m*3 12.8 C 0 km/h
2585 01-10-2010 13:15:02 13.3 C 8.32 g/m*3 13.3 C 0 km/h
2586 01-10-2010 13:27:02 13.4 C 8.14 g/m*3 13.4 C 0 km/h
2587 01-10-2010 13:39:01 13.1 C 7.76 g/m*3 13.1 C 0 km/h
2588 01-10-2010 13:51:02 13.3 C 7.97 g/m*3 13.3 C 0 km/h
2589 01-10-2010 14:03:01 13.1 C 7.87 g/m*3 13.1 C 0 km/h
2590 01-10-2010 14:15:01 13.2 C 8.04 g/m*3 13.2 C 0 km/h
2591 01-10-2010 14:27:01 13.3 C 7.86 g/m*3 13.3 C 0 km/h
2592 01-10-2010 14:39:02 13.2 C 7.92 g/m*3 13.2 C 0 km/h
2593 01-10-2010 14:51:02 13.8 C 7.98 g/m*3 13.8 C 0 km/h
2594 01-10-2010 15:03:02 14.4 C 7.91 g/m*3 14.4 C 0 km/h
2595 01-10-2010 15:15:02 15.2 C 7.92 g/m*3 15.2 C 0 km/h
2596 01-10-2010 15:27:02 15.3 C 7.7 g/m*3 15.3 C 0 km/h
2597 01-10-2010 15:39:02 15.7 C 7.76 g/m*3 15.7 C 0 km/h
2598 01-10-2010 15:51:02 15.9 C 7.58 g/m*3 15.9 C 0 km/h
2599 01-10-2010 16:03:02 16 C 7.49 g/m*3 16 C 0 km/h
2600 01-10-2010 16:15:02 16.2 C 7.17 g/m*3 16.2 C 0 km/h
Sensor: Nr:Datum:Temp:Abs-Feuchte:Windchill:Wind:
Aussen-T/F 2601 01-10-2010 16:27:02 17.1 C 7.42 g/m*3 17.1 C 0 km/h
2602 01-10-2010 16:39:02 17.2 C 7.91 g/m*3 17.2 C 0 km/h
2603 01-10-2010 16:51:02 17.2 C 8.05 g/m*3 17.2 C 0 km/h
2604 01-10-2010 17:03:02 17.5 C 7.9 g/m*3 17.5 C 0 km/h
2605 01-10-2010 17:15:02 16.6 C 8.19 g/m*3 16.6 C 0 km/h
2606 01-10-2010 17:27:02 16 C 8.31 g/m*3 16 C 0 km/h
2607 01-10-2010 17:39:02 15.4 C 8.54 g/m*3 15.4 C 0 km/h
2608 01-10-2010 17:51:02 15.2 C 8.7 g/m*3 15.2 C 0 km/h
2609 01-10-2010 18:03:02 14.8 C 8.74 g/m*3 14.8 C 0 km/h
2610 01-10-2010 18:15:02 14.7 C 8.94 g/m*3 14.7 C 0 km/h
2611 01-10-2010 18:27:02 14.5 C 8.83 g/m*3 14.5 C 0 km/h
2612 01-10-2010 18:39:01 14.1 C 8.74 g/m*3 14.1 C 0 km/h
2613 01-10-2010 18:51:02 13.6 C 8.71 g/m*3 13.6 C 0 km/h
2614 01-10-2010 19:03:01 12.8 C 8.62 g/m*3 12.8 C 0 km/h
2615 01-10-2010 19:15:02 12.5 C 8.58 g/m*3 12.5 C 0 km/h
2616 01-10-2010 19:27:02 12.2 C 8.52 g/m*3 12.2 C 0 km/h
2617 01-10-2010 19:39:02 11.8 C 8.53 g/m*3 11.8 C 0 km/h
2618 01-10-2010 19:51:02 11.6 C 8.52 g/m*3 11.6 C 0 km/h
2619 01-10-2010 20:03:02 11.4 C 8.42 g/m*3 11.4 C 0 km/h
2620 01-10-2010 20:15:02 11.3 C 8.47 g/m*3 11.3 C 0 km/h
2621 01-10-2010 20:27:02 11.2 C 8.51 g/m*3 11.2 C 0 km/h
2622 01-10-2010 20:39:02 11.2 C 8.51 g/m*3 11.2 C 0 km/h
2623 01-10-2010 20:51:01 11.2 C 8.62 g/m*3 11.2 C 0 km/h
2624 01-10-2010 21:03:02 11.1 C 8.56 g/m*3 11.1 C 0 km/h
2625 01-10-2010 21:15:01 11 C 8.51 g/m*3 11 C 0 km/h
Sensor: Nr:Datum:Temp:Abs-Feuchte:Windchill:Wind:
Aussen-T/F 2626 01-10-2010 21:27:01 10.8 C 8.5 g/m*3 10.8 C 0 km/h
2627 01-10-2010 21:39:01 10.7 C 8.55 g/m*3 10.7 C 0 km/h
2628 01-10-2010 21:51:01 10.7 C 8.55 g/m*3 10.7 C 0 km/h
2629 01-10-2010 22:03:02 10.8 C 8.7 g/m*3 10.8 C 0 km/h
2630 01-10-2010 22:15:02 10.9 C 8.75 g/m*3 10.9 C 0 km/h
2631 01-10-2010 22:27:02 11 C 8.81 g/m*3 11 C 0 km/h
2632 01-10-2010 22:39:01 11.1 C 8.76 g/m*3 11.1 C 0 km/h
2633 01-10-2010 22:52:04 11.1 C 8.76 g/m*3 11.1 C 0 km/h
2634 01-10-2010 23:04:04 11.1 C 8.76 g/m*3 11.1 C 0 km/h
2635 01-10-2010 23:16:04 11.1 C 8.76 g/m*3 11.1 C 0 km/h
2636 01-10-2010 23:28:04 11 C 8.71 g/m*3 11 C 0 km/h
2637 01-10-2010 23:40:04 11 C 8.71 g/m*3 11 C 0 km/h
2638 01-10-2010 23:52:04 11.1 C 8.76 g/m*3 11.1 C 0 km/h
2639 02-10-2010 00:04:04 11.2 C 8.82 g/m*3 11.2 C 0 km/h
2640 02-10-2010 00:16:04 11.2 C 8.72 g/m*3 11.2 C 0 km/h
2641 02-10-2010 00:28:04 11.2 C 8.72 g/m*3 11.2 C 0 km/h
2642 02-10-2010 00:40:04 11.1 C 8.66 g/m*3 11.1 C 0 km/h
2643 02-10-2010 00:52:04 10.9 C 8.65 g/m*3 10.9 C 0 km/h
2644 02-10-2010 01:04:04 10.9 C 8.65 g/m*3 10.9 C 0 km/h
2645 02-10-2010 01:16:04 11 C 8.71 g/m*3 11 C 0 km/h
2646 02-10-2010 01:28:05 10.9 C 8.75 g/m*3 10.9 C 0 km/h
2647 02-10-2010 01:40:05 11 C 8.81 g/m*3 11 C 0 km/h
2648 02-10-2010 01:52:05 10.8 C 8.8 g/m*3 10.8 C 0 km/h
2649 02-10-2010 02:04:05 10.8 C 8.8 g/m*3 10.8 C 0 km/h
2650 02-10-2010 02:16:05 10.8 C 8.9 g/m*3 10.8 C 0 km/h
Sensor: Nr:Datum:Temp:Abs-Feuchte:Windchill:Wind:
Aussen-T/F 2651 02-10-2010 02:28:05 11 C 9.01 g/m*3 11 C 0 km/h
2652 02-10-2010 02:40:05 11.1 C 9.07 g/m*3 11.1 C 0 km/h
2653 02-10-2010 02:52:05 11.1 C 9.07 g/m*3 11.1 C 0 km/h
2654 02-10-2010 03:04:05 11.1 C 9.07 g/m*3 11.1 C 0 km/h
2655 02-10-2010 03:16:05 11.1 C 9.17 g/m*3 11.1 C 0 km/h
2656 02-10-2010 03:28:05 11.1 C 9.17 g/m*3 11.1 C 0 km/h
2657 02-10-2010 03:40:05 11.1 C 9.17 g/m*3 11.1 C 0 km/h
2658 02-10-2010 03:52:05 11.1 C 9.17 g/m*3 11.1 C 0 km/h
2659 02-10-2010 04:04:05 11.1 C 9.27 g/m*3 11.1 C 0 km/h
2660 02-10-2010 04:16:05 11.1 C 9.27 g/m*3 11.1 C 0 km/h
2661 02-10-2010 04:28:05 11.1 C 9.27 g/m*3 11.1 C 0 km/h
2662 02-10-2010 04:40:05 11.1 C 9.27 g/m*3 11.1 C 0 km/h
2663 02-10-2010 04:52:05 11 C 9.21 g/m*3 11 C 0 km/h
2664 02-10-2010 05:04:05 11 C 9.21 g/m*3 11 C 0 km/h
2665 02-10-2010 05:16:05 11 C 9.31 g/m*3 11 C 0 km/h
2666 02-10-2010 05:28:05 11 C 9.31 g/m*3 11 C 0 km/h
2667 02-10-2010 05:40:05 10.9 C 9.35 g/m*3 10.9 C 0 km/h
2668 02-10-2010 05:52:05 11 C 9.31 g/m*3 11 C 0 km/h
2669 02-10-2010 06:04:06 11 C 9.31 g/m*3 11 C 0 km/h
2670 02-10-2010 06:16:06 11 C 9.41 g/m*3 11 C 0 km/h
2671 02-10-2010 06:28:06 11 C 9.41 g/m*3 11 C 0 km/h
2672 02-10-2010 06:40:06 11 C 9.41 g/m*3 11 C 0 km/h
2673 02-10-2010 06:52:06 11 C 9.41 g/m*3 11 C 0 km/h
2674 02-10-2010 07:04:06 11 C 9.41 g/m*3 11 C 0 km/h
2675 02-10-2010 07:16:06 11.1 C 9.47 g/m*3 11.1 C 0 km/h
Sensor: Nr:Datum:Temp:Abs-Feuchte:Windchill:Wind:
Aussen-T/F 2676 02-10-2010 07:28:06 11.2 C 9.63 g/m*3 11.2 C 0 km/h
2677 02-10-2010 07:40:03 11.2 C 9.63 g/m*3 11.2 C 0 km/h
2678 02-10-2010 07:52:02 11.2 C 9.63 g/m*3 11.2 C 0 km/h
2679 02-10-2010 08:04:02 11.3 C 9.69 g/m*3 11.3 C 0 km/h
2680 02-10-2010 08:16:03 11.3 C 9.69 g/m*3 11.3 C 0 km/h
2681 02-10-2010 08:28:03 11.4 C 9.75 g/m*3 11.4 C 0 km/h
2682 02-10-2010 08:40:02 11.5 C 9.81 g/m*3 11.5 C 0 km/h
2683 02-10-2010 08:52:02 11.8 C 10 g/m*3 11.8 C 0 km/h
2684 02-10-2010 09:04:02 11.8 C 10 g/m*3 11.8 C 0 km/h
2685 02-10-2010 09:16:02 11.8 C 10 g/m*3 11.8 C 0 km/h
2686 02-10-2010 09:28:02 12 C 10.12 g/m*3 12 C 0 km/h
2687 02-10-2010 09:40:02 12.1 C 10.19 g/m*3 12.1 C 0 km/h
2688 02-10-2010 09:52:02 12.3 C 10.32 g/m*3 12.3 C 0 km/h
2689 02-10-2010 10:04:02 12.6 C 10.51 g/m*3 12.6 C 0 km/h
2690 02-10-2010 10:16:02 13 C 10.66 g/m*3 13 C 0 km/h
2691 02-10-2010 10:28:02 13 C 10.66 g/m*3 13 C 0 km/h
2692 02-10-2010 10:40:01 13.3 C 10.86 g/m*3 13.3 C 0 km/h
2693 02-10-2010 10:52:02 13.8 C 11.08 g/m*3 13.8 C 0 km/h
2694 02-10-2010 11:04:01 14 C 11.1 g/m*3 14 C 0 km/h
2695 02-10-2010 11:16:01 14.4 C 11.37 g/m*3 14.4 C 0 km/h
2696 02-10-2010 11:28:01 14.4 C 11.37 g/m*3 14.4 C 0 km/h
2697 02-10-2010 11:40:02 14.4 C 11.25 g/m*3 14.4 C 0 km/h
2698 02-10-2010 11:52:02 14.4 C 11.25 g/m*3 14.4 C 0 km/h
2699 02-10-2010 12:04:02 14.5 C 11.32 g/m*3 14.5 C 0 km/h
2700 02-10-2010 12:16:02 14.7 C 11.46 g/m*3 14.7 C 0 km/h
Sensor: Nr:Datum:Temp:Abs-Feuchte:Windchill:Wind:
Aussen-T/F 2701 02-10-2010 12:28:02 15.2 C 11.68 g/m*3 15.2 C 0 km/h
2702 02-10-2010 12:40:02 15.4 C 11.69 g/m*3 15.4 C 0 km/h
2703 02-10-2010 12:52:02 15.4 C 11.43 g/m*3 15.4 C 0 km/h
2704 02-10-2010 13:04:02 15.5 C 11.5 g/m*3 15.5 C 0 km/h
2705 02-10-2010 13:16:02 15.6 C 11.57 g/m*3 15.6 C 0 km/h
2706 02-10-2010 13:28:02 15.7 C 11.64 g/m*3 15.7 C 0 km/h
2707 02-10-2010 13:40:02 15.9 C 11.65 g/m*3 15.9 C 0 km/h
2708 02-10-2010 13:52:01 16 C 11.31 g/m*3 16 C 0 km/h
2709 02-10-2010 14:04:01 15.7 C 11.24 g/m*3 15.7 C 0 km/h
2710 02-10-2010 14:16:02 15.4 C 11.17 g/m*3 15.4 C 0 km/h
2711 02-10-2010 14:28:02 15.4 C 11.3 g/m*3 15.4 C 0 km/h
2712 02-10-2010 14:40:01 15.7 C 11.64 g/m*3 15.7 C 0 km/h
2713 02-10-2010 14:52:03 16 C 11.72 g/m*3 16 C 0 km/h
2714 02-10-2010 15:04:02 15.8 C 11.71 g/m*3 15.8 C 0 km/h
2715 02-10-2010 15:16:02 15.9 C 11.65 g/m*3 15.9 C 0 km/h
2716 02-10-2010 15:28:02 16 C 11.44 g/m*3 16 C 0 km/h
2717 02-10-2010 15:40:02 16.2 C 11.31 g/m*3 16.2 C 0 km/h
2718 02-10-2010 15:52:02 16.1 C 11.24 g/m*3 16.1 C 0 km/h
2719 02-10-2010 16:04:02 16.2 C 11.31 g/m*3 16.2 C 0 km/h
2720 02-10-2010 16:16:02 16.1 C 10.97 g/m*3 16.1 C 0 km/h
2721 02-10-2010 16:28:02 16.2 C 11.03 g/m*3 16.2 C 0 km/h
2722 02-10-2010 16:40:02 16.4 C 11.17 g/m*3 16.4 C 0 km/h
2723 02-10-2010 16:52:02 16.3 C 10.96 g/m*3 16.3 C 0 km/h
2724 02-10-2010 17:04:01 16.4 C 11.03 g/m*3 16.4 C 0 km/h
2725 02-10-2010 17:16:01 16.3 C 10.82 g/m*3 16.3 C 0 km/h
Sensor: Nr:Datum:Temp:Abs-Feuchte:Windchill:Wind:
Aussen-T/F 2726 02-10-2010 17:28:01 16.3 C 10.96 g/m*3 16.3 C 0 km/h
2727 02-10-2010 17:40:02 16.3 C 10.96 g/m*3 16.3 C 0 km/h
2728 02-10-2010 17:52:02 16.1 C 10.83 g/m*3 16.1 C 0 km/h
2729 02-10-2010 18:04:02 15.9 C 10.97 g/m*3 15.9 C 0 km/h
2730 02-10-2010 18:16:02 15.6 C 10.91 g/m*3 15.6 C 0 km/h
2731 02-10-2010 18:28:02 15.3 C 10.84 g/m*3 15.3 C 0 km/h
2732 02-10-2010 18:40:02 15.2 C 10.9 g/m*3 15.2 C 0 km/h
2733 02-10-2010 18:52:02 15.1 C 10.97 g/m*3 15.1 C 0 km/h
2734 02-10-2010 19:04:02 15 C 10.9 g/m*3 15 C 0 km/h
2735 02-10-2010 19:16:02 15 C 10.9 g/m*3 15 C 0 km/h
2736 02-10-2010 19:28:02 15 C 10.9 g/m*3 15 C 0 km/h
2737 02-10-2010 19:40:02 14.9 C 10.96 g/m*3 14.9 C 0 km/h
2738 02-10-2010 19:52:01 14.8 C 11.02 g/m*3 14.8 C 0 km/h
2739 02-10-2010 20:04:01 14.8 C 11.02 g/m*3 14.8 C 0 km/h
2740 02-10-2010 20:16:02 14.9 C 11.22 g/m*3 14.9 C 0 km/h
2741 02-10-2010 20:28:02 14.9 C 11.22 g/m*3 14.9 C 0 km/h
2742 02-10-2010 20:40:01 14.8 C 11.02 g/m*3 14.8 C 0 km/h
2743 02-10-2010 20:52:01 14.6 C 11.01 g/m*3 14.6 C 0 km/h
2744 02-10-2010 21:04:01 14.6 C 11.01 g/m*3 14.6 C 0 km/h
2745 02-10-2010 21:16:02 14.5 C 10.94 g/m*3 14.5 C 0 km/h
2746 02-10-2010 21:28:02 14.5 C 11.07 g/m*3 14.5 C 0 km/h
2747 02-10-2010 21:40:01 14.5 C 11.07 g/m*3 14.5 C 0 km/h
2748 02-10-2010 21:53:02 14.4 C 11 g/m*3 14.4 C 0 km/h
2749 02-10-2010 22:05:02 14.4 C 11 g/m*3 14.4 C 0 km/h
2750 02-10-2010 22:17:02 14.4 C 11.13 g/m*3 14.4 C 0 km/h
Sensor: Nr:Datum:Temp:Abs-Feuchte:Windchill:Wind:
Aussen-T/F 2751 02-10-2010 22:29:02 14.4 C 11.13 g/m*3 14.4 C 0 km/h
2752 02-10-2010 22:41:02 14.5 C 11.19 g/m*3 14.5 C 0 km/h
2753 02-10-2010 22:53:02 14.7 C 11.33 g/m*3 14.7 C 0 km/h
2754 02-10-2010 23:05:02 14.7 C 11.33 g/m*3 14.7 C 0 km/h
2755 02-10-2010 23:17:02 14.6 C 11.14 g/m*3 14.6 C 0 km/h
2756 02-10-2010 23:29:03 14.5 C 11.07 g/m*3 14.5 C 0 km/h
2757 02-10-2010 23:41:03 14.5 C 11.07 g/m*3 14.5 C 0 km/h
2758 02-10-2010 23:53:03 14.5 C 11.07 g/m*3 14.5 C 0 km/h
2759 03-10-2010 00:05:03 14.6 C 11.14 g/m*3 14.6 C 0 km/h
2760 03-10-2010 00:17:03 14.4 C 11 g/m*3 14.4 C 0 km/h
2761 03-10-2010 00:29:03 14.3 C 10.93 g/m*3 14.3 C 0 km/h
2762 03-10-2010 00:41:03 14.4 C 11.13 g/m*3 14.4 C 0 km/h
2763 03-10-2010 00:53:03 14.5 C 11.19 g/m*3 14.5 C 0 km/h
2764 03-10-2010 01:05:03 14.5 C 11.07 g/m*3 14.5 C 0 km/h
2765 03-10-2010 01:17:03 14.6 C 10.89 g/m*3 14.6 C 0 km/h
2766 03-10-2010 01:29:03 14.7 C 10.58 g/m*3 14.7 C 0 km/h
2767 03-10-2010 01:41:03 14.8 C 10.51 g/m*3 14.8 C 0 km/h
2768 03-10-2010 01:53:03 14.9 C 10.45 g/m*3 14.9 C 0 km/h
2769 03-10-2010 02:05:03 15 C 10.26 g/m*3 15 C 0 km/h
2770 03-10-2010 02:17:03 14.8 C 10.39 g/m*3 14.8 C 0 km/h
2771 03-10-2010 02:29:03 14.6 C 10.39 g/m*3 14.6 C 0 km/h
2772 03-10-2010 02:41:03 14.4 C 10.26 g/m*3 14.4 C 0 km/h
2773 03-10-2010 02:53:03 14.1 C 10.32 g/m*3 14.1 C 0 km/h
2774 03-10-2010 03:05:03 14 C 10.37 g/m*3 14 C 0 km/h
2775 03-10-2010 03:17:03 13.8 C 10.48 g/m*3 13.8 C 0 km/h
Sensor: Nr:Datum:Temp:Abs-Feuchte:Windchill:Wind:
Aussen-T/F 2776 03-10-2010 03:29:04 13.8 C 10.6 g/m*3 13.8 C 0 km/h
2777 03-10-2010 03:41:04 13.9 C 10.67 g/m*3 13.9 C 0 km/h
2778 03-10-2010 03:53:04 14.1 C 10.8 g/m*3 14.1 C 0 km/h
2779 03-10-2010 04:05:04 14 C 10.74 g/m*3 14 C 0 km/h
2780 03-10-2010 04:17:04 14.1 C 10.68 g/m*3 14.1 C 0 km/h
2781 03-10-2010 04:29:04 14 C 10.61 g/m*3 14 C 0 km/h
2782 03-10-2010 04:41:04 14 C 10.49 g/m*3 14 C 0 km/h
2783 03-10-2010 04:53:04 14.3 C 10.57 g/m*3 14.3 C 0 km/h
2784 03-10-2010 05:05:04 14.3 C 10.44 g/m*3 14.3 C 0 km/h
2785 03-10-2010 05:17:04 14.4 C 10.38 g/m*3 14.4 C 0 km/h
2786 03-10-2010 05:29:04 14.4 C 10.38 g/m*3 14.4 C 0 km/h
2787 03-10-2010 05:41:04 14.2 C 10.26 g/m*3 14.2 C 0 km/h
2788 03-10-2010 05:53:04 14 C 10.25 g/m*3 14 C 0 km/h
2789 03-10-2010 06:05:04 13.8 C 10.37 g/m*3 13.8 C 0 km/h
2790 03-10-2010 06:17:04 13.5 C 10.18 g/m*3 13.5 C 0 km/h
2791 03-10-2010 06:29:04 13.4 C 10.23 g/m*3 13.4 C 0 km/h
2792 03-10-2010 06:41:04 13.3 C 10.17 g/m*3 13.3 C 0 km/h
2793 03-10-2010 06:53:04 13.3 C 10.28 g/m*3 13.3 C 0 km/h
2794 03-10-2010 07:05:04 13.3 C 10.28 g/m*3 13.3 C 0 km/h
2795 03-10-2010 07:17:04 13.4 C 10.46 g/m*3 13.4 C 0 km/h
2796 03-10-2010 07:29:04 13.4 C 10.46 g/m*3 13.4 C 0 km/h
2797 03-10-2010 07:41:05 13.5 C 10.53 g/m*3 13.5 C 0 km/h
2798 03-10-2010 07:53:02 13.5 C 10.41 g/m*3 13.5 C 0 km/h
2799 03-10-2010 08:05:01 13.7 C 10.42 g/m*3 13.7 C 0 km/h
2800 03-10-2010 08:17:02 13.9 C 10.43 g/m*3 13.9 C 0 km/h
Sensor: Nr:Datum:Temp:Abs-Feuchte:Windchill:Wind:
Aussen-T/F 2801 03-10-2010 08:29:02 13.9 C 10.43 g/m*3 13.9 C 0 km/h
2802 03-10-2010 08:41:01 14.1 C 10.44 g/m*3 14.1 C 0 km/h
2803 03-10-2010 08:53:03 14.3 C 10.32 g/m*3 14.3 C 0 km/h
2804 03-10-2010 09:05:02 14.8 C 10.26 g/m*3 14.8 C 0 km/h
2805 03-10-2010 09:17:02 15 C 10 g/m*3 15 C 0 km/h
2806 03-10-2010 09:29:03 15.1 C 9.93 g/m*3 15.1 C 0 km/h
2807 03-10-2010 09:41:02 15.2 C 10.12 g/m*3 15.2 C 0 km/h
2808 03-10-2010 09:53:02 15.5 C 10.05 g/m*3 15.5 C 0 km/h
2809 03-10-2010 10:05:02 16.2 C 10.2 g/m*3 16.2 C 0 km/h
2810 03-10-2010 10:17:02 16.9 C 9.92 g/m*3 16.9 C 0 km/h
2811 03-10-2010 10:29:03 17 C 9.69 g/m*3 17 C 0 km/h
2812 03-10-2010 10:41:01 17 C 9.84 g/m*3 17 C 0 km/h
2813 03-10-2010 10:53:02 16.8 C 9.87 g/m*3 16.8 C 0 km/h
2814 03-10-2010 11:05:01 17.2 C 9.81 g/m*3 17.2 C 0 km/h
2815 03-10-2010 11:17:02 17.6 C 10.35 g/m*3 17.6 C 0 km/h
2816 03-10-2010 11:29:02 17.9 C 10.23 g/m*3 17.9 C 0 km/h
2817 03-10-2010 11:41:02 18.5 C 9.97 g/m*3 18.5 C 0 km/h
2818 03-10-2010 11:53:02 19.5 C 10.24 g/m*3 19.5 C 0 km/h
2819 03-10-2010 12:05:03 19.7 C 9.85 g/m*3 19.7 C 0 km/h
2820 03-10-2010 12:17:02 19.7 C 10.02 g/m*3 19.7 C 0 km/h
2821 03-10-2010 12:29:02 19.3 C 9.45 g/m*3 19.3 C 0 km/h
2822 03-10-2010 12:41:02 19.7 C 9.68 g/m*3 19.7 C 0 km/h
2823 03-10-2010 12:53:01 20 C 9.68 g/m*3 20 C 0 km/h
2824 03-10-2010 13:05:02 20.7 C 9.9 g/m*3 20.7 C 0 km/h
2825 03-10-2010 13:17:01 21.1 C 9.58 g/m*3 21.1 C 0 km/h
Sensor: Nr:Datum:Temp:Abs-Feuchte:Windchill:Wind:
Aussen-T/F 2826 03-10-2010 13:29:01 21.5 C 9.62 g/m*3 21.5 C 0 km/h
2827 03-10-2010 13:41:01 21.7 C 8.97 g/m*3 21.7 C 0 km/h
2828 03-10-2010 13:53:01 21.8 C 9.02 g/m*3 21.8 C 0 km/h
2829 03-10-2010 14:05:02 22.2 C 8.83 g/m*3 22.2 C 0 km/h
2830 03-10-2010 14:17:01 22.7 C 9.5 g/m*3 22.7 C 0 km/h
2831 03-10-2010 14:29:01 23.2 C 9.15 g/m*3 23.2 C 0 km/h
2832 03-10-2010 14:41:01 24.4 C 9.12 g/m*3 24.4 C 0 km/h
2833 03-10-2010 14:53:01 24.2 C 8.8 g/m*3 24.2 C 0 km/h
2834 03-10-2010 15:05:02 24.4 C 8.68 g/m*3 24.4 C 0 km/h
2835 03-10-2010 15:17:02 24.4 C 8.68 g/m*3 24.4 C 0 km/h
2836 03-10-2010 15:29:02 24.5 C 8.5 g/m*3 24.5 C 0 km/h
2837 03-10-2010 15:41:01 24.9 C 8.7 g/m*3 24.9 C 0 km/h
2838 03-10-2010 15:53:02 25.4 C 8.48 g/m*3 25.4 C 0 km/h
2839 03-10-2010 16:05:01 24.6 C 8.33 g/m*3 24.6 C 0 km/h
2840 03-10-2010 16:17:02 24.7 C 8.37 g/m*3 24.7 C 0 km/h
2841 03-10-2010 16:29:02 25.1 C 8.57 g/m*3 25.1 C 0 km/h
2842 03-10-2010 16:41:01 25.4 C 8.95 g/m*3 25.4 C 0 km/h
2843 03-10-2010 16:53:03 25.8 C 9.15 g/m*3 25.8 C 0 km/h
2844 03-10-2010 17:05:02 26.1 C 9.3 g/m*3 26.1 C 0 km/h
2845 03-10-2010 17:17:02 25.6 C 9.05 g/m*3 25.6 C 0 km/h
2846 03-10-2010 17:29:02 25.6 C 9.52 g/m*3 25.6 C 0 km/h
2847 03-10-2010 17:41:03 24.4 C 9.35 g/m*3 24.4 C 0 km/h
2848 03-10-2010 17:53:02 24.4 C 9.57 g/m*3 24.4 C 0 km/h
2849 03-10-2010 18:05:01 23.6 C 10.21 g/m*3 23.6 C 0 km/h
2850 03-10-2010 18:17:02 22.5 C 10.39 g/m*3 22.5 C 0 km/h
Sensor: Nr:Datum:Temp:Abs-Feuchte:Windchill:Wind:
Aussen-T/F 2851 03-10-2010 18:29:02 21.4 C 10.5 g/m*3 21.4 C 0 km/h
2852 03-10-2010 18:41:02 20.4 C 10.61 g/m*3 20.4 C 0 km/h
2853 03-10-2010 18:53:02 19.8 C 10.76 g/m*3 19.8 C 0 km/h
2854 03-10-2010 19:05:03 19.3 C 10.95 g/m*3 19.3 C 0 km/h
2855 03-10-2010 19:17:02 19 C 10.76 g/m*3 19 C 0 km/h
2856 03-10-2010 19:29:02 18.9 C 10.85 g/m*3 18.9 C 0 km/h
2857 03-10-2010 19:41:02 18.4 C 10.85 g/m*3 18.4 C 0 km/h
2858 03-10-2010 19:53:01 18.3 C 10.79 g/m*3 18.3 C 0 km/h
2859 03-10-2010 20:05:02 18.1 C 10.82 g/m*3 18.1 C 0 km/h
2860 03-10-2010 20:17:01 18.5 C 10.92 g/m*3 18.5 C 0 km/h
2861 03-10-2010 20:29:01 18.4 C 10.85 g/m*3 18.4 C 0 km/h
2862 03-10-2010 20:41:02 18.4 C 10.85 g/m*3 18.4 C 0 km/h
2863 03-10-2010 20:53:01 18.3 C 10.94 g/m*3 18.3 C 0 km/h
2864 03-10-2010 21:05:02 18.3 C 10.94 g/m*3 18.3 C 0 km/h
2865 03-10-2010 21:17:02 18.1 C 10.97 g/m*3 18.1 C 0 km/h
2866 03-10-2010 21:29:02 17.9 C 11.15 g/m*3 17.9 C 0 km/h
2867 03-10-2010 21:41:02 17.8 C 11.08 g/m*3 17.8 C 0 km/h
2868 03-10-2010 21:53:01 17.7 C 11.01 g/m*3 17.7 C 0 km/h
2869 03-10-2010 22:05:01 17.6 C 11.1 g/m*3 17.6 C 0 km/h
2870 03-10-2010 22:17:02 17.5 C 11.03 g/m*3 17.5 C 0 km/h
2871 03-10-2010 22:29:02 17.5 C 10.88 g/m*3 17.5 C 0 km/h
2872 03-10-2010 22:41:01 17.6 C 10.8 g/m*3 17.6 C 0 km/h
2873 03-10-2010 22:53:02 17.6 C 10.5 g/m*3 17.6 C 0 km/h
2874 03-10-2010 23:05:01 17.5 C 10.44 g/m*3 17.5 C 0 km/h
2875 03-10-2010 23:18:06 17.6 C 10.5 g/m*3 17.6 C 0 km/h
Sensor: Nr:Datum:Temp:Abs-Feuchte:Windchill:Wind:
Aussen-T/F 2876 03-10-2010 23:30:07 17.6 C 10.35 g/m*3 17.6 C 0 km/h
2877 03-10-2010 23:42:07 17.6 C 10.2 g/m*3 17.6 C 0 km/h
2878 03-10-2010 23:54:07 17.5 C 10.14 g/m*3 17.5 C 0 km/h
2879 04-10-2010 00:06:07 17.4 C 9.93 g/m*3 17.4 C 0 km/h
2880 04-10-2010 00:18:07 17.4 C 9.93 g/m*3 17.4 C 0 km/h
2881 04-10-2010 00:30:07 17.2 C 9.81 g/m*3 17.2 C 0 km/h
2882 04-10-2010 00:42:07 17.2 C 9.81 g/m*3 17.2 C 0 km/h
2883 04-10-2010 00:54:07 17.2 C 9.81 g/m*3 17.2 C 0 km/h
2884 04-10-2010 01:06:07 17.2 C 9.81 g/m*3 17.2 C 0 km/h
2885 04-10-2010 01:18:07 17.2 C 9.67 g/m*3 17.2 C 0 km/h
2886 04-10-2010 01:30:07 17.2 C 9.52 g/m*3 17.2 C 0 km/h
2887 04-10-2010 01:42:07 17.2 C 9.52 g/m*3 17.2 C 0 km/h
2888 04-10-2010 01:54:07 17.1 C 9.46 g/m*3 17.1 C 0 km/h
2889 04-10-2010 02:06:07 17 C 9.55 g/m*3 17 C 0 km/h
2890 04-10-2010 02:18:07 16.9 C 9.64 g/m*3 16.9 C 0 km/h
2891 04-10-2010 02:30:07 16.8 C 9.72 g/m*3 16.8 C 0 km/h
2892 04-10-2010 02:42:07 16.8 C 9.58 g/m*3 16.8 C 0 km/h
2893 04-10-2010 02:54:07 16.6 C 9.75 g/m*3 16.6 C 0 km/h
2894 04-10-2010 03:06:07 16.4 C 9.77 g/m*3 16.4 C 0 km/h
2895 04-10-2010 03:18:07 15.9 C 10.02 g/m*3 15.9 C 0 km/h
2896 04-10-2010 03:30:08 15.6 C 9.97 g/m*3 15.6 C 0 km/h
2897 04-10-2010 03:42:08 15.5 C 10.05 g/m*3 15.5 C 0 km/h
2898 04-10-2010 03:54:08 15.4 C 9.99 g/m*3 15.4 C 0 km/h
2899 04-10-2010 04:06:08 15.3 C 9.92 g/m*3 15.3 C 0 km/h
2900 04-10-2010 04:18:08 15.2 C 9.99 g/m*3 15.2 C 0 km/h
Sensor: Nr:Datum:Temp:Abs-Feuchte:Windchill:Wind:
Aussen-T/F 2901 04-10-2010 04:30:08 15.2 C 9.99 g/m*3 15.2 C 0 km/h
2902 04-10-2010 04:42:08 15 C 10 g/m*3 15 C 0 km/h
2903 04-10-2010 04:54:08 14.8 C 10.01 g/m*3 14.8 C 0 km/h
2904 04-10-2010 05:06:08 14.6 C 10.01 g/m*3 14.6 C 0 km/h
2905 04-10-2010 05:18:08 14.4 C 9.89 g/m*3 14.4 C 0 km/h
2906 04-10-2010 05:30:08 14.3 C 9.95 g/m*3 14.3 C 0 km/h
2907 04-10-2010 05:42:08 14.1 C 9.95 g/m*3 14.1 C 0 km/h
2908 04-10-2010 05:54:08 14.1 C 9.95 g/m*3 14.1 C 0 km/h
2909 04-10-2010 06:06:08 14.2 C 10.01 g/m*3 14.2 C 0 km/h
2910 04-10-2010 06:18:08 13.9 C 10.07 g/m*3 13.9 C 0 km/h
2911 04-10-2010 06:30:08 14 C 9.89 g/m*3 14 C 0 km/h
2912 04-10-2010 06:42:08 13.8 C 9.89 g/m*3 13.8 C 0 km/h
2913 04-10-2010 06:54:08 13.7 C 9.83 g/m*3 13.7 C 0 km/h
2914 04-10-2010 07:06:03 13.8 C 10.01 g/m*3 13.8 C 0 km/h
2915 04-10-2010 07:18:02 13.7 C 9.83 g/m*3 13.7 C 0 km/h
2916 04-10-2010 07:30:02 13.5 C 9.71 g/m*3 13.5 C 0 km/h
2917 04-10-2010 07:42:03 13.5 C 9.71 g/m*3 13.5 C 0 km/h
2918 04-10-2010 07:54:02 13.6 C 9.89 g/m*3 13.6 C 0 km/h
2919 04-10-2010 08:06:02 13.8 C 9.89 g/m*3 13.8 C 0 km/h
2920 04-10-2010 08:18:02 14.1 C 9.95 g/m*3 14.1 C 0 km/h
2921 04-10-2010 08:30:02 14.3 C 9.83 g/m*3 14.3 C 0 km/h
2922 04-10-2010 08:42:03 14.4 C 9.64 g/m*3 14.4 C 0 km/h
2923 04-10-2010 08:54:02 14.7 C 9.69 g/m*3 14.7 C 0 km/h
2924 04-10-2010 09:06:02 14.9 C 9.56 g/m*3 14.9 C 0 km/h
2925 04-10-2010 09:18:02 15 C 9.23 g/m*3 15 C 0 km/h
Sensor: Nr:Datum:Temp:Abs-Feuchte:Windchill:Wind:
Aussen-T/F 2926 04-10-2010 09:30:02 15 C 9.1 g/m*3 15 C 0 km/h
2927 04-10-2010 09:42:02 15 C 9.1 g/m*3 15 C 0 km/h
2928 04-10-2010 09:54:02 15.1 C 9.16 g/m*3 15.1 C 0 km/h
2929 04-10-2010 10:06:02 15.2 C 9.09 g/m*3 15.2 C 0 km/h
2930 04-10-2010 10:18:02 15.3 C 9.01 g/m*3 15.3 C 0 km/h
2931 04-10-2010 10:30:02 15.4 C 9.07 g/m*3 15.4 C 0 km/h
2932 04-10-2010 10:42:02 16 C 8.86 g/m*3 16 C 0 km/h
2933 04-10-2010 10:54:01 16.4 C 8.79 g/m*3 16.4 C 0 km/h
2934 04-10-2010 11:06:02 17.1 C 8.88 g/m*3 17.1 C 0 km/h
2935 04-10-2010 11:18:01 17.1 C 8.88 g/m*3 17.1 C 0 km/h
2936 04-10-2010 11:30:01 17.6 C 9 g/m*3 17.6 C 0 km/h
2937 04-10-2010 11:42:01 18 C 8.91 g/m*3 18 C 0 km/h
2938 04-10-2010 11:54:01 18.3 C 8.91 g/m*3 18.3 C 0 km/h
2939 04-10-2010 12:06:01 18.5 C 8.86 g/m*3 18.5 C 0 km/h
2940 04-10-2010 12:18:02 18 C 8.91 g/m*3 18 C 0 km/h
2941 04-10-2010 12:30:02 17.8 C 8.8 g/m*3 17.8 C 0 km/h
2942 04-10-2010 12:42:01 17.5 C 8.65 g/m*3 17.5 C 0 km/h
2943 04-10-2010 12:54:02 17.4 C 8.6 g/m*3 17.4 C 0 km/h
2944 04-10-2010 13:06:01 17.9 C 8.7 g/m*3 17.9 C 0 km/h
2945 04-10-2010 13:18:02 18.3 C 8.6 g/m*3 18.3 C 0 km/h
2946 04-10-2010 13:30:02 18.9 C 8.59 g/m*3 18.9 C 0 km/h
2947 04-10-2010 13:42:01 19.1 C 8.52 g/m*3 19.1 C 0 km/h
2948 04-10-2010 13:54:02 19.4 C 8.68 g/m*3 19.4 C 0 km/h
2949 04-10-2010 14:06:02 19.3 C 8.63 g/m*3 19.3 C 0 km/h
2950 04-10-2010 14:18:02 19.5 C 8.73 g/m*3 19.5 C 0 km/h
Sensor: Nr:Datum:Temp:Abs-Feuchte:Windchill:Wind:
Aussen-T/F 2951 04-10-2010 14:30:02 19.7 C 8.66 g/m*3 19.7 C 0 km/h
2952 04-10-2010 14:42:02 19.9 C 8.59 g/m*3 19.9 C 0 km/h
2953 04-10-2010 14:54:02 20.4 C 9.02 g/m*3 20.4 C 0 km/h
2954 04-10-2010 15:06:01 21.2 C 8.9 g/m*3 21.2 C 0 km/h
2955 04-10-2010 15:18:02 22.3 C 8.29 g/m*3 22.3 C 0 km/h
2956 04-10-2010 15:30:02 22.7 C 8.69 g/m*3 22.7 C 0 km/h
2957 04-10-2010 15:42:02 23 C 8.63 g/m*3 23 C 0 km/h
2958 04-10-2010 15:54:02 23.3 C 8.57 g/m*3 23.3 C 0 km/h
2959 04-10-2010 16:06:02 23.1 C 8.27 g/m*3 23.1 C 0 km/h
2960 04-10-2010 16:18:02 23.4 C 8.2 g/m*3 23.4 C 0 km/h
2961 04-10-2010 16:30:02 23.9 C 8.44 g/m*3 23.9 C 0 km/h
2962 04-10-2010 16:42:02 23.9 C 8 g/m*3 23.9 C 0 km/h
2963 04-10-2010 16:54:01 23.9 C 8.22 g/m*3 23.9 C 0 km/h
2964 04-10-2010 17:06:02 23.3 C 8.15 g/m*3 23.3 C 0 km/h
2965 04-10-2010 17:18:01 22 C 8.54 g/m*3 22 C 0 km/h
2966 04-10-2010 17:30:01 20.4 C 9.38 g/m*3 20.4 C 0 km/h
2967 04-10-2010 17:42:01 19.5 C 9.73 g/m*3 19.5 C 0 km/h
2968 04-10-2010 17:54:01 20.5 C 9.61 g/m*3 20.5 C 0 km/h
2969 04-10-2010 18:06:02 20.2 C 9.44 g/m*3 20.2 C 0 km/h
2970 04-10-2010 18:18:02 19.5 C 9.57 g/m*3 19.5 C 0 km/h
2971 04-10-2010 18:30:02 18.7 C 9.61 g/m*3 18.7 C 0 km/h
2972 04-10-2010 18:42:01 17.8 C 9.71 g/m*3 17.8 C 0 km/h
2973 04-10-2010 18:54:01 17.2 C 9.81 g/m*3 17.2 C 0 km/h
2974 04-10-2010 19:06:01 16.9 C 10.07 g/m*3 16.9 C 0 km/h
2975 04-10-2010 19:18:02 16.8 C 10.15 g/m*3 16.8 C 0 km/h
Sensor: Nr:Datum:Temp:Abs-Feuchte:Windchill:Wind:
Aussen-T/F 2976 04-10-2010 19:30:02 16.5 C 10.11 g/m*3 16.5 C 0 km/h
2977 04-10-2010 19:42:01 16.2 C 10.07 g/m*3 16.2 C 0 km/h
2978 04-10-2010 19:54:03 16.2 C 10.07 g/m*3 16.2 C 0 km/h
2979 04-10-2010 20:06:02 16.4 C 10.19 g/m*3 16.4 C 0 km/h
2980 04-10-2010 20:18:02 16.5 C 10.11 g/m*3 16.5 C 0 km/h
2981 04-10-2010 20:30:03 16.4 C 10.05 g/m*3 16.4 C 0 km/h
2982 04-10-2010 20:42:02 16.1 C 9.87 g/m*3 16.1 C 0 km/h
2983 04-10-2010 20:54:02 15.7 C 9.9 g/m*3 15.7 C 0 km/h
2984 04-10-2010 21:06:01 15.6 C 9.97 g/m*3 15.6 C 0 km/h
2985 04-10-2010 21:18:02 15.5 C 10.05 g/m*3 15.5 C 0 km/h
2986 04-10-2010 21:30:02 15.6 C 9.97 g/m*3 15.6 C 0 km/h
2987 04-10-2010 21:42:02 15.4 C 9.85 g/m*3 15.4 C 0 km/h
2988 04-10-2010 21:54:01 15 C 9.87 g/m*3 15 C 0 km/h
2989 04-10-2010 22:06:02 14.8 C 9.88 g/m*3 14.8 C 0 km/h
2990 04-10-2010 22:19:04 14.7 C 9.95 g/m*3 14.7 C 0 km/h
2991 04-10-2010 22:31:04 14.5 C 9.95 g/m*3 14.5 C 0 km/h
2992 04-10-2010 22:43:04 14.5 C 9.95 g/m*3 14.5 C 0 km/h
2993 04-10-2010 22:55:04 14.3 C 9.83 g/m*3 14.3 C 0 km/h
2994 04-10-2010 23:07:04 14.2 C 9.89 g/m*3 14.2 C 0 km/h
2995 04-10-2010 23:19:04 14.2 C 9.89 g/m*3 14.2 C 0 km/h
2996 04-10-2010 23:31:04 14.3 C 9.95 g/m*3 14.3 C 0 km/h
2997 04-10-2010 23:43:05 14.2 C 9.89 g/m*3 14.2 C 0 km/h
2998 04-10-2010 23:55:05 14.1 C 9.95 g/m*3 14.1 C 0 km/h
2999 05-10-2010 00:07:05 14.1 C 9.95 g/m*3 14.1 C 0 km/h
3000 05-10-2010 00:19:05 14.1 C 9.95 g/m*3 14.1 C 0 km/h
Sensor: Nr:Datum:Temp:Abs-Feuchte:Windchill:Wind:
Aussen-T/F 3001 05-10-2010 00:31:05 14.2 C 10.01 g/m*3 14.2 C 0 km/h
3002 05-10-2010 00:43:05 14.3 C 10.07 g/m*3 14.3 C 0 km/h
3003 05-10-2010 00:55:05 14.3 C 10.07 g/m*3 14.3 C 0 km/h
3004 05-10-2010 01:07:05 14.2 C 10.01 g/m*3 14.2 C 0 km/h
3005 05-10-2010 01:19:05 14.1 C 9.95 g/m*3 14.1 C 0 km/h
3006 05-10-2010 01:31:05 13.8 C 9.77 g/m*3 13.8 C 0 km/h
3007 05-10-2010 01:43:05 13.8 C 9.89 g/m*3 13.8 C 0 km/h
3008 05-10-2010 01:55:05 13.8 C 9.89 g/m*3 13.8 C 0 km/h
3009 05-10-2010 02:07:05 13.4 C 9.65 g/m*3 13.4 C 0 km/h
3010 05-10-2010 02:19:05 13.5 C 9.71 g/m*3 13.5 C 0 km/h
3011 05-10-2010 02:31:05 13.5 C 9.83 g/m*3 13.5 C 0 km/h
3012 05-10-2010 02:43:05 13.6 C 10 g/m*3 13.6 C 0 km/h
3013 05-10-2010 02:55:05 13.6 C 10 g/m*3 13.6 C 0 km/h
3014 05-10-2010 03:07:05 13.6 C 10 g/m*3 13.6 C 0 km/h
3015 05-10-2010 03:19:05 13.6 C 10 g/m*3 13.6 C 0 km/h
3016 05-10-2010 03:31:05 13.7 C 10.07 g/m*3 13.7 C 0 km/h
3017 05-10-2010 03:43:05 13.6 C 10 g/m*3 13.6 C 0 km/h
3018 05-10-2010 03:55:06 13.5 C 9.94 g/m*3 13.5 C 0 km/h
3019 05-10-2010 04:07:06 13.5 C 9.94 g/m*3 13.5 C 0 km/h
3020 05-10-2010 04:19:06 13.6 C 10.12 g/m*3 13.6 C 0 km/h
3021 05-10-2010 04:31:06 13.6 C 10.12 g/m*3 13.6 C 0 km/h
3022 05-10-2010 04:43:06 13.6 C 10.12 g/m*3 13.6 C 0 km/h
3023 05-10-2010 04:55:06 13.7 C 10.18 g/m*3 13.7 C 0 km/h
3024 05-10-2010 05:07:06 13.7 C 10.18 g/m*3 13.7 C 0 km/h
3025 05-10-2010 05:19:06 13.7 C 10.18 g/m*3 13.7 C 0 km/h
Sensor: Nr:Datum:Temp:Abs-Feuchte:Windchill:Wind:
Aussen-T/F 3026 05-10-2010 05:31:06 13.6 C 10.12 g/m*3 13.6 C 0 km/h
3027 05-10-2010 05:43:06 13.5 C 10.06 g/m*3 13.5 C 0 km/h
3028 05-10-2010 05:55:06 13.5 C 10.18 g/m*3 13.5 C 0 km/h
3029 05-10-2010 06:07:06 13.4 C 10.23 g/m*3 13.4 C 0 km/h
3030 05-10-2010 06:19:06 13.4 C 10.35 g/m*3 13.4 C 0 km/h
3031 05-10-2010 06:31:06 13.4 C 10.35 g/m*3 13.4 C 0 km/h
3032 05-10-2010 06:43:06 13.4 C 10.46 g/m*3 13.4 C 0 km/h
3033 05-10-2010 06:55:06 13.5 C 10.53 g/m*3 13.5 C 0 km/h
3034 05-10-2010 07:07:01 13.4 C 10.46 g/m*3 13.4 C 0 km/h
3035 05-10-2010 07:19:02 13.4 C 10.58 g/m*3 13.4 C 0 km/h
3036 05-10-2010 07:31:02 13.4 C 10.58 g/m*3 13.4 C 0 km/h
3037 05-10-2010 07:43:02 13.4 C 10.58 g/m*3 13.4 C 0 km/h
3038 05-10-2010 07:55:02 13.4 C 10.58 g/m*3 13.4 C 0 km/h
3039 05-10-2010 08:07:02 13.4 C 10.58 g/m*3 13.4 C 0 km/h
3040 05-10-2010 08:19:02 13.2 C 10.45 g/m*3 13.2 C 0 km/h
3041 05-10-2010 08:31:02 13.1 C 10.38 g/m*3 13.1 C 0 km/h
3042 05-10-2010 08:43:02 13 C 10.32 g/m*3 13 C 0 km/h
3043 05-10-2010 08:55:02 13 C 10.32 g/m*3 13 C 0 km/h
3044 05-10-2010 09:07:02 13 C 10.43 g/m*3 13 C 0 km/h
3045 05-10-2010 09:19:02 13.2 C 10.56 g/m*3 13.2 C 0 km/h
3046 05-10-2010 09:31:01 13.4 C 10.69 g/m*3 13.4 C 0 km/h
3047 05-10-2010 09:43:01 13.4 C 10.81 g/m*3 13.4 C 0 km/h
3048 05-10-2010 09:55:02 13.5 C 10.88 g/m*3 13.5 C 0 km/h
3049 05-10-2010 10:07:01 13.8 C 11.08 g/m*3 13.8 C 0 km/h
3050 05-10-2010 10:19:02 14.3 C 11.43 g/m*3 14.3 C 0 km/h
Sensor: Nr:Datum:Temp:Abs-Feuchte:Windchill:Wind:
Aussen-T/F 3051 05-10-2010 10:31:02 14.7 C 11.83 g/m*3 14.7 C 0 km/h
3052 05-10-2010 10:43:02 15.2 C 12.07 g/m*3 15.2 C 0 km/h
3053 05-10-2010 10:55:02 16 C 12.67 g/m*3 16 C 0 km/h
3054 05-10-2010 11:07:02 17.2 C 13.62 g/m*3 17.2 C 0 km/h
3055 05-10-2010 11:19:02 17.3 C 13.7 g/m*3 17.3 C 0 km/h
3056 05-10-2010 11:31:02 17.4 C 13.34 g/m*3 17.4 C 0 km/h
3057 05-10-2010 11:43:02 17.3 C 12.37 g/m*3 17.3 C 0 km/h
3058 05-10-2010 11:55:01 18.2 C 11.97 g/m*3 18.2 C 0 km/h
3059 05-10-2010 12:07:02 18.3 C 11.73 g/m*3 18.3 C 0 km/h
3060 05-10-2010 12:19:02 17.9 C 11.45 g/m*3 17.9 C 0 km/h
3061 05-10-2010 12:31:01 18 C 11.37 g/m*3 18 C 0 km/h
3062 05-10-2010 12:43:01 17.9 C 11.3 g/m*3 17.9 C 0 km/h
3063 05-10-2010 12:55:02 18.4 C 11.32 g/m*3 18.4 C 0 km/h
3064 05-10-2010 13:07:01 18.7 C 11.37 g/m*3 18.7 C 0 km/h
3065 05-10-2010 13:19:02 18.9 C 11.18 g/m*3 18.9 C 0 km/h
3066 05-10-2010 13:31:01 19 C 11.08 g/m*3 19 C 0 km/h
3067 05-10-2010 13:43:01 19.3 C 11.44 g/m*3 19.3 C 0 km/h
3068 05-10-2010 13:55:02 20 C 11.06 g/m*3 20 C 0 km/h
3069 05-10-2010 14:07:02 19.9 C 10.31 g/m*3 19.9 C 0 km/h
3070 05-10-2010 14:19:02 19.5 C 10.57 g/m*3 19.5 C 0 km/h
3071 05-10-2010 14:31:02 19.6 C 10.8 g/m*3 19.6 C 0 km/h
3072 05-10-2010 14:43:02 18.7 C 11.05 g/m*3 18.7 C 0 km/h
3073 05-10-2010 14:55:02 18.6 C 11.94 g/m*3 18.6 C 0 km/h
3074 05-10-2010 15:07:01 19 C 12.22 g/m*3 19 C 0 km/h
3075 05-10-2010 15:19:02 17.9 C 12.06 g/m*3 17.9 C 0 km/h
Sensor: Nr:Datum:Temp:Abs-Feuchte:Windchill:Wind:
Aussen-T/F 3076 05-10-2010 15:31:02 18.3 C 12.51 g/m*3 18.3 C 0 km/h
3077 05-10-2010 15:43:02 19.3 C 13.27 g/m*3 19.3 C 0 km/h
3078 05-10-2010 15:55:01 19.5 C 13.09 g/m*3 19.5 C 0 km/h
3079 05-10-2010 16:07:02 19 C 12.55 g/m*3 19 C 0 km/h
3080 05-10-2010 16:19:01 18.7 C 12.65 g/m*3 18.7 C 0 km/h
3081 05-10-2010 16:31:02 18.4 C 12.43 g/m*3 18.4 C 0 km/h
3082 05-10-2010 16:43:02 18.3 C 12.51 g/m*3 18.3 C 0 km/h
3083 05-10-2010 16:55:02 18.1 C 12.21 g/m*3 18.1 C 0 km/h
3084 05-10-2010 17:07:02 17.7 C 11.92 g/m*3 17.7 C 0 km/h
3085 05-10-2010 17:19:01 17.2 C 11.42 g/m*3 17.2 C 0 km/h
3086 05-10-2010 17:31:02 16.8 C 11.58 g/m*3 16.8 C 0 km/h
3087 05-10-2010 17:43:02 16.8 C 11.72 g/m*3 16.8 C 0 km/h
3088 05-10-2010 17:55:02 17 C 11.72 g/m*3 17 C 0 km/h
3089 05-10-2010 18:07:02 17.1 C 11.65 g/m*3 17.1 C 0 km/h
3090 05-10-2010 18:19:02 17.1 C 11.65 g/m*3 17.1 C 0 km/h
3091 05-10-2010 18:31:02 17.1 C 11.35 g/m*3 17.1 C 0 km/h
3092 05-10-2010 18:43:02 17 C 11.29 g/m*3 17 C 0 km/h
3093 05-10-2010 18:55:02 16.8 C 11.29 g/m*3 16.8 C 0 km/h
3094 05-10-2010 19:07:02 16.6 C 11.3 g/m*3 16.6 C 0 km/h
3095 05-10-2010 19:19:03 16.5 C 11.23 g/m*3 16.5 C 0 km/h
3096 05-10-2010 19:31:02 16.5 C 11.37 g/m*3 16.5 C 0 km/h
3097 05-10-2010 19:43:02 17.3 C 11.64 g/m*3 17.3 C 0 km/h
3098 05-10-2010 19:55:02 16.4 C 11.03 g/m*3 16.4 C 0 km/h
3099 05-10-2010 20:07:02 16.4 C 11.03 g/m*3 16.4 C 0 km/h
3100 05-10-2010 20:19:02 16.4 C 11.03 g/m*3 16.4 C 0 km/h
Sensor: Nr:Datum:Temp:Abs-Feuchte:Windchill:Wind:
Aussen-T/F 3101 05-10-2010 20:31:02 16.4 C 11.03 g/m*3 16.4 C 0 km/h
3102 05-10-2010 20:43:02 16.3 C 10.96 g/m*3 16.3 C 0 km/h
3103 05-10-2010 20:55:02 16.3 C 10.68 g/m*3 16.3 C 0 km/h
3104 05-10-2010 21:07:02 16.1 C 10.55 g/m*3 16.1 C 0 km/h
3105 05-10-2010 21:19:02 16 C 10.35 g/m*3 16 C 0 km/h
3106 05-10-2010 21:31:01 15.6 C 10.24 g/m*3 15.6 C 0 km/h
3107 05-10-2010 21:43:01 15.4 C 10.12 g/m*3 15.4 C 0 km/h
3108 05-10-2010 21:55:02 15.3 C 10.06 g/m*3 15.3 C 0 km/h
3109 05-10-2010 22:07:01 15.2 C 9.99 g/m*3 15.2 C 0 km/h
3110 05-10-2010 22:19:02 15.3 C 9.92 g/m*3 15.3 C 0 km/h
3111 05-10-2010 22:31:01 15.4 C 9.99 g/m*3 15.4 C 0 km/h
3112 05-10-2010 22:43:01 15.2 C 9.99 g/m*3 15.2 C 0 km/h
3113 05-10-2010 22:55:02 15.4 C 9.99 g/m*3 15.4 C 0 km/h
3114 05-10-2010 23:07:01 15.6 C 9.97 g/m*3 15.6 C 0 km/h
3115 05-10-2010 23:19:02 15.6 C 9.97 g/m*3 15.6 C 0 km/h
3116 05-10-2010 23:31:01 15.6 C 9.97 g/m*3 15.6 C 0 km/h
3117 05-10-2010 23:43:01 15.6 C 9.97 g/m*3 15.6 C 0 km/h
3118 05-10-2010 23:55:02 15.6 C 9.97 g/m*3 15.6 C 0 km/h
3119 06-10-2010 00:07:01 15.6 C 9.97 g/m*3 15.6 C 0 km/h
3120 06-10-2010 00:19:02 15.6 C 9.97 g/m*3 15.6 C 0 km/h
3121 06-10-2010 00:31:01 15.6 C 9.97 g/m*3 15.6 C 0 km/h
3122 06-10-2010 00:43:01 15.6 C 9.97 g/m*3 15.6 C 0 km/h
3123 06-10-2010 00:55:02 15.6 C 9.97 g/m*3 15.6 C 0 km/h
3124 06-10-2010 01:07:02 15.5 C 9.91 g/m*3 15.5 C 0 km/h
3125 06-10-2010 01:19:02 15.5 C 9.91 g/m*3 15.5 C 0 km/h
Sensor: Nr:Datum:Temp:Abs-Feuchte:Windchill:Wind:
Aussen-T/F 3126 06-10-2010 01:31:03 15.5 C 10.05 g/m*3 15.5 C 0 km/h
3127 06-10-2010 01:43:03 15.5 C 10.05 g/m*3 15.5 C 0 km/h
3128 06-10-2010 01:55:02 15.5 C 10.05 g/m*3 15.5 C 0 km/h
3129 06-10-2010 02:07:01 15.5 C 10.05 g/m*3 15.5 C 0 km/h
3130 06-10-2010 02:19:02 15.5 C 10.18 g/m*3 15.5 C 0 km/h
3131 06-10-2010 02:31:02 15.4 C 10.25 g/m*3 15.4 C 0 km/h
3132 06-10-2010 02:43:02 15.4 C 10.25 g/m*3 15.4 C 0 km/h
3133 06-10-2010 02:55:01 15.4 C 10.12 g/m*3 15.4 C 0 km/h
3134 06-10-2010 03:07:01 15.3 C 10.19 g/m*3 15.3 C 0 km/h
3135 06-10-2010 03:19:02 15.3 C 10.06 g/m*3 15.3 C 0 km/h
3136 06-10-2010 03:31:01 15.3 C 10.06 g/m*3 15.3 C 0 km/h
3137 06-10-2010 03:43:02 15.3 C 10.06 g/m*3 15.3 C 0 km/h
3138 06-10-2010 03:55:02 15.2 C 10.12 g/m*3 15.2 C 0 km/h
3139 06-10-2010 04:07:01 15.2 C 10.12 g/m*3 15.2 C 0 km/h
3140 06-10-2010 04:19:01 15.2 C 10.12 g/m*3 15.2 C 0 km/h
3141 06-10-2010 04:31:02 15.1 C 10.06 g/m*3 15.1 C 0 km/h
3142 06-10-2010 04:43:02 15 C 10 g/m*3 15 C 0 km/h
3143 06-10-2010 04:55:01 15 C 10.13 g/m*3 15 C 0 km/h
3144 06-10-2010 05:07:02 14.9 C 10.2 g/m*3 14.9 C 0 km/h
3145 06-10-2010 05:19:01 15 C 10.13 g/m*3 15 C 0 km/h
3146 06-10-2010 05:31:02 14.9 C 10.32 g/m*3 14.9 C 0 km/h
3147 06-10-2010 05:43:02 14.9 C 10.32 g/m*3 14.9 C 0 km/h
3148 06-10-2010 05:55:01 14.9 C 10.32 g/m*3 14.9 C 0 km/h
3149 06-10-2010 06:07:02 14.8 C 10.26 g/m*3 14.8 C 0 km/h
3150 06-10-2010 06:19:01 14.9 C 10.32 g/m*3 14.9 C 0 km/h
Sensor: Nr:Datum:Temp:Abs-Feuchte:Windchill:Wind:
Aussen-T/F 3151 06-10-2010 06:31:01 14.8 C 10.01 g/m*3 14.8 C 0 km/h
3152 06-10-2010 06:43:01 14.8 C 10.01 g/m*3 14.8 C 0 km/h
3153 06-10-2010 06:55:01 14.8 C 9.88 g/m*3 14.8 C 0 km/h
3154 06-10-2010 07:07:01 14.7 C 9.82 g/m*3 14.7 C 0 km/h
3155 06-10-2010 07:19:01 14.7 C 9.95 g/m*3 14.7 C 0 km/h
3156 06-10-2010 07:31:01 14.7 C 9.95 g/m*3 14.7 C 0 km/h
3157 06-10-2010 07:43:02 14.6 C 10.01 g/m*3 14.6 C 0 km/h
3158 06-10-2010 07:55:02 14.6 C 10.01 g/m*3 14.6 C 0 km/h
3159 06-10-2010 08:07:01 14.5 C 10.07 g/m*3 14.5 C 0 km/h
3160 06-10-2010 08:19:02 14.3 C 9.95 g/m*3 14.3 C 0 km/h
3161 06-10-2010 08:31:01 14.1 C 9.95 g/m*3 14.1 C 0 km/h
3162 06-10-2010 08:43:01 14.5 C 10.32 g/m*3 14.5 C 0 km/h
3163 06-10-2010 08:55:01 15.2 C 10.64 g/m*3 15.2 C 0 km/h
3164 06-10-2010 09:07:01 15.6 C 10.64 g/m*3 15.6 C 0 km/h
3165 06-10-2010 09:19:02 15.5 C 10.31 g/m*3 15.5 C 0 km/h
3166 06-10-2010 09:31:01 15.3 C 10.06 g/m*3 15.3 C 0 km/h
3167 06-10-2010 09:43:01 15.6 C 9.84 g/m*3 15.6 C 0 km/h
3168 06-10-2010 09:55:02 15.7 C 9.77 g/m*3 15.7 C 0 km/h
3169 06-10-2010 10:07:01 15.9 C 10.16 g/m*3 15.9 C 0 km/h
3170 06-10-2010 10:19:01 16.2 C 9.93 g/m*3 16.2 C 0 km/h
3171 06-10-2010 10:31:01 16.3 C 9.99 g/m*3 16.3 C 0 km/h
3172 06-10-2010 10:43:01 16.4 C 9.63 g/m*3 16.4 C 0 km/h
3173 06-10-2010 10:55:02 16.4 C 9.91 g/m*3 16.4 C 0 km/h
3174 06-10-2010 11:07:01 17.1 C 9.46 g/m*3 17.1 C 0 km/h
3175 06-10-2010 11:19:01 17.2 C 9.37 g/m*3 17.2 C 0 km/h
Sensor: Nr:Datum:Temp:Abs-Feuchte:Windchill:Wind:
Aussen-T/F 3176 06-10-2010 11:31:02 17.7 C 9.35 g/m*3 17.7 C 0 km/h
3177 06-10-2010 11:43:02 18.2 C 9.01 g/m*3 18.2 C 0 km/h
3178 06-10-2010 11:55:01 18.6 C 9.07 g/m*3 18.6 C 0 km/h
3179 06-10-2010 12:07:02 18.9 C 8.91 g/m*3 18.9 C 0 km/h
3180 06-10-2010 12:19:01 18.8 C 8.7 g/m*3 18.8 C 0 km/h
3181 06-10-2010 12:31:02 19 C 8.64 g/m*3 19 C 0 km/h
3182 06-10-2010 12:43:02 19.2 C 8.57 g/m*3 19.2 C 0 km/h
3183 06-10-2010 12:55:01 19.3 C 8.63 g/m*3 19.3 C 0 km/h
3184 06-10-2010 13:07:02 19.8 C 8.71 g/m*3 19.8 C 0 km/h
3185 06-10-2010 13:19:01 20.2 C 8.39 g/m*3 20.2 C 0 km/h
3186 06-10-2010 13:31:01 20.4 C 8.67 g/m*3 20.4 C 0 km/h
3187 06-10-2010 13:43:01 20.3 C 8.27 g/m*3 20.3 C 0 km/h
3188 06-10-2010 13:55:01 20.3 C 8.44 g/m*3 20.3 C 0 km/h
3189 06-10-2010 14:07:01 20.4 C 8.31 g/m*3 20.4 C 0 km/h
3190 06-10-2010 14:19:01 21 C 8.43 g/m*3 21 C 0 km/h
3191 06-10-2010 14:31:01 21.6 C 8.35 g/m*3 21.6 C 0 km/h
3192 06-10-2010 14:43:01 22.2 C 8.25 g/m*3 22.2 C 0 km/h
3193 06-10-2010 14:55:01 22.9 C 7.77 g/m*3 22.9 C 0 km/h
3194 06-10-2010 15:07:01 23.3 C 8.15 g/m*3 23.3 C 0 km/h
3195 06-10-2010 15:19:02 23.4 C 8.41 g/m*3 23.4 C 0 km/h
3196 06-10-2010 15:31:01 23.3 C 8.15 g/m*3 23.3 C 0 km/h
3197 06-10-2010 15:43:01 22.9 C 8.17 g/m*3 22.9 C 0 km/h
3198 06-10-2010 15:55:02 22.4 C 8.34 g/m*3 22.4 C 0 km/h
3199 06-10-2010 16:07:01 22.8 C 8.53 g/m*3 22.8 C 0 km/h
3200 06-10-2010 16:19:02 23.2 C 8.32 g/m*3 23.2 C 0 km/h
Sensor: Nr:Datum:Temp:Abs-Feuchte:Windchill:Wind:
Aussen-T/F 3201 06-10-2010 16:31:01 22.8 C 9.14 g/m*3 22.8 C 0 km/h
3202 06-10-2010 16:43:01 22.7 C 9.7 g/m*3 22.7 C 0 km/h
3203 06-10-2010 16:55:02 22.7 C 9.09 g/m*3 22.7 C 0 km/h
3204 06-10-2010 17:07:01 21.9 C 9.84 g/m*3 21.9 C 0 km/h
3205 06-10-2010 17:19:01 21.5 C 10.18 g/m*3 21.5 C 0 km/h
3206 06-10-2010 17:31:02 21.1 C 10.32 g/m*3 21.1 C 0 km/h
3207 06-10-2010 17:43:02 20.7 C 10.26 g/m*3 20.7 C 0 km/h
3208 06-10-2010 17:55:01 20.2 C 10.14 g/m*3 20.2 C 0 km/h
3209 06-10-2010 18:07:01 19.7 C 10.02 g/m*3 19.7 C 0 km/h
3210 06-10-2010 18:19:01 19.4 C 10.34 g/m*3 19.4 C 0 km/h
3211 06-10-2010 18:31:02 18.9 C 10.21 g/m*3 18.9 C 0 km/h
3212 06-10-2010 18:43:02 18.6 C 10.35 g/m*3 18.6 C 0 km/h
3213 06-10-2010 18:55:01 18.1 C 10.2 g/m*3 18.1 C 0 km/h
3214 06-10-2010 19:07:02 17.9 C 10.23 g/m*3 17.9 C 0 km/h
3215 06-10-2010 19:19:01 17.5 C 10.14 g/m*3 17.5 C 0 km/h
3216 06-10-2010 19:31:01 17.2 C 10.25 g/m*3 17.2 C 0 km/h
3217 06-10-2010 19:43:01 17 C 10.13 g/m*3 17 C 0 km/h
3218 06-10-2010 19:55:01 16.9 C 10.21 g/m*3 16.9 C 0 km/h
3219 06-10-2010 20:07:01 16.9 C 10.07 g/m*3 16.9 C 0 km/h
3220 06-10-2010 20:19:01 17 C 9.98 g/m*3 17 C 0 km/h
3221 06-10-2010 20:31:01 17 C 9.98 g/m*3 17 C 0 km/h
3222 06-10-2010 20:43:01 16.8 C 10.29 g/m*3 16.8 C 0 km/h
3223 06-10-2010 20:55:01 16.8 C 10.29 g/m*3 16.8 C 0 km/h
3224 06-10-2010 21:07:01 16.6 C 10.45 g/m*3 16.6 C 0 km/h
3225 06-10-2010 21:19:02 16.5 C 10.39 g/m*3 16.5 C 0 km/h
Sensor: Nr:Datum:Temp:Abs-Feuchte:Windchill:Wind:
Aussen-T/F 3226 06-10-2010 21:31:01 16.4 C 10.47 g/m*3 16.4 C 0 km/h
3227 06-10-2010 21:43:01 16.2 C 10.34 g/m*3 16.2 C 0 km/h
3228 06-10-2010 21:55:02 16.1 C 10.42 g/m*3 16.1 C 0 km/h
3229 06-10-2010 22:07:02 16 C 10.49 g/m*3 16 C 0 km/h
3230 06-10-2010 22:19:01 15.8 C 10.5 g/m*3 15.8 C 0 km/h
3231 06-10-2010 22:31:01 15.8 C </